Darstellungsparameter: Aktuell verwendete Einstellungen:
Skalierung der Graphiken ... ?
xyx+y,   Skalierungsfaktor:      Skalierung: Modus: x, Faktor: 1
Darstellungszeitraum ... ?
Vom - - bis: - -   Zeitraum: 02.01.2015 - 22.01.2015
Min/Max/Avg-Anzeige ... ?
Zeige MMA aktuell
Zeige MMA Monat
Zeige MMA alles
Zeige --A aktuell
Zeige --A Monat
Zeige --A alles
Keine MMA-Anzeige
MMA:
Average (ber die Originaldaten)
MMA-Basis: 02.01.2015 - 22.01.2015
Quicknavigation für Darstellung... ?
Tage:      1T, 2T, 3T, 5T -1T -2T -3T -5T +1T +2T +3T +5T
Wochen: 1W, 2W, 3W -1W -2W -3W +1W +2W +3W
Monate: 1M, 3M, 6M -1M -3M -6M +1M +3M +6M
Jahre:    1J, 3J, 5J, 10J -1J -3J -5J -10J +1J +3J +5J +10J
Nutze für die Darstellung ... ?
Originaldaten oder Mittelwerte auf ...
Stundenbasis Tagesbasis Wochenbasis
Monatsbasis Jahresbasis      Datenbasis: Original-Daten
Darstellen als:
Statistik (Auto) Statistik J:M      Darstellung:
Zur Graphik,    zurück zur Übersicht aller Sensoren.
 
Tabellarische Datenbersicht: ?
 
Sensor: Nr:Datum:Temp:Abs-Feuchte:Windchill:Wind:
Aussen-T/F 1 02-01-2015 03:25:00 2.2 C 4.96 g/m*3 -0.99 C 11.3 km/h
2 02-01-2015 03:30:00 2.2 C 4.96 g/m*3 2.2 C 1.6 km/h
3 02-01-2015 03:35:00 2.2 C 4.96 g/m*3 -0.61 C 9.7 km/h
4 02-01-2015 05:05:00 3.2 C 4.94 g/m*3 -0.1 C 12.9 km/h
5 02-01-2015 05:10:00 3.2 C 4.94 g/m*3 0.22 C 11.3 km/h
6 02-01-2015 05:15:00 3.2 C 4.94 g/m*3 -1.32 C 20.9 km/h
7 02-01-2015 05:20:00 3.2 C 4.94 g/m*3 0.22 C 11.3 km/h
8 02-01-2015 05:25:00 3.2 C 4.94 g/m*3 0.22 C 11.3 km/h
9 02-01-2015 05:30:00 3.2 C 4.94 g/m*3 -0.39 C 14.5 km/h
10 02-01-2015 06:25:00 3.6 C 4.95 g/m*3 -0.15 C 16.1 km/h
11 02-01-2015 06:30:00 3.4 C 4.95 g/m*3 -0.14 C 14.5 km/h
12 02-01-2015 06:35:00 3.3 C 4.97 g/m*3 -1.57 C 24.1 km/h
13 02-01-2015 06:40:00 3.3 C 4.97 g/m*3 -0.76 C 17.7 km/h
14 02-01-2015 06:45:00 3.3 C 5.04 g/m*3 -1.19 C 20.9 km/h
15 02-01-2015 06:50:00 3.2 C 5 g/m*3 -1.11 C 19.3 km/h
16 02-01-2015 06:55:00 3.2 C 5 g/m*3 -1.87 C 25.7 km/h
17 02-01-2015 07:00:00 3.3 C 5.04 g/m*3 -1.74 C 25.7 km/h
18 02-01-2015 07:05:00 3.2 C 5 g/m*3 -1.51 C 22.5 km/h
19 02-01-2015 07:10:00 3.2 C 5 g/m*3 -0.89 C 17.7 km/h
20 02-01-2015 07:15:00 3.2 C 5.06 g/m*3 0.22 C 11.3 km/h
21 02-01-2015 07:20:00 3.1 C 5.03 g/m*3 -1.64 C 22.5 km/h
22 02-01-2015 07:25:00 3.1 C 5.09 g/m*3 -1.45 C 20.9 km/h
23 02-01-2015 07:30:00 3.1 C 5.09 g/m*3 -2.18 C 27.4 km/h
24 02-01-2015 07:35:00 3 C 5.05 g/m*3 -0.9 C 16.1 km/h
25 02-01-2015 07:40:00 3 C 5.05 g/m*3 -0.34 C 12.9 km/h
Sensor: Nr:Datum:Temp:Abs-Feuchte:Windchill:Wind:
Aussen-T/F 26 02-01-2015 07:45:00 2.9 C 5.08 g/m*3 -0.76 C 14.5 km/h
27 02-01-2015 07:50:00 2.9 C 5.08 g/m*3 -0.46 C 12.9 km/h
28 02-01-2015 07:55:00 2.9 C 5.08 g/m*3 -0.76 C 14.5 km/h
29 02-01-2015 08:00:00 2.8 C 5.1 g/m*3 -2.02 C 22.5 km/h
30 02-01-2015 08:05:00 2.8 C 5.1 g/m*3 0.52 C 8.1 km/h
31 02-01-2015 08:10:00 2.8 C 5.1 g/m*3 -0.26 C 11.3 km/h
32 02-01-2015 08:15:00 2.8 C 5.1 g/m*3 -1.61 C 19.3 km/h
33 02-01-2015 08:20:00 2.7 C 5.13 g/m*3 -2.34 C 24.1 km/h
34 02-01-2015 08:25:00 2.8 C 5.16 g/m*3 -1.61 C 19.3 km/h
35 02-01-2015 08:30:00 2.8 C 5.16 g/m*3 -0.88 C 14.5 km/h
36 02-01-2015 08:35:00 2.8 C 5.16 g/m*3 -1.39 C 17.7 km/h
37 02-01-2015 08:40:00 2.7 C 5.13 g/m*3 -1.95 C 20.9 km/h
38 02-01-2015 08:45:00 2.8 C 5.16 g/m*3 -2.57 C 27.4 km/h
39 02-01-2015 08:50:00 2.8 C 5.22 g/m*3 -1.39 C 17.7 km/h
40 02-01-2015 08:55:00 2.7 C 5.19 g/m*3 -1.74 C 19.3 km/h
41 02-01-2015 09:00:00 2.7 C 5.19 g/m*3 -1.51 C 17.7 km/h
42 02-01-2015 09:05:00 2.7 C 5.24 g/m*3 -1.27 C 16.1 km/h
43 02-01-2015 09:10:00 2.7 C 5.24 g/m*3 -2.15 C 22.5 km/h
44 02-01-2015 09:15:00 2.7 C 5.24 g/m*3 -2.15 C 22.5 km/h
45 02-01-2015 09:20:00 2.7 C 5.24 g/m*3 -1.95 C 20.9 km/h
46 02-01-2015 09:25:00 2.7 C 5.24 g/m*3 -2.34 C 24.1 km/h
47 02-01-2015 09:30:00 2.7 C 5.3 g/m*3 -2.34 C 24.1 km/h
48 02-01-2015 09:35:00 2.7 C 5.3 g/m*3 -1.27 C 16.1 km/h
49 02-01-2015 09:40:00 2.7 C 5.24 g/m*3 -2.34 C 24.1 km/h
50 02-01-2015 09:45:00 2.8 C 5.28 g/m*3 -2.39 C 25.7 km/h
Sensor: Nr:Datum:Temp:Abs-Feuchte:Windchill:Wind:
Aussen-T/F 51 02-01-2015 09:50:00 2.8 C 5.28 g/m*3 -1.39 C 17.7 km/h
52 02-01-2015 09:55:00 2.8 C 5.28 g/m*3 -1.83 C 20.9 km/h
53 02-01-2015 10:00:00 2.9 C 5.32 g/m*3 -1.02 C 16.1 km/h
54 02-01-2015 10:05:00 2.9 C 5.32 g/m*3 -2.26 C 25.7 km/h
55 02-01-2015 10:10:00 3 C 5.35 g/m*3 -1.77 C 22.5 km/h
56 02-01-2015 10:15:00 3.1 C 5.39 g/m*3 -1.83 C 24.1 km/h
57 02-01-2015 10:20:00 3.1 C 5.39 g/m*3 -1.45 C 20.9 km/h
58 02-01-2015 10:25:00 3.2 C 5.42 g/m*3 -1.7 C 24.1 km/h
59 02-01-2015 10:30:00 3.2 C 5.42 g/m*3 -0.89 C 17.7 km/h
60 02-01-2015 10:35:00 3.3 C 5.4 g/m*3 -0.76 C 17.7 km/h
61 02-01-2015 10:40:00 3.3 C 5.4 g/m*3 -1.19 C 20.9 km/h
62 02-01-2015 10:45:00 3.3 C 5.4 g/m*3 -0.99 C 19.3 km/h
63 02-01-2015 10:50:00 3.3 C 5.4 g/m*3 -0.76 C 17.7 km/h
64 02-01-2015 10:55:00 3.4 C 5.44 g/m*3 -1.44 C 24.1 km/h
65 02-01-2015 11:00:00 3.4 C 5.44 g/m*3 -0.64 C 17.7 km/h
66 02-01-2015 11:05:00 3.5 C 5.47 g/m*3 -0.28 C 16.1 km/h
67 02-01-2015 11:10:00 3.5 C 5.47 g/m*3 -1.49 C 25.7 km/h
68 02-01-2015 11:15:00 3.5 C 5.47 g/m*3 0.58 C 11.3 km/h
69 02-01-2015 11:20:00 3.6 C 5.51 g/m*3 -1.01 C 22.5 km/h
70 02-01-2015 11:25:00 3.6 C 5.51 g/m*3 -1.19 C 24.1 km/h
71 02-01-2015 11:30:00 3.7 C 5.55 g/m*3 -0.88 C 22.5 km/h
72 02-01-2015 11:35:00 3.7 C 5.55 g/m*3 -1.23 C 25.7 km/h
73 02-01-2015 11:40:00 3.7 C 5.55 g/m*3 -0.69 C 20.9 km/h
74 02-01-2015 11:45:00 3.8 C 5.58 g/m*3 -0.75 C 22.5 km/h
75 02-01-2015 11:50:00 3.8 C 5.58 g/m*3 -0.56 C 20.9 km/h
Sensor: Nr:Datum:Temp:Abs-Feuchte:Windchill:Wind:
Aussen-T/F 76 02-01-2015 11:55:00 3.9 C 5.62 g/m*3 -0.97 C 25.7 km/h
77 02-01-2015 12:00:00 3.9 C 5.62 g/m*3 -0.23 C 19.3 km/h
78 02-01-2015 12:05:00 4.1 C 5.7 g/m*3 0.47 C 16.1 km/h
79 02-01-2015 12:10:00 4.1 C 5.7 g/m*3 0.47 C 16.1 km/h
80 02-01-2015 12:15:00 4.1 C 5.7 g/m*3 0.02 C 19.3 km/h
81 02-01-2015 12:20:00 4.2 C 5.73 g/m*3 0.15 C 19.3 km/h
82 02-01-2015 12:25:00 4.2 C 5.73 g/m*3 0.36 C 17.7 km/h
83 02-01-2015 12:30:00 4.2 C 5.73 g/m*3 0.36 C 17.7 km/h
84 02-01-2015 12:35:00 4.3 C 5.77 g/m*3 0.49 C 17.7 km/h
85 02-01-2015 12:40:00 4.3 C 5.77 g/m*3 -0.11 C 22.5 km/h
86 02-01-2015 12:45:00 4.4 C 5.81 g/m*3 0.61 C 17.7 km/h
87 02-01-2015 12:50:00 4.5 C 5.85 g/m*3 0.74 C 17.7 km/h
88 02-01-2015 12:55:00 4.6 C 5.89 g/m*3 0.86 C 17.7 km/h
89 02-01-2015 13:00:00 4.6 C 5.89 g/m*3 0.45 C 20.9 km/h
90 02-01-2015 13:05:00 4.5 C 5.85 g/m*3 0.33 C 20.9 km/h
91 02-01-2015 13:10:00 4.5 C 5.85 g/m*3 0.96 C 16.1 km/h
92 02-01-2015 13:15:00 4.6 C 5.89 g/m*3 0.86 C 17.7 km/h
93 02-01-2015 13:20:00 4.6 C 5.96 g/m*3 0.86 C 17.7 km/h
94 02-01-2015 13:25:00 4.7 C 5.93 g/m*3 0.22 C 24.1 km/h
95 02-01-2015 13:30:00 4.7 C 5.93 g/m*3 0.78 C 19.3 km/h
96 02-01-2015 13:35:00 4.6 C 5.89 g/m*3 0.65 C 19.3 km/h
97 02-01-2015 13:40:00 4.6 C 5.96 g/m*3 1.34 C 14.5 km/h
98 02-01-2015 13:45:00 4.6 C 5.96 g/m*3 0.45 C 20.9 km/h
99 02-01-2015 13:50:00 4.6 C 5.96 g/m*3 0.65 C 19.3 km/h
100 02-01-2015 13:55:00 4.6 C 5.96 g/m*3 1.09 C 16.1 km/h
Sensor: Nr:Datum:Temp:Abs-Feuchte:Windchill:Wind:
Aussen-T/F 101 02-01-2015 14:00:00 4.5 C 5.92 g/m*3 1.21 C 14.5 km/h
102 02-01-2015 14:05:00 4.5 C 5.92 g/m*3 1.79 C 11.3 km/h
103 02-01-2015 14:10:00 4.5 C 5.92 g/m*3 0.96 C 16.1 km/h
104 02-01-2015 14:15:00 4.5 C 5.92 g/m*3 0.14 C 22.5 km/h
105 02-01-2015 14:20:00 4.5 C 5.98 g/m*3 1.79 C 11.3 km/h
106 02-01-2015 14:25:00 4.5 C 5.98 g/m*3 0.52 C 19.3 km/h
107 02-01-2015 14:30:00 4.6 C 6.02 g/m*3 1.09 C 16.1 km/h
108 02-01-2015 14:35:00 4.6 C 6.02 g/m*3 0.1 C 24.1 km/h
109 02-01-2015 14:40:00 4.6 C 6.02 g/m*3 0.45 C 20.9 km/h
110 02-01-2015 14:45:00 4.6 C 6.02 g/m*3 1.09 C 16.1 km/h
111 02-01-2015 14:50:00 4.6 C 6.02 g/m*3 1.34 C 14.5 km/h
112 02-01-2015 14:55:00 4.5 C 5.98 g/m*3 1.21 C 14.5 km/h
113 02-01-2015 15:00:00 4.5 C 6.05 g/m*3 0.96 C 16.1 km/h
114 02-01-2015 15:05:00 4.4 C 6.07 g/m*3 1.09 C 14.5 km/h
115 02-01-2015 15:10:00 4.4 C 6.07 g/m*3 0.84 C 16.1 km/h
116 02-01-2015 15:15:00 4.4 C 6.07 g/m*3 1.36 C 12.9 km/h
117 02-01-2015 15:20:00 4.4 C 6.07 g/m*3 2.01 C 9.7 km/h
118 02-01-2015 15:25:00 4.4 C 6.14 g/m*3 0.84 C 16.1 km/h
119 02-01-2015 15:30:00 4.4 C 6.14 g/m*3 1.09 C 14.5 km/h
120 02-01-2015 15:35:00 4.4 C 6.07 g/m*3 1.67 C 11.3 km/h
121 02-01-2015 15:40:00 4.4 C 6.14 g/m*3 0.61 C 17.7 km/h
122 02-01-2015 15:45:00 4.4 C 6.14 g/m*3 1.09 C 14.5 km/h
123 02-01-2015 15:50:00 4.4 C 6.14 g/m*3 2.01 C 9.7 km/h
124 02-01-2015 15:55:00 4.4 C 6.14 g/m*3 1.67 C 11.3 km/h
125 02-01-2015 16:00:00 4.3 C 6.1 g/m*3 0.97 C 14.5 km/h
Sensor: Nr:Datum:Temp:Abs-Feuchte:Windchill:Wind:
Aussen-T/F 126 02-01-2015 16:05:00 4.3 C 6.1 g/m*3 1.24 C 12.9 km/h
127 02-01-2015 16:10:00 4.3 C 6.1 g/m*3 1.89 C 9.7 km/h
128 02-01-2015 16:15:00 4.3 C 6.1 g/m*3 2.29 C 8.1 km/h
129 02-01-2015 16:20:00 4.3 C 6.1 g/m*3 0.97 C 14.5 km/h
130 02-01-2015 16:25:00 4.3 C 6.1 g/m*3 0.72 C 16.1 km/h
131 02-01-2015 16:30:00 4.4 C 6.14 g/m*3 0.2 C 20.9 km/h
132 02-01-2015 16:35:00 4.5 C 6.18 g/m*3 1.21 C 14.5 km/h
133 02-01-2015 16:40:00 4.5 C 6.11 g/m*3 0.74 C 17.7 km/h
134 02-01-2015 16:45:00 4.4 C 6.07 g/m*3 1.36 C 12.9 km/h
135 02-01-2015 16:50:00 4.4 C 6.07 g/m*3 1.36 C 12.9 km/h
136 02-01-2015 16:55:00 4.3 C 6.03 g/m*3 1.24 C 12.9 km/h
137 02-01-2015 17:00:00 4.3 C 6.1 g/m*3 0.07 C 20.9 km/h
138 02-01-2015 17:05:00 4.3 C 6.1 g/m*3 0.97 C 14.5 km/h
139 02-01-2015 17:10:00 4.3 C 6.1 g/m*3 2.29 C 8.1 km/h
140 02-01-2015 17:15:00 4.3 C 6.1 g/m*3 2.29 C 8.1 km/h
141 02-01-2015 23:30:00 2.4 C 5.2 g/m*3 2.4 C 3.2 km/h
142 02-01-2015 23:35:00 2.5 C 5.23 g/m*3 0.71 C 6.4 km/h
143 02-01-2015 23:40:00 2.6 C 5.27 g/m*3 0.82 C 6.4 km/h
144 02-01-2015 23:45:00 2.6 C 5.27 g/m*3 2.6 C 4.8 km/h
145 02-01-2015 23:50:00 2.4 C 5.14 g/m*3 0.59 C 6.4 km/h
146 02-01-2015 23:55:00 2.4 C 5.14 g/m*3 2.4 C 1.6 km/h
147 03-01-2015 00:00:00 2.2 C 5.13 g/m*3 2.2 C 1.6 km/h
148 03-01-2015 00:05:00 2 C 5.06 g/m*3 2 C 1.6 km/h
149 03-01-2015 00:10:00 1.8 C 5.04 g/m*3 1.8 C 4.8 km/h
150 03-01-2015 00:15:00 1.8 C 5.04 g/m*3 1.8 C 3.2 km/h
Sensor: Nr:Datum:Temp:Abs-Feuchte:Windchill:Wind:
Aussen-T/F 151 03-01-2015 00:20:00 1.8 C 5.1 g/m*3 1.8 C 3.2 km/h
152 03-01-2015 00:25:00 1.9 C 5.13 g/m*3 0.01 C 6.4 km/h
153 03-01-2015 00:30:00 2.1 C 5.2 g/m*3 0.24 C 6.4 km/h
154 03-01-2015 00:35:00 2.2 C 5.18 g/m*3 0.36 C 6.4 km/h
155 03-01-2015 00:40:00 2.3 C 5.16 g/m*3 2.3 C 4.8 km/h
156 03-01-2015 00:45:00 2.5 C 5.23 g/m*3 -0.62 C 11.3 km/h
157 03-01-2015 00:50:00 2.6 C 5.21 g/m*3 0.82 C 6.4 km/h
158 03-01-2015 00:55:00 2.5 C 5.17 g/m*3 2.5 C 4.8 km/h
159 03-01-2015 01:00:00 2.4 C 5.14 g/m*3 2.4 C 3.2 km/h
160 03-01-2015 01:05:00 2.4 C 5.14 g/m*3 0.59 C 6.4 km/h
161 03-01-2015 01:10:00 2.3 C 5.1 g/m*3 2.3 C 4.8 km/h
162 03-01-2015 01:15:00 2.4 C 5.2 g/m*3 0.59 C 6.4 km/h
163 03-01-2015 01:20:00 2.5 C 5.17 g/m*3 -0.62 C 11.3 km/h
164 03-01-2015 01:25:00 2.5 C 5.17 g/m*3 0.17 C 8.1 km/h
165 03-01-2015 01:30:00 2.4 C 5.14 g/m*3 0.59 C 6.4 km/h
166 03-01-2015 01:35:00 2.4 C 5.14 g/m*3 -0.37 C 9.7 km/h
167 03-01-2015 01:40:00 2.5 C 5.17 g/m*3 -0.62 C 11.3 km/h
168 03-01-2015 01:45:00 2.5 C 5.17 g/m*3 0.71 C 6.4 km/h
169 03-01-2015 01:50:00 2.5 C 5.17 g/m*3 0.17 C 8.1 km/h
170 03-01-2015 01:55:00 2.6 C 5.21 g/m*3 -0.14 C 9.7 km/h
171 03-01-2015 02:00:00 2.6 C 5.21 g/m*3 0.29 C 8.1 km/h
172 03-01-2015 02:05:00 2.7 C 5.24 g/m*3 -0.71 C 12.9 km/h
173 03-01-2015 02:10:00 2.7 C 5.24 g/m*3 0.4 C 8.1 km/h
174 03-01-2015 02:15:00 2.7 C 5.24 g/m*3 -0.02 C 9.7 km/h
175 03-01-2015 02:20:00 2.7 C 5.24 g/m*3 -0.02 C 9.7 km/h
Sensor: Nr:Datum:Temp:Abs-Feuchte:Windchill:Wind:
Aussen-T/F 176 03-01-2015 02:25:00 2.7 C 5.24 g/m*3 0.4 C 8.1 km/h
177 03-01-2015 02:30:00 2.7 C 5.24 g/m*3 -0.02 C 9.7 km/h
178 03-01-2015 02:35:00 2.8 C 5.28 g/m*3 -0.26 C 11.3 km/h
179 03-01-2015 02:40:00 2.8 C 5.28 g/m*3 0.1 C 9.7 km/h
180 03-01-2015 02:45:00 2.8 C 5.22 g/m*3 0.1 C 9.7 km/h
181 03-01-2015 02:50:00 2.8 C 5.22 g/m*3 -0.26 C 11.3 km/h
182 03-01-2015 02:55:00 2.8 C 5.22 g/m*3 0.1 C 9.7 km/h
183 03-01-2015 03:00:00 2.8 C 5.22 g/m*3 0.1 C 9.7 km/h
184 03-01-2015 04:30:00 2.5 C 5.29 g/m*3 -0.62 C 11.3 km/h
185 03-01-2015 04:35:00 2.5 C 5.29 g/m*3 -0.26 C 9.7 km/h
186 03-01-2015 04:40:00 2.5 C 5.29 g/m*3 -0.95 C 12.9 km/h
187 03-01-2015 04:45:00 2.4 C 5.25 g/m*3 -0.74 C 11.3 km/h
188 03-01-2015 04:50:00 2.4 C 5.25 g/m*3 -1.07 C 12.9 km/h
189 03-01-2015 04:55:00 2.4 C 5.25 g/m*3 -1.37 C 14.5 km/h
190 03-01-2015 05:00:00 2.4 C 5.31 g/m*3 -1.07 C 12.9 km/h
191 03-01-2015 05:05:00 2.4 C 5.31 g/m*3 -0.74 C 11.3 km/h
192 03-01-2015 05:10:00 2.5 C 5.35 g/m*3 -0.26 C 9.7 km/h
193 03-01-2015 05:15:00 2.5 C 5.35 g/m*3 -0.95 C 12.9 km/h
194 03-01-2015 05:20:00 2.5 C 5.35 g/m*3 -0.62 C 11.3 km/h
195 03-01-2015 05:25:00 2.6 C 5.38 g/m*3 -0.14 C 9.7 km/h
196 03-01-2015 05:30:00 2.6 C 5.38 g/m*3 0.29 C 8.1 km/h
197 03-01-2015 05:35:00 2.6 C 5.38 g/m*3 0.29 C 8.1 km/h
198 03-01-2015 06:00:00 2.6 C 5.79 g/m*3 2.6 C 1.6 km/h
199 03-01-2015 06:05:00 2.6 C 5.38 g/m*3 2.6 C 0 km/h
200 03-01-2015 06:10:00 2.6 C 5.38 g/m*3 2.6 C 4.8 km/h
Sensor: Nr:Datum:Temp:Abs-Feuchte:Windchill:Wind:
Aussen-T/F 201 03-01-2015 06:15:00 2.6 C 5.38 g/m*3 2.6 C 0 km/h
202 03-01-2015 06:20:00 2.5 C 5.35 g/m*3 2.5 C 0 km/h
203 03-01-2015 06:25:00 2.5 C 5.4 g/m*3 2.5 C 0 km/h
204 03-01-2015 06:30:00 2.5 C 5.4 g/m*3 2.5 C 1.6 km/h
205 03-01-2015 07:45:00 3 C 5.59 g/m*3 3 C 0 km/h
206 03-01-2015 07:50:00 3.1 C 5.63 g/m*3 3.1 C 0 km/h
207 03-01-2015 07:55:00 3.1 C 5.63 g/m*3 3.1 C 0 km/h
208 03-01-2015 11:25:00 4.2 C 5.86 g/m*3 0.84 C 14.5 km/h
209 03-01-2015 11:30:00 4.2 C 5.86 g/m*3 1.77 C 9.7 km/h
210 03-01-2015 11:35:00 4.2 C 5.86 g/m*3 4.2 C 4.8 km/h
211 03-01-2015 11:40:00 4.2 C 5.86 g/m*3 1.43 C 11.3 km/h
212 03-01-2015 11:45:00 4.2 C 5.86 g/m*3 1.77 C 9.7 km/h
213 03-01-2015 12:45:00 3.6 C 5.76 g/m*3 3.6 C 0 km/h
214 03-01-2015 12:50:00 3.6 C 5.76 g/m*3 3.6 C 1.6 km/h
215 03-01-2015 14:05:00 2.1 C 5.31 g/m*3 2.1 C 0 km/h
216 03-01-2015 14:10:00 2 C 5.28 g/m*3 2 C 0 km/h
217 03-01-2015 14:15:00 1.9 C 5.24 g/m*3 1.9 C 0 km/h
218 03-01-2015 14:20:00 1.8 C 5.21 g/m*3 1.8 C 0 km/h
219 03-01-2015 14:25:00 1.8 C 5.21 g/m*3 1.8 C 0 km/h
220 03-01-2015 14:30:00 1.7 C 5.17 g/m*3 1.7 C 0 km/h
221 03-01-2015 14:35:00 1.6 C 5.14 g/m*3 1.6 C 0 km/h
222 03-01-2015 14:40:00 1.6 C 5.14 g/m*3 1.6 C 0 km/h
223 03-01-2015 14:45:00 1.5 C 5.16 g/m*3 1.5 C 0 km/h
224 03-01-2015 14:50:00 1.6 C 5.19 g/m*3 1.6 C 0 km/h
225 03-01-2015 14:55:00 1.6 C 5.19 g/m*3 1.6 C 0 km/h
Sensor: Nr:Datum:Temp:Abs-Feuchte:Windchill:Wind:
Aussen-T/F 226 03-01-2015 15:00:00 1.6 C 5.19 g/m*3 1.6 C 0 km/h
227 03-01-2015 15:05:00 1.7 C 5.23 g/m*3 1.7 C 0 km/h
228 03-01-2015 15:10:00 1.7 C 5.23 g/m*3 1.7 C 0 km/h
229 03-01-2015 15:15:00 1.7 C 5.23 g/m*3 1.7 C 0 km/h
230 03-01-2015 15:20:00 1.7 C 5.23 g/m*3 1.7 C 0 km/h
231 03-01-2015 17:40:00 1.8 C 5.26 g/m*3 1.8 C 0 km/h
232 03-01-2015 17:45:00 1.6 C 5.19 g/m*3 1.6 C 0 km/h
233 03-01-2015 17:50:00 1.6 C 5.25 g/m*3 1.6 C 0 km/h
234 03-01-2015 17:55:00 1.6 C 5.25 g/m*3 1.6 C 0 km/h
235 03-01-2015 18:00:00 1.6 C 5.25 g/m*3 1.6 C 0 km/h
236 03-01-2015 18:05:00 1.6 C 5.25 g/m*3 1.6 C 1.6 km/h
237 03-01-2015 18:10:00 1.7 C 5.28 g/m*3 1.7 C 0 km/h
238 03-01-2015 18:15:00 1.7 C 5.28 g/m*3 1.7 C 3.2 km/h
239 03-01-2015 18:20:00 1.7 C 5.28 g/m*3 1.7 C 0 km/h
240 03-01-2015 18:25:00 1.6 C 5.25 g/m*3 1.6 C 0 km/h
241 03-01-2015 18:30:00 1.4 C 5.17 g/m*3 1.4 C 0 km/h
242 03-01-2015 18:35:00 1.3 C 5.14 g/m*3 1.3 C 0 km/h
243 03-01-2015 18:40:00 1.3 C 5.14 g/m*3 1.3 C 0 km/h
244 03-01-2015 18:45:00 1.2 C 5.1 g/m*3 1.2 C 0 km/h
245 03-01-2015 18:50:00 1.2 C 5.1 g/m*3 1.2 C 0 km/h
246 03-01-2015 18:55:00 1.2 C 5.1 g/m*3 1.2 C 0 km/h
247 03-01-2015 19:00:00 1.1 C 5.07 g/m*3 1.1 C 0 km/h
248 03-01-2015 19:05:00 1.1 C 5.07 g/m*3 1.1 C 0 km/h
249 03-01-2015 19:10:00 1.1 C 5.07 g/m*3 1.1 C 0 km/h
250 03-01-2015 19:15:00 1 C 5.03 g/m*3 1 C 0 km/h
Sensor: Nr:Datum:Temp:Abs-Feuchte:Windchill:Wind:
Aussen-T/F 251 03-01-2015 19:20:00 1 C 5.03 g/m*3 1 C 0 km/h
252 03-01-2015 19:25:00 1 C 5.03 g/m*3 1 C 0 km/h
253 03-01-2015 19:30:00 0.9 C 5 g/m*3 0.9 C 0 km/h
254 03-01-2015 19:35:00 1 C 5.03 g/m*3 1 C 0 km/h
255 03-01-2015 19:40:00 1 C 5.03 g/m*3 1 C 0 km/h
256 03-01-2015 19:45:00 1 C 5.03 g/m*3 1 C 0 km/h
257 03-01-2015 19:50:00 1 C 5.03 g/m*3 1 C 0 km/h
258 03-01-2015 19:55:00 1 C 5.03 g/m*3 1 C 0 km/h
259 03-01-2015 20:00:00 1 C 5.03 g/m*3 1 C 0 km/h
260 03-01-2015 20:05:00 1 C 5.03 g/m*3 1 C 0 km/h
261 03-01-2015 20:10:00 0.9 C 5 g/m*3 0.9 C 0 km/h
262 03-01-2015 20:15:00 0.9 C 5 g/m*3 0.9 C 0 km/h
263 03-01-2015 20:20:00 0.9 C 5 g/m*3 0.9 C 0 km/h
264 03-01-2015 20:25:00 0.9 C 5 g/m*3 0.9 C 0 km/h
265 03-01-2015 20:30:00 0.9 C 5 g/m*3 0.9 C 0 km/h
266 03-01-2015 20:35:00 0.8 C 4.97 g/m*3 0.8 C 0 km/h
267 03-01-2015 20:40:00 0.9 C 5 g/m*3 0.9 C 0 km/h
268 03-01-2015 20:45:00 0.8 C 5.02 g/m*3 0.8 C 0 km/h
269 03-01-2015 20:50:00 0.9 C 5.05 g/m*3 0.9 C 0 km/h
270 03-01-2015 20:55:00 0.9 C 5.05 g/m*3 0.9 C 0 km/h
271 03-01-2015 21:00:00 0.9 C 5.05 g/m*3 0.9 C 1.6 km/h
272 03-01-2015 21:05:00 0.9 C 5.05 g/m*3 0.9 C 3.2 km/h
273 03-01-2015 21:10:00 0.9 C 5.05 g/m*3 -1.14 C 6.4 km/h
274 03-01-2015 21:15:00 0.9 C 5.05 g/m*3 0.9 C 3.2 km/h
275 03-01-2015 21:20:00 1 C 5.09 g/m*3 1 C 3.2 km/h
Sensor: Nr:Datum:Temp:Abs-Feuchte:Windchill:Wind:
Aussen-T/F 276 03-01-2015 21:25:00 1.1 C 5.12 g/m*3 1.1 C 0 km/h
277 03-01-2015 21:30:00 1.2 C 5.16 g/m*3 1.2 C 4.8 km/h
278 03-01-2015 21:35:00 1.3 C 5.19 g/m*3 -0.68 C 6.4 km/h
279 03-01-2015 21:40:00 1.3 C 5.19 g/m*3 1.3 C 4.8 km/h
280 03-01-2015 21:45:00 1.3 C 5.19 g/m*3 1.3 C 4.8 km/h
281 03-01-2015 21:50:00 1.3 C 5.19 g/m*3 1.3 C 3.2 km/h
282 03-01-2015 21:55:00 1.3 C 5.19 g/m*3 1.3 C 1.6 km/h
283 03-01-2015 22:00:00 1.3 C 5.19 g/m*3 1.3 C 4.8 km/h
284 03-01-2015 22:05:00 1.3 C 5.19 g/m*3 1.3 C 1.6 km/h
285 03-01-2015 22:10:00 1.3 C 5.19 g/m*3 1.3 C 4.8 km/h
286 03-01-2015 22:15:00 1.4 C 5.23 g/m*3 1.4 C 4.8 km/h
287 03-01-2015 22:20:00 1.5 C 5.26 g/m*3 1.5 C 3.2 km/h
288 03-01-2015 22:25:00 1.4 C 5.23 g/m*3 1.4 C 4.8 km/h
289 03-01-2015 22:30:00 1.4 C 5.23 g/m*3 1.4 C 3.2 km/h
290 03-01-2015 22:35:00 1.6 C 5.3 g/m*3 1.6 C 4.8 km/h
291 03-01-2015 22:40:00 1.6 C 5.3 g/m*3 1.6 C 1.6 km/h
292 03-01-2015 22:45:00 1.7 C 5.34 g/m*3 1.7 C 4.8 km/h
293 03-01-2015 22:50:00 1.8 C 5.37 g/m*3 -0.65 C 8.1 km/h
294 03-01-2015 22:55:00 1.8 C 5.37 g/m*3 -0.65 C 8.1 km/h
295 03-01-2015 23:00:00 1.9 C 5.41 g/m*3 0.01 C 6.4 km/h
296 03-01-2015 23:05:00 1.9 C 5.41 g/m*3 -0.54 C 8.1 km/h
297 03-01-2015 23:10:00 2 C 5.39 g/m*3 2 C 4.8 km/h
298 03-01-2015 23:15:00 2 C 5.39 g/m*3 2 C 3.2 km/h
299 03-01-2015 23:20:00 2 C 5.39 g/m*3 2 C 0 km/h
300 03-01-2015 23:25:00 1.9 C 5.35 g/m*3 1.9 C 4.8 km/h
Sensor: Nr:Datum:Temp:Abs-Feuchte:Windchill:Wind:
Aussen-T/F 301 03-01-2015 23:30:00 1.9 C 5.35 g/m*3 1.9 C 0 km/h
302 03-01-2015 23:35:00 2 C 5.39 g/m*3 0.13 C 6.4 km/h
303 03-01-2015 23:40:00 2 C 5.39 g/m*3 2 C 1.6 km/h
304 03-01-2015 23:45:00 2 C 5.39 g/m*3 2 C 4.8 km/h
305 03-01-2015 23:50:00 2 C 5.39 g/m*3 0.13 C 6.4 km/h
306 03-01-2015 23:55:00 2 C 5.39 g/m*3 2 C 3.2 km/h
307 04-01-2015 00:00:00 2 C 5.39 g/m*3 2 C 1.6 km/h
308 04-01-2015 00:05:00 2 C 5.39 g/m*3 2 C 3.2 km/h
309 04-01-2015 00:10:00 2 C 5.39 g/m*3 2 C 3.2 km/h
310 04-01-2015 00:15:00 2.1 C 5.43 g/m*3 0.24 C 6.4 km/h
311 04-01-2015 00:20:00 2.2 C 5.46 g/m*3 2.2 C 1.6 km/h
312 04-01-2015 00:25:00 2.1 C 5.43 g/m*3 2.1 C 4.8 km/h
313 04-01-2015 00:30:00 2.1 C 5.43 g/m*3 2.1 C 4.8 km/h
314 04-01-2015 00:35:00 2 C 5.39 g/m*3 2 C 3.2 km/h
315 04-01-2015 00:40:00 2 C 5.39 g/m*3 0.13 C 6.4 km/h
316 04-01-2015 00:45:00 2.1 C 5.43 g/m*3 0.24 C 6.4 km/h
317 04-01-2015 00:50:00 2.1 C 5.43 g/m*3 2.1 C 3.2 km/h
318 04-01-2015 00:55:00 2.1 C 5.43 g/m*3 2.1 C 4.8 km/h
319 04-01-2015 01:00:00 2.2 C 5.52 g/m*3 2.2 C 3.2 km/h
320 04-01-2015 01:05:00 2.2 C 5.52 g/m*3 2.2 C 1.6 km/h
321 04-01-2015 01:10:00 2.2 C 5.52 g/m*3 2.2 C 1.6 km/h
322 04-01-2015 01:15:00 2.2 C 5.52 g/m*3 2.2 C 0 km/h
323 04-01-2015 01:20:00 2.2 C 5.52 g/m*3 2.2 C 1.6 km/h
324 04-01-2015 01:25:00 2.2 C 5.52 g/m*3 2.2 C 4.8 km/h
325 04-01-2015 01:30:00 2.2 C 5.52 g/m*3 2.2 C 3.2 km/h
Sensor: Nr:Datum:Temp:Abs-Feuchte:Windchill:Wind:
Aussen-T/F 326 04-01-2015 01:35:00 2.3 C 5.56 g/m*3 2.3 C 4.8 km/h
327 04-01-2015 01:40:00 2.4 C 5.6 g/m*3 2.4 C 3.2 km/h
328 04-01-2015 01:45:00 2.7 C 5.71 g/m*3 2.7 C 4.8 km/h
329 04-01-2015 01:50:00 2.8 C 5.75 g/m*3 0.1 C 9.7 km/h
330 04-01-2015 01:55:00 2.9 C 5.79 g/m*3 2.9 C 4.8 km/h
331 04-01-2015 02:00:00 3.1 C 5.87 g/m*3 0.46 C 9.7 km/h
332 04-01-2015 02:05:00 3.3 C 5.95 g/m*3 3.3 C 4.8 km/h
333 04-01-2015 02:10:00 3.4 C 5.99 g/m*3 3.4 C 4.8 km/h
334 04-01-2015 02:15:00 3.4 C 5.92 g/m*3 3.4 C 4.8 km/h
335 04-01-2015 02:20:00 3.6 C 6 g/m*3 1.46 C 8.1 km/h
336 04-01-2015 02:25:00 3.7 C 6.04 g/m*3 1.58 C 8.1 km/h
337 04-01-2015 02:30:00 3.7 C 6.04 g/m*3 3.7 C 1.6 km/h
338 04-01-2015 02:35:00 3.7 C 5.98 g/m*3 3.7 C 3.2 km/h
339 04-01-2015 02:40:00 3.8 C 6.02 g/m*3 0.63 C 12.9 km/h
340 04-01-2015 02:45:00 3.9 C 6.06 g/m*3 1.06 C 11.3 km/h
341 04-01-2015 02:50:00 4.1 C 6.08 g/m*3 2.55 C 6.4 km/h
342 04-01-2015 02:55:00 4.1 C 6.08 g/m*3 2.55 C 6.4 km/h
343 04-01-2015 03:00:00 4.1 C 6.08 g/m*3 2.55 C 6.4 km/h
344 04-01-2015 03:05:00 4.1 C 6.08 g/m*3 0.72 C 14.5 km/h
345 04-01-2015 03:10:00 4.1 C 6.02 g/m*3 2.05 C 8.1 km/h
346 04-01-2015 03:15:00 4.1 C 6.02 g/m*3 4.1 C 4.8 km/h
347 04-01-2015 03:20:00 4.1 C 6.02 g/m*3 2.55 C 6.4 km/h
348 04-01-2015 03:25:00 4.1 C 5.95 g/m*3 2.05 C 8.1 km/h
349 04-01-2015 03:30:00 4.1 C 5.95 g/m*3 0.72 C 14.5 km/h
350 04-01-2015 03:35:00 4.1 C 5.95 g/m*3 1.65 C 9.7 km/h
Sensor: Nr:Datum:Temp:Abs-Feuchte:Windchill:Wind:
Aussen-T/F 351 04-01-2015 03:40:00 4.1 C 5.95 g/m*3 2.05 C 8.1 km/h
352 04-01-2015 03:45:00 4 C 5.91 g/m*3 1.93 C 8.1 km/h
353 04-01-2015 03:50:00 4 C 5.91 g/m*3 1.93 C 8.1 km/h
354 04-01-2015 03:55:00 4 C 5.91 g/m*3 1.53 C 9.7 km/h
355 04-01-2015 04:00:00 3.9 C 5.87 g/m*3 1.82 C 8.1 km/h
356 04-01-2015 04:05:00 3.9 C 5.87 g/m*3 3.9 C 4.8 km/h
357 04-01-2015 04:10:00 3.9 C 5.87 g/m*3 1.82 C 8.1 km/h
358 04-01-2015 04:50:00 2.9 C 5.55 g/m*3 2.9 C 4.8 km/h
359 04-01-2015 04:55:00 2.8 C 5.51 g/m*3 2.8 C 4.8 km/h
360 04-01-2015 05:00:00 2.6 C 5.44 g/m*3 2.6 C 0 km/h
361 04-01-2015 05:05:00 2.4 C 5.37 g/m*3 2.4 C 4.8 km/h
362 04-01-2015 05:10:00 2.2 C 5.29 g/m*3 2.2 C 4.8 km/h
363 04-01-2015 05:15:00 2.1 C 5.31 g/m*3 -0.3 C 8.1 km/h
364 04-01-2015 05:20:00 2.1 C 5.31 g/m*3 2.1 C 3.2 km/h
365 04-01-2015 05:25:00 2.1 C 5.37 g/m*3 2.1 C 3.2 km/h
366 04-01-2015 05:30:00 2 C 5.33 g/m*3 2 C 4.8 km/h
367 04-01-2015 05:35:00 2 C 5.33 g/m*3 2 C 3.2 km/h
368 04-01-2015 05:40:00 1.9 C 5.3 g/m*3 1.9 C 4.8 km/h
369 04-01-2015 05:45:00 1.8 C 5.26 g/m*3 1.8 C 4.8 km/h
370 04-01-2015 05:50:00 1.7 C 5.23 g/m*3 1.7 C 3.2 km/h
371 04-01-2015 05:55:00 1.7 C 5.23 g/m*3 -0.22 C 6.4 km/h
372 04-01-2015 06:00:00 1.6 C 5.19 g/m*3 1.6 C 4.8 km/h
373 04-01-2015 06:05:00 1.6 C 5.25 g/m*3 1.6 C 4.8 km/h
374 04-01-2015 06:10:00 1.6 C 5.25 g/m*3 1.6 C 4.8 km/h
375 04-01-2015 06:15:00 1.5 C 5.16 g/m*3 1.5 C 4.8 km/h
Sensor: Nr:Datum:Temp:Abs-Feuchte:Windchill:Wind:
Aussen-T/F 376 04-01-2015 06:20:00 1.4 C 5.12 g/m*3 1.4 C 1.6 km/h
377 04-01-2015 06:25:00 1.4 C 5.17 g/m*3 1.4 C 4.8 km/h
378 04-01-2015 06:30:00 1.3 C 5.14 g/m*3 1.3 C 0 km/h
379 04-01-2015 06:35:00 1.2 C 5.05 g/m*3 1.2 C 1.6 km/h
380 04-01-2015 06:40:00 1.2 C 5.05 g/m*3 1.2 C 4.8 km/h
381 04-01-2015 06:45:00 1.1 C 5.07 g/m*3 -0.91 C 6.4 km/h
382 04-01-2015 06:50:00 1.1 C 5.07 g/m*3 1.1 C 1.6 km/h
383 04-01-2015 06:55:00 1.1 C 5.07 g/m*3 1.1 C 1.6 km/h
384 04-01-2015 07:00:00 1.1 C 5.07 g/m*3 1.1 C 4.8 km/h
385 04-01-2015 07:05:00 1.1 C 5.07 g/m*3 1.1 C 4.8 km/h
386 04-01-2015 07:10:00 1.1 C 5.07 g/m*3 1.1 C 3.2 km/h
387 04-01-2015 07:15:00 1 C 5.03 g/m*3 1 C 3.2 km/h
388 04-01-2015 07:20:00 0.9 C 5 g/m*3 0.9 C 1.6 km/h
389 04-01-2015 07:25:00 0.9 C 5 g/m*3 0.9 C 3.2 km/h
390 04-01-2015 07:30:00 0.9 C 5 g/m*3 0.9 C 3.2 km/h
391 04-01-2015 07:35:00 1 C 5.03 g/m*3 1 C 3.2 km/h
392 04-01-2015 07:40:00 1.1 C 5.07 g/m*3 1.1 C 3.2 km/h
393 04-01-2015 07:45:00 1.2 C 5.1 g/m*3 1.2 C 1.6 km/h
394 04-01-2015 07:50:00 1.1 C 5.07 g/m*3 1.1 C 1.6 km/h
395 04-01-2015 07:55:00 1.1 C 5.07 g/m*3 1.1 C 4.8 km/h
396 04-01-2015 08:00:00 1.1 C 5.07 g/m*3 1.1 C 1.6 km/h
397 04-01-2015 08:05:00 1.2 C 5.1 g/m*3 1.2 C 1.6 km/h
398 04-01-2015 08:10:00 1.2 C 5.1 g/m*3 1.2 C 3.2 km/h
399 04-01-2015 08:15:00 1.2 C 5.1 g/m*3 1.2 C 1.6 km/h
400 04-01-2015 08:20:00 1.2 C 5.1 g/m*3 1.2 C 3.2 km/h
Sensor: Nr:Datum:Temp:Abs-Feuchte:Windchill:Wind:
Aussen-T/F 401 04-01-2015 18:15:00 4.1 C 5.89 g/m*3 4.1 C 1.6 km/h
402 04-01-2015 18:20:00 4.1 C 5.89 g/m*3 4.1 C 1.6 km/h
403 04-01-2015 18:25:00 4 C 5.85 g/m*3 4 C 3.2 km/h
404 04-01-2015 18:30:00 4 C 5.85 g/m*3 4 C 1.6 km/h
405 04-01-2015 18:35:00 3.9 C 5.75 g/m*3 3.9 C 4.8 km/h
406 04-01-2015 18:40:00 4 C 5.79 g/m*3 4 C 4.8 km/h
407 04-01-2015 18:45:00 4.1 C 5.76 g/m*3 4.1 C 4.8 km/h
408 04-01-2015 18:50:00 4.2 C 5.73 g/m*3 2.67 C 6.4 km/h
409 04-01-2015 18:55:00 4.3 C 5.71 g/m*3 1.89 C 9.7 km/h
410 04-01-2015 19:00:00 4.4 C 5.68 g/m*3 4.4 C 3.2 km/h
411 04-01-2015 19:05:00 4.4 C 5.68 g/m*3 4.4 C 3.2 km/h
412 04-01-2015 19:10:00 4.4 C 5.68 g/m*3 2.9 C 6.4 km/h
413 04-01-2015 19:15:00 4.3 C 5.64 g/m*3 2.78 C 6.4 km/h
414 04-01-2015 19:20:00 4.3 C 5.64 g/m*3 4.3 C 1.6 km/h
415 04-01-2015 19:25:00 4.2 C 5.67 g/m*3 4.2 C 1.6 km/h
416 04-01-2015 19:30:00 4.2 C 5.67 g/m*3 4.2 C 4.8 km/h
417 04-01-2015 19:35:00 4.1 C 5.63 g/m*3 2.05 C 8.1 km/h
418 04-01-2015 19:40:00 4.1 C 5.63 g/m*3 4.1 C 3.2 km/h
419 04-01-2015 19:45:00 4.1 C 5.63 g/m*3 4.1 C 1.6 km/h
420 04-01-2015 19:50:00 4 C 5.59 g/m*3 4 C 1.6 km/h
421 04-01-2015 19:55:00 3.9 C 5.62 g/m*3 2.32 C 6.4 km/h
422 04-01-2015 20:00:00 3.9 C 5.62 g/m*3 3.9 C 4.8 km/h
423 04-01-2015 20:05:00 3.9 C 5.62 g/m*3 3.9 C 4.8 km/h
424 04-01-2015 20:10:00 3.8 C 5.58 g/m*3 3.8 C 4.8 km/h
425 04-01-2015 20:15:00 3.8 C 5.58 g/m*3 3.8 C 4.8 km/h
Sensor: Nr:Datum:Temp:Abs-Feuchte:Windchill:Wind:
Aussen-T/F 426 04-01-2015 20:20:00 3.7 C 5.61 g/m*3 3.7 C 3.2 km/h
427 04-01-2015 20:25:00 3.7 C 5.61 g/m*3 3.7 C 3.2 km/h
428 04-01-2015 20:30:00 3.6 C 5.57 g/m*3 3.6 C 4.8 km/h
429 04-01-2015 20:35:00 3.6 C 5.63 g/m*3 3.6 C 1.6 km/h
430 04-01-2015 20:40:00 3.6 C 5.63 g/m*3 3.6 C 3.2 km/h
431 04-01-2015 20:45:00 3.6 C 5.63 g/m*3 3.6 C 3.2 km/h
432 04-01-2015 20:50:00 3.6 C 5.63 g/m*3 3.6 C 4.8 km/h
433 04-01-2015 20:55:00 3.6 C 5.63 g/m*3 3.6 C 3.2 km/h
434 04-01-2015 21:00:00 3.7 C 5.67 g/m*3 3.7 C 1.6 km/h
435 04-01-2015 21:05:00 3.7 C 5.67 g/m*3 3.7 C 3.2 km/h
436 04-01-2015 21:10:00 3.7 C 5.61 g/m*3 3.7 C 3.2 km/h
437 04-01-2015 21:15:00 3.7 C 5.61 g/m*3 3.7 C 3.2 km/h
438 04-01-2015 21:20:00 3.8 C 5.65 g/m*3 3.8 C 3.2 km/h
439 04-01-2015 21:25:00 3.8 C 5.65 g/m*3 3.8 C 3.2 km/h
440 04-01-2015 21:30:00 3.8 C 5.65 g/m*3 2.21 C 6.4 km/h
441 04-01-2015 21:35:00 3.8 C 5.65 g/m*3 3.8 C 4.8 km/h
442 04-01-2015 21:40:00 3.9 C 5.62 g/m*3 2.32 C 6.4 km/h
443 04-01-2015 21:45:00 3.9 C 5.62 g/m*3 3.9 C 3.2 km/h
444 04-01-2015 21:50:00 4 C 5.66 g/m*3 4 C 4.8 km/h
445 04-01-2015 21:55:00 4 C 5.66 g/m*3 4 C 4.8 km/h
446 04-01-2015 22:00:00 3.9 C 5.62 g/m*3 3.9 C 4.8 km/h
447 04-01-2015 22:05:00 3.7 C 5.61 g/m*3 3.7 C 1.6 km/h
448 04-01-2015 22:10:00 3.6 C 5.57 g/m*3 3.6 C 3.2 km/h
449 04-01-2015 22:15:00 3.5 C 5.6 g/m*3 3.5 C 3.2 km/h
450 04-01-2015 22:20:00 3.4 C 5.56 g/m*3 3.4 C 1.6 km/h
Sensor: Nr:Datum:Temp:Abs-Feuchte:Windchill:Wind:
Aussen-T/F 451 04-01-2015 22:25:00 3.3 C 5.58 g/m*3 3.3 C 1.6 km/h
452 04-01-2015 22:30:00 3.2 C 5.54 g/m*3 3.2 C 0 km/h
453 04-01-2015 22:35:00 3.2 C 5.6 g/m*3 3.2 C 1.6 km/h
454 04-01-2015 22:40:00 3.2 C 5.6 g/m*3 3.2 C 1.6 km/h
455 04-01-2015 22:45:00 3.2 C 5.6 g/m*3 3.2 C 0 km/h
456 04-01-2015 22:50:00 3.2 C 5.6 g/m*3 3.2 C 0 km/h
457 04-01-2015 22:55:00 3.2 C 5.54 g/m*3 3.2 C 3.2 km/h
458 04-01-2015 23:00:00 3.2 C 5.54 g/m*3 3.2 C 1.6 km/h
459 04-01-2015 23:05:00 3.2 C 5.54 g/m*3 3.2 C 3.2 km/h
460 04-01-2015 23:10:00 3.3 C 5.58 g/m*3 3.3 C 1.6 km/h
461 04-01-2015 23:15:00 3.3 C 5.58 g/m*3 3.3 C 1.6 km/h
462 04-01-2015 23:20:00 3.3 C 5.58 g/m*3 3.3 C 1.6 km/h
463 04-01-2015 23:25:00 3.2 C 5.54 g/m*3 3.2 C 3.2 km/h
464 04-01-2015 23:30:00 3.2 C 5.48 g/m*3 1.51 C 6.4 km/h
465 04-01-2015 23:35:00 3.2 C 5.54 g/m*3 3.2 C 1.6 km/h
466 04-01-2015 23:40:00 3.2 C 5.48 g/m*3 3.2 C 4.8 km/h
467 04-01-2015 23:45:00 3.3 C 5.52 g/m*3 3.3 C 3.2 km/h
468 04-01-2015 23:50:00 3.3 C 5.46 g/m*3 3.3 C 4.8 km/h
469 04-01-2015 23:55:00 3.4 C 5.44 g/m*3 3.4 C 3.2 km/h
470 05-01-2015 00:00:00 3.5 C 5.47 g/m*3 3.5 C 1.6 km/h
471 05-01-2015 00:05:00 3.4 C 5.5 g/m*3 3.4 C 1.6 km/h
472 05-01-2015 00:10:00 3.3 C 5.46 g/m*3 3.3 C 3.2 km/h
473 05-01-2015 00:15:00 3.2 C 5.42 g/m*3 3.2 C 4.8 km/h
474 05-01-2015 00:20:00 3.2 C 5.42 g/m*3 3.2 C 3.2 km/h
475 05-01-2015 00:25:00 3.1 C 5.45 g/m*3 3.1 C 3.2 km/h
Sensor: Nr:Datum:Temp:Abs-Feuchte:Windchill:Wind:
Aussen-T/F 476 05-01-2015 00:30:00 3 C 5.41 g/m*3 3 C 4.8 km/h
477 05-01-2015 00:35:00 2.9 C 5.37 g/m*3 2.9 C 3.2 km/h
478 05-01-2015 00:40:00 2.8 C 5.34 g/m*3 2.8 C 3.2 km/h
479 05-01-2015 00:45:00 2.8 C 5.34 g/m*3 2.8 C 3.2 km/h
480 05-01-2015 00:50:00 2.8 C 5.34 g/m*3 2.8 C 3.2 km/h
481 05-01-2015 00:55:00 2.8 C 5.28 g/m*3 2.8 C 3.2 km/h
482 05-01-2015 01:00:00 2.9 C 5.32 g/m*3 2.9 C 3.2 km/h
483 05-01-2015 01:05:00 2.9 C 5.26 g/m*3 0.64 C 8.1 km/h
484 05-01-2015 01:10:00 2.9 C 5.26 g/m*3 0.64 C 8.1 km/h
485 05-01-2015 01:15:00 2.9 C 5.26 g/m*3 2.9 C 1.6 km/h
486 05-01-2015 01:20:00 2.8 C 5.22 g/m*3 2.8 C 4.8 km/h
487 05-01-2015 01:25:00 2.7 C 5.24 g/m*3 2.7 C 3.2 km/h
488 05-01-2015 01:30:00 2.6 C 5.21 g/m*3 2.6 C 1.6 km/h
489 05-01-2015 01:35:00 2.6 C 5.21 g/m*3 2.6 C 1.6 km/h
490 05-01-2015 01:40:00 2.5 C 5.23 g/m*3 2.5 C 1.6 km/h
491 05-01-2015 01:45:00 2.4 C 5.2 g/m*3 2.4 C 3.2 km/h
492 05-01-2015 01:50:00 2.3 C 5.16 g/m*3 2.3 C 3.2 km/h
493 05-01-2015 01:55:00 2.2 C 5.13 g/m*3 2.2 C 1.6 km/h
494 05-01-2015 02:00:00 2.1 C 5.15 g/m*3 2.1 C 1.6 km/h
495 05-01-2015 02:05:00 1.9 C 5.08 g/m*3 1.9 C 0 km/h
496 05-01-2015 02:10:00 1.8 C 5.04 g/m*3 1.8 C 0 km/h
497 05-01-2015 02:15:00 1.6 C 4.97 g/m*3 1.6 C 1.6 km/h
498 05-01-2015 02:20:00 1.4 C 4.91 g/m*3 1.4 C 0 km/h
499 05-01-2015 02:25:00 1.3 C 4.93 g/m*3 1.3 C 0 km/h
500 05-01-2015 02:30:00 1.2 C 4.89 g/m*3 1.2 C 1.6 km/h
Sensor: Nr:Datum:Temp:Abs-Feuchte:Windchill:Wind:
Aussen-T/F 501 05-01-2015 02:35:00 1.2 C 4.89 g/m*3 1.2 C 1.6 km/h
502 05-01-2015 02:40:00 1.1 C 4.91 g/m*3 1.1 C 3.2 km/h
503 05-01-2015 02:45:00 1.1 C 4.91 g/m*3 1.1 C 1.6 km/h
504 05-01-2015 02:50:00 1.1 C 4.91 g/m*3 1.1 C 1.6 km/h
505 05-01-2015 02:55:00 1.1 C 4.91 g/m*3 1.1 C 1.6 km/h
506 05-01-2015 03:00:00 1 C 4.88 g/m*3 1 C 1.6 km/h
507 05-01-2015 03:05:00 1 C 4.88 g/m*3 1 C 3.2 km/h
508 05-01-2015 03:10:00 1 C 4.88 g/m*3 1 C 3.2 km/h
509 05-01-2015 03:15:00 1 C 4.88 g/m*3 1 C 3.2 km/h
510 05-01-2015 03:20:00 1 C 4.88 g/m*3 1 C 4.8 km/h
511 05-01-2015 03:25:00 0.9 C 4.85 g/m*3 0.9 C 1.6 km/h
512 05-01-2015 03:30:00 1 C 4.88 g/m*3 1 C 4.8 km/h
513 05-01-2015 03:35:00 1 C 4.88 g/m*3 1 C 0 km/h
514 05-01-2015 03:40:00 0.9 C 4.85 g/m*3 0.9 C 0 km/h
515 05-01-2015 03:45:00 0.8 C 4.81 g/m*3 0.8 C 1.6 km/h
516 05-01-2015 03:50:00 0.8 C 4.81 g/m*3 0.8 C 1.6 km/h
517 05-01-2015 03:55:00 0.7 C 4.78 g/m*3 0.7 C 0 km/h
518 05-01-2015 04:00:00 0.7 C 4.78 g/m*3 0.7 C 0 km/h
519 05-01-2015 04:05:00 0.5 C 4.71 g/m*3 0.5 C 0 km/h
520 05-01-2015 04:10:00 0.4 C 4.68 g/m*3 0.4 C 3.2 km/h
521 05-01-2015 04:15:00 0.3 C 4.65 g/m*3 0.3 C 3.2 km/h
522 05-01-2015 04:20:00 0.2 C 4.62 g/m*3 0.2 C 1.6 km/h
523 05-01-2015 04:25:00 0.1 C 4.59 g/m*3 0.1 C 1.6 km/h
524 05-01-2015 04:30:00 0.1 C 4.59 g/m*3 0.1 C 0 km/h
525 05-01-2015 04:35:00 -0.1 C 4.52 g/m*3 -0.1 C 0 km/h
Sensor: Nr:Datum:Temp:Abs-Feuchte:Windchill:Wind:
Aussen-T/F 526 05-01-2015 04:40:00 -0.1 C 4.57 g/m*3 -0.1 C 0 km/h
527 05-01-2015 04:45:00 -0.2 C 4.54 g/m*3 -0.2 C 0 km/h
528 05-01-2015 04:50:00 -0.3 C 4.51 g/m*3 -0.3 C 0 km/h
529 05-01-2015 04:55:00 -0.3 C 4.51 g/m*3 -0.3 C 0 km/h
530 05-01-2015 05:00:00 -0.4 C 4.48 g/m*3 -0.4 C 1.6 km/h
531 05-01-2015 05:05:00 -0.4 C 4.48 g/m*3 -0.4 C 1.6 km/h
532 05-01-2015 05:10:00 -0.4 C 4.48 g/m*3 -0.4 C 0 km/h
533 05-01-2015 05:15:00 -0.4 C 4.48 g/m*3 -0.4 C 0 km/h
534 05-01-2015 05:20:00 -0.4 C 4.48 g/m*3 -0.4 C 0 km/h
535 05-01-2015 05:25:00 -0.5 C 4.45 g/m*3 -0.5 C 0 km/h
536 05-01-2015 05:30:00 -0.6 C 4.42 g/m*3 -0.6 C 1.6 km/h
537 05-01-2015 05:35:00 -0.6 C 4.46 g/m*3 -0.6 C 0 km/h
538 05-01-2015 05:40:00 -0.6 C 4.46 g/m*3 -0.6 C 1.6 km/h
539 05-01-2015 05:45:00 -0.5 C 4.49 g/m*3 -0.5 C 3.2 km/h
540 05-01-2015 05:50:00 -0.5 C 4.49 g/m*3 -0.5 C 1.6 km/h
541 05-01-2015 05:55:00 -0.5 C 4.49 g/m*3 -0.5 C 0 km/h
542 05-01-2015 06:00:00 -0.5 C 4.49 g/m*3 -0.5 C 1.6 km/h
543 05-01-2015 06:05:00 -0.6 C 4.46 g/m*3 -0.6 C 0 km/h
544 05-01-2015 06:10:00 -0.6 C 4.46 g/m*3 -0.6 C 0 km/h
545 05-01-2015 06:15:00 -0.6 C 4.46 g/m*3 -0.6 C 0 km/h
546 05-01-2015 06:20:00 -0.6 C 4.46 g/m*3 -0.6 C 0 km/h
547 05-01-2015 06:25:00 -0.9 C 4.37 g/m*3 -0.9 C 0 km/h
548 05-01-2015 06:30:00 -1 C 4.34 g/m*3 -1 C 1.6 km/h
549 05-01-2015 06:35:00 -1 C 4.34 g/m*3 -1 C 0 km/h
550 05-01-2015 06:40:00 -1 C 4.34 g/m*3 -1 C 0 km/h
Sensor: Nr:Datum:Temp:Abs-Feuchte:Windchill:Wind:
Aussen-T/F 551 05-01-2015 06:45:00 -0.9 C 4.37 g/m*3 -0.9 C 0 km/h
552 05-01-2015 06:50:00 -0.9 C 4.37 g/m*3 -0.9 C 1.6 km/h
553 05-01-2015 06:55:00 -0.9 C 4.37 g/m*3 -0.9 C 1.6 km/h
554 05-01-2015 07:00:00 -0.9 C 4.37 g/m*3 -0.9 C 4.8 km/h
555 05-01-2015 07:05:00 -0.9 C 4.37 g/m*3 -0.9 C 1.6 km/h
556 05-01-2015 07:10:00 -0.8 C 4.4 g/m*3 -0.8 C 1.6 km/h
557 05-01-2015 07:15:00 -0.9 C 4.37 g/m*3 -0.9 C 0 km/h
558 05-01-2015 07:20:00 -0.9 C 4.37 g/m*3 -0.9 C 0 km/h
559 05-01-2015 07:25:00 -1 C 4.34 g/m*3 -1 C 1.6 km/h
560 05-01-2015 07:30:00 -1 C 4.34 g/m*3 -1 C 0 km/h
561 05-01-2015 07:35:00 -1 C 4.38 g/m*3 -1 C 1.6 km/h
562 05-01-2015 07:40:00 -0.9 C 4.42 g/m*3 -0.9 C 4.8 km/h
563 05-01-2015 07:45:00 -0.8 C 4.45 g/m*3 -3.11 C 6.4 km/h
564 05-01-2015 07:50:00 -0.8 C 4.45 g/m*3 -3.11 C 6.4 km/h
565 05-01-2015 07:55:00 -0.8 C 4.45 g/m*3 -3.11 C 6.4 km/h
566 05-01-2015 08:00:00 -0.8 C 4.45 g/m*3 -3.71 C 8.1 km/h
567 05-01-2015 08:05:00 -0.8 C 4.45 g/m*3 -0.8 C 3.2 km/h
568 05-01-2015 08:10:00 -0.7 C 4.48 g/m*3 -3.59 C 8.1 km/h
569 05-01-2015 08:15:00 -0.7 C 4.48 g/m*3 -2.99 C 6.4 km/h
570 05-01-2015 08:20:00 -0.7 C 4.48 g/m*3 -0.7 C 4.8 km/h
571 05-01-2015 08:25:00 -0.7 C 4.48 g/m*3 -0.7 C 4.8 km/h
572 05-01-2015 08:30:00 -0.7 C 4.48 g/m*3 -0.7 C 4.8 km/h
573 05-01-2015 08:35:00 -0.7 C 4.48 g/m*3 -4.07 C 9.7 km/h
574 05-01-2015 08:40:00 -0.8 C 4.45 g/m*3 -3.71 C 8.1 km/h
575 05-01-2015 08:45:00 -0.8 C 4.45 g/m*3 -0.8 C 4.8 km/h
Sensor: Nr:Datum:Temp:Abs-Feuchte:Windchill:Wind:
Aussen-T/F 576 05-01-2015 08:50:00 -0.8 C 4.45 g/m*3 -3.71 C 8.1 km/h
577 05-01-2015 08:55:00 -0.8 C 4.45 g/m*3 -0.8 C 4.8 km/h
578 05-01-2015 09:00:00 -0.8 C 4.45 g/m*3 -0.8 C 4.8 km/h
579 05-01-2015 09:05:00 -0.8 C 4.45 g/m*3 -3.11 C 6.4 km/h
580 05-01-2015 09:10:00 -0.8 C 4.45 g/m*3 -3.11 C 6.4 km/h
581 05-01-2015 09:15:00 -0.8 C 4.45 g/m*3 -3.11 C 6.4 km/h
582 05-01-2015 09:20:00 -0.8 C 4.45 g/m*3 -0.8 C 4.8 km/h
583 05-01-2015 09:25:00 -0.8 C 4.45 g/m*3 -0.8 C 4.8 km/h
584 05-01-2015 09:30:00 -0.8 C 4.45 g/m*3 -0.8 C 3.2 km/h
585 05-01-2015 09:35:00 -0.8 C 4.45 g/m*3 -3.11 C 6.4 km/h
586 05-01-2015 09:40:00 -0.6 C 4.51 g/m*3 -3.48 C 8.1 km/h
587 05-01-2015 09:45:00 -0.6 C 4.51 g/m*3 -3.95 C 9.7 km/h
588 05-01-2015 09:50:00 -0.6 C 4.51 g/m*3 -0.6 C 4.8 km/h
589 05-01-2015 09:55:00 -0.6 C 4.51 g/m*3 -0.6 C 4.8 km/h
590 05-01-2015 10:00:00 -0.6 C 4.51 g/m*3 -0.6 C 3.2 km/h
591 05-01-2015 10:05:00 -0.6 C 4.51 g/m*3 -0.6 C 3.2 km/h
592 05-01-2015 10:10:00 -0.6 C 4.51 g/m*3 -0.6 C 3.2 km/h
593 05-01-2015 10:15:00 -0.6 C 4.51 g/m*3 -0.6 C 1.6 km/h
594 05-01-2015 10:20:00 -0.6 C 4.51 g/m*3 -2.88 C 6.4 km/h
595 05-01-2015 10:25:00 -0.5 C 4.54 g/m*3 -0.5 C 1.6 km/h
596 05-01-2015 10:30:00 -0.5 C 4.54 g/m*3 -0.5 C 4.8 km/h
597 05-01-2015 10:35:00 -0.5 C 4.54 g/m*3 -2.76 C 6.4 km/h
598 05-01-2015 10:40:00 -0.3 C 4.6 g/m*3 -3.12 C 8.1 km/h
599 05-01-2015 10:45:00 -0.2 C 4.64 g/m*3 -0.2 C 4.8 km/h
600 05-01-2015 10:50:00 -0.2 C 4.64 g/m*3 -0.2 C 3.2 km/h
Sensor: Nr:Datum:Temp:Abs-Feuchte:Windchill:Wind:
Aussen-T/F 601 05-01-2015 10:55:00 -0.2 C 4.64 g/m*3 -0.2 C 1.6 km/h
602 05-01-2015 11:00:00 -0.2 C 4.64 g/m*3 -0.2 C 1.6 km/h
603 05-01-2015 11:05:00 -0.2 C 4.64 g/m*3 -0.2 C 3.2 km/h
604 05-01-2015 11:10:00 -0.2 C 4.64 g/m*3 -0.2 C 1.6 km/h
605 05-01-2015 11:50:00 0.2 C 4.77 g/m*3 0.2 C 3.2 km/h
606 05-01-2015 11:55:00 0.2 C 4.77 g/m*3 0.2 C 1.6 km/h
607 05-01-2015 12:00:00 0.2 C 4.77 g/m*3 0.2 C 1.6 km/h
608 05-01-2015 12:05:00 0.2 C 4.77 g/m*3 0.2 C 1.6 km/h
609 05-01-2015 12:10:00 0.2 C 4.77 g/m*3 0.2 C 3.2 km/h
610 05-01-2015 12:15:00 0.2 C 4.77 g/m*3 0.2 C 1.6 km/h
611 05-01-2015 12:20:00 0.2 C 4.77 g/m*3 0.2 C 1.6 km/h
612 05-01-2015 12:25:00 0.2 C 4.77 g/m*3 0.2 C 1.6 km/h
613 05-01-2015 13:50:00 1.1 C 5.23 g/m*3 1.1 C 3.2 km/h
614 05-01-2015 13:55:00 1.1 C 4.96 g/m*3 1.1 C 4.8 km/h
615 05-01-2015 14:00:00 1.1 C 4.96 g/m*3 1.1 C 3.2 km/h
616 05-01-2015 18:20:00 -0.8 C 4.4 g/m*3 -0.8 C 0 km/h
617 05-01-2015 18:25:00 -0.8 C 4.4 g/m*3 -0.8 C 0 km/h
618 05-01-2015 18:30:00 -0.8 C 4.4 g/m*3 -0.8 C 0 km/h
619 05-01-2015 18:35:00 -0.8 C 4.4 g/m*3 -0.8 C 1.6 km/h
620 05-01-2015 18:40:00 -0.8 C 4.4 g/m*3 -0.8 C 0 km/h
621 05-01-2015 18:45:00 -0.8 C 4.4 g/m*3 -0.8 C 0 km/h
622 05-01-2015 18:50:00 -0.8 C 4.4 g/m*3 -0.8 C 0 km/h
623 05-01-2015 18:55:00 -0.8 C 4.4 g/m*3 -0.8 C 0 km/h
624 05-01-2015 19:00:00 -0.8 C 4.4 g/m*3 -0.8 C 0 km/h
625 05-01-2015 19:05:00 -0.9 C 4.37 g/m*3 -0.9 C 0 km/h
Sensor: Nr:Datum:Temp:Abs-Feuchte:Windchill:Wind:
Aussen-T/F 626 05-01-2015 19:10:00 -0.9 C 4.37 g/m*3 -0.9 C 0 km/h
627 05-01-2015 20:10:00 -1.4 C 4.22 g/m*3 -1.4 C 0 km/h
628 05-01-2015 20:15:00 -1.4 C 4.22 g/m*3 -1.4 C 0 km/h
629 05-01-2015 20:20:00 -1.3 C 4.25 g/m*3 -1.3 C 0 km/h
630 05-01-2015 20:25:00 -1.4 C 4.22 g/m*3 -1.4 C 0 km/h
631 05-01-2015 20:30:00 -1.4 C 4.22 g/m*3 -1.4 C 0 km/h
632 05-01-2015 20:35:00 -1.4 C 4.22 g/m*3 -1.4 C 0 km/h
633 05-01-2015 20:40:00 -1.3 C 4.25 g/m*3 -1.3 C 0 km/h
634 05-01-2015 20:45:00 -1.4 C 4.22 g/m*3 -1.4 C 0 km/h
635 05-01-2015 20:50:00 -1.4 C 4.22 g/m*3 -1.4 C 0 km/h
636 05-01-2015 20:55:00 -1.5 C 4.19 g/m*3 -1.5 C 0 km/h
637 05-01-2015 21:00:00 -1.5 C 4.19 g/m*3 -1.5 C 0 km/h
638 05-01-2015 21:05:00 -1.6 C 4.16 g/m*3 -1.6 C 0 km/h
639 05-01-2015 21:10:00 -1.5 C 4.19 g/m*3 -1.5 C 0 km/h
640 05-01-2015 21:15:00 -1.5 C 4.19 g/m*3 -1.5 C 0 km/h
641 05-01-2015 21:20:00 -1.5 C 4.19 g/m*3 -1.5 C 0 km/h
642 05-01-2015 21:25:00 -1.6 C 4.16 g/m*3 -1.6 C 0 km/h
643 05-01-2015 21:30:00 -1.6 C 4.16 g/m*3 -1.6 C 0 km/h
644 05-01-2015 21:35:00 -1.6 C 4.16 g/m*3 -1.6 C 0 km/h
645 05-01-2015 21:40:00 -1.6 C 4.16 g/m*3 -1.6 C 0 km/h
646 05-01-2015 21:45:00 -1.6 C 4.16 g/m*3 -1.6 C 0 km/h
647 05-01-2015 21:50:00 -1.6 C 4.16 g/m*3 -1.6 C 0 km/h
648 05-01-2015 21:55:00 -1.6 C 4.21 g/m*3 -1.6 C 0 km/h
649 05-01-2015 22:00:00 -1.6 C 4.21 g/m*3 -1.6 C 0 km/h
650 05-01-2015 22:05:00 -1.7 C 4.13 g/m*3 -1.7 C 0 km/h
Sensor: Nr:Datum:Temp:Abs-Feuchte:Windchill:Wind:
Aussen-T/F 651 05-01-2015 22:10:00 -1.7 C 4.13 g/m*3 -1.7 C 0 km/h
652 05-01-2015 22:15:00 -1.8 C 4.1 g/m*3 -1.8 C 0 km/h
653 05-01-2015 22:20:00 -1.8 C 4.1 g/m*3 -1.8 C 0 km/h
654 05-01-2015 22:25:00 -1.8 C 4.1 g/m*3 -1.8 C 0 km/h
655 05-01-2015 22:30:00 -1.8 C 4.1 g/m*3 -1.8 C 1.6 km/h
656 05-01-2015 22:35:00 -1.8 C 4.1 g/m*3 -1.8 C 0 km/h
657 05-01-2015 22:40:00 -1.8 C 4.1 g/m*3 -1.8 C 0 km/h
658 06-01-2015 07:55:00 -2.9 C 3.84 g/m*3 -2.9 C 4.8 km/h
659 06-01-2015 08:00:00 -2.9 C 3.84 g/m*3 -2.9 C 3.2 km/h
660 06-01-2015 08:05:00 -2.9 C 3.84 g/m*3 -2.9 C 1.6 km/h
661 06-01-2015 08:10:00 -2.9 C 3.84 g/m*3 -2.9 C 3.2 km/h
662 06-01-2015 08:15:00 -2.9 C 3.84 g/m*3 -2.9 C 3.2 km/h
663 06-01-2015 13:05:00 -1.4 C 4.26 g/m*3 -1.4 C 3.2 km/h
664 06-01-2015 13:10:00 -1.3 C 4.29 g/m*3 -1.3 C 0 km/h
665 06-01-2015 13:15:00 -1.3 C 4.29 g/m*3 -1.3 C 0 km/h
666 06-01-2015 13:20:00 -1.3 C 4.29 g/m*3 -1.3 C 0 km/h
667 06-01-2015 13:25:00 -1.3 C 4.29 g/m*3 -1.3 C 1.6 km/h
668 06-01-2015 19:40:00 1.1 C 4.7 g/m*3 -2.66 C 12.9 km/h
669 06-01-2015 19:45:00 1.1 C 4.7 g/m*3 -2.97 C 14.5 km/h
670 06-01-2015 19:50:00 1.1 C 4.7 g/m*3 -2.97 C 14.5 km/h
671 06-01-2015 19:55:00 1.1 C 4.7 g/m*3 -2.66 C 12.9 km/h
672 06-01-2015 20:00:00 0.9 C 4.64 g/m*3 -3.21 C 14.5 km/h
673 06-01-2015 20:05:00 0.9 C 4.64 g/m*3 -2.16 C 9.7 km/h
674 06-01-2015 20:10:00 0.8 C 4.61 g/m*3 -4.13 C 19.3 km/h
675 06-01-2015 20:15:00 0.8 C 4.61 g/m*3 -3.02 C 12.9 km/h
Sensor: Nr:Datum:Temp:Abs-Feuchte:Windchill:Wind:
Aussen-T/F 676 06-01-2015 20:20:00 0.8 C 4.61 g/m*3 -3.02 C 12.9 km/h
677 06-01-2015 20:25:00 0.8 C 4.61 g/m*3 -2.67 C 11.3 km/h
678 06-01-2015 21:20:00 0.7 C 4.68 g/m*3 -1.95 C 8.1 km/h
679 06-01-2015 21:25:00 0.7 C 4.68 g/m*3 -2.8 C 11.3 km/h
680 06-01-2015 21:30:00 0.7 C 4.68 g/m*3 -2.8 C 11.3 km/h
681 06-01-2015 21:35:00 0.8 C 4.71 g/m*3 -2.28 C 9.7 km/h
682 06-01-2015 21:40:00 0.8 C 4.71 g/m*3 -2.28 C 9.7 km/h
683 06-01-2015 21:45:00 0.8 C 4.71 g/m*3 -2.28 C 9.7 km/h
684 06-01-2015 21:50:00 0.8 C 4.71 g/m*3 -2.67 C 11.3 km/h
685 06-01-2015 21:55:00 0.8 C 4.71 g/m*3 -3.34 C 14.5 km/h
686 06-01-2015 22:00:00 0.9 C 4.74 g/m*3 -1.14 C 6.4 km/h
687 06-01-2015 22:05:00 1 C 4.78 g/m*3 -2.78 C 12.9 km/h
688 06-01-2015 22:10:00 1 C 4.78 g/m*3 -1.59 C 8.1 km/h
689 06-01-2015 22:15:00 1.1 C 4.81 g/m*3 -1.92 C 9.7 km/h
690 06-01-2015 22:20:00 1.1 C 4.81 g/m*3 -1.48 C 8.1 km/h
691 06-01-2015 22:25:00 1.1 C 4.81 g/m*3 -2.31 C 11.3 km/h
692 06-01-2015 22:30:00 1.2 C 4.84 g/m*3 -0.8 C 6.4 km/h
693 06-01-2015 22:35:00 1.3 C 4.87 g/m*3 -0.68 C 6.4 km/h
694 06-01-2015 22:40:00 1.3 C 4.87 g/m*3 1.3 C 1.6 km/h
695 06-01-2015 22:45:00 1.3 C 4.87 g/m*3 1.3 C 1.6 km/h
696 06-01-2015 22:50:00 1.3 C 4.87 g/m*3 1.3 C 4.8 km/h
697 06-01-2015 22:55:00 1.2 C 4.84 g/m*3 1.2 C 0 km/h
698 06-01-2015 23:00:00 1.2 C 4.84 g/m*3 -1.8 C 9.7 km/h
699 06-01-2015 23:05:00 1.2 C 4.84 g/m*3 1.2 C 4.8 km/h
700 06-01-2015 23:10:00 1.2 C 4.84 g/m*3 1.2 C 3.2 km/h
Sensor: Nr:Datum:Temp:Abs-Feuchte:Windchill:Wind:
Aussen-T/F 701 06-01-2015 23:15:00 1.3 C 4.93 g/m*3 -0.68 C 6.4 km/h
702 06-01-2015 23:20:00 1.4 C 4.96 g/m*3 -2.29 C 12.9 km/h
703 06-01-2015 23:25:00 1.6 C 5.03 g/m*3 -1.33 C 9.7 km/h
704 06-01-2015 23:30:00 1.6 C 5.03 g/m*3 1.6 C 4.8 km/h
705 06-01-2015 23:35:00 1.6 C 4.97 g/m*3 -0.33 C 6.4 km/h
706 06-01-2015 23:40:00 1.6 C 4.97 g/m*3 1.6 C 4.8 km/h
707 06-01-2015 23:45:00 1.5 C 4.94 g/m*3 1.5 C 4.8 km/h
708 06-01-2015 23:50:00 1.5 C 4.99 g/m*3 -0.45 C 6.4 km/h
709 06-01-2015 23:55:00 1.5 C 4.99 g/m*3 -2.17 C 12.9 km/h
710 07-01-2015 00:00:00 1.5 C 4.99 g/m*3 -1.01 C 8.1 km/h
711 07-01-2015 00:05:00 1.6 C 5.03 g/m*3 -0.33 C 6.4 km/h
712 07-01-2015 00:10:00 1.6 C 5.03 g/m*3 -0.33 C 6.4 km/h
713 07-01-2015 00:15:00 1.6 C 5.03 g/m*3 -0.33 C 6.4 km/h
714 07-01-2015 00:20:00 1.6 C 5.03 g/m*3 -0.33 C 6.4 km/h
715 07-01-2015 00:25:00 1.6 C 5.03 g/m*3 -0.89 C 8.1 km/h
716 07-01-2015 00:30:00 1.6 C 5.03 g/m*3 1.6 C 3.2 km/h
717 07-01-2015 00:35:00 1.6 C 5.08 g/m*3 -0.33 C 6.4 km/h
718 07-01-2015 00:40:00 1.7 C 5.12 g/m*3 -0.22 C 6.4 km/h
719 07-01-2015 00:45:00 1.7 C 5.12 g/m*3 1.7 C 3.2 km/h
720 07-01-2015 00:50:00 1.7 C 5.12 g/m*3 1.7 C 3.2 km/h
721 07-01-2015 00:55:00 1.7 C 5.12 g/m*3 1.7 C 3.2 km/h
722 07-01-2015 01:00:00 1.8 C 5.15 g/m*3 -1.09 C 9.7 km/h
723 07-01-2015 01:05:00 1.9 C 5.19 g/m*3 -0.97 C 9.7 km/h
724 07-01-2015 01:10:00 1.9 C 5.19 g/m*3 1.9 C 4.8 km/h
725 07-01-2015 01:15:00 1.9 C 5.19 g/m*3 0.01 C 6.4 km/h
Sensor: Nr:Datum:Temp:Abs-Feuchte:Windchill:Wind:
Aussen-T/F 726 07-01-2015 01:20:00 2 C 5.22 g/m*3 -2.14 C 16.1 km/h
727 07-01-2015 01:25:00 2.1 C 5.26 g/m*3 -0.73 C 9.7 km/h
728 07-01-2015 01:30:00 2.1 C 5.26 g/m*3 -0.73 C 9.7 km/h
729 07-01-2015 01:35:00 2.2 C 5.29 g/m*3 2.2 C 4.8 km/h
730 07-01-2015 01:40:00 2.1 C 5.2 g/m*3 -1.74 C 14.5 km/h
731 07-01-2015 01:45:00 2.2 C 5.29 g/m*3 2.2 C 4.8 km/h
732 07-01-2015 01:50:00 2.2 C 5.29 g/m*3 0.36 C 6.4 km/h
733 07-01-2015 01:55:00 2.2 C 5.29 g/m*3 0.36 C 6.4 km/h
734 07-01-2015 02:00:00 2.2 C 5.29 g/m*3 2.2 C 3.2 km/h
735 07-01-2015 02:05:00 2.2 C 5.29 g/m*3 2.2 C 3.2 km/h
736 07-01-2015 02:10:00 2.2 C 5.29 g/m*3 2.2 C 4.8 km/h
737 07-01-2015 02:15:00 2.2 C 5.29 g/m*3 -0.18 C 8.1 km/h
738 07-01-2015 02:20:00 2.3 C 5.33 g/m*3 -0.87 C 11.3 km/h
739 07-01-2015 02:25:00 2.3 C 5.33 g/m*3 -0.49 C 9.7 km/h
740 07-01-2015 02:30:00 2.3 C 5.33 g/m*3 0.47 C 6.4 km/h
741 07-01-2015 02:35:00 2.3 C 5.33 g/m*3 -0.07 C 8.1 km/h
742 07-01-2015 02:40:00 2.2 C 5.29 g/m*3 -0.61 C 9.7 km/h
743 07-01-2015 02:45:00 2.2 C 5.29 g/m*3 0.36 C 6.4 km/h
744 07-01-2015 02:50:00 2.2 C 5.29 g/m*3 0.36 C 6.4 km/h
745 07-01-2015 02:55:00 2.3 C 5.33 g/m*3 2.3 C 4.8 km/h
746 07-01-2015 03:00:00 2.3 C 5.33 g/m*3 0.47 C 6.4 km/h
747 07-01-2015 03:05:00 2.3 C 5.33 g/m*3 -0.87 C 11.3 km/h
748 07-01-2015 03:10:00 2.4 C 5.37 g/m*3 -0.74 C 11.3 km/h
749 07-01-2015 03:15:00 2.6 C 5.44 g/m*3 0.29 C 8.1 km/h
750 07-01-2015 03:20:00 2.6 C 5.38 g/m*3 -0.14 C 9.7 km/h
Sensor: Nr:Datum:Temp:Abs-Feuchte:Windchill:Wind:
Aussen-T/F 751 07-01-2015 03:25:00 2.5 C 5.35 g/m*3 -0.62 C 11.3 km/h
752 07-01-2015 03:30:00 2.4 C 5.31 g/m*3 0.59 C 6.4 km/h
753 07-01-2015 03:35:00 2.5 C 5.4 g/m*3 -0.26 C 9.7 km/h
754 07-01-2015 03:40:00 2.5 C 5.35 g/m*3 -0.26 C 9.7 km/h
755 07-01-2015 03:45:00 2.6 C 5.44 g/m*3 -0.5 C 11.3 km/h
756 07-01-2015 03:50:00 2.6 C 5.44 g/m*3 0.82 C 6.4 km/h
757 07-01-2015 03:55:00 2.5 C 5.4 g/m*3 0.71 C 6.4 km/h
758 07-01-2015 04:00:00 2.4 C 5.37 g/m*3 0.59 C 6.4 km/h
759 07-01-2015 04:05:00 2.4 C 5.37 g/m*3 2.4 C 4.8 km/h
760 07-01-2015 04:10:00 2.4 C 5.37 g/m*3 -1.37 C 14.5 km/h
761 07-01-2015 04:15:00 2.4 C 5.37 g/m*3 -0.37 C 9.7 km/h
762 07-01-2015 04:20:00 2.4 C 5.37 g/m*3 -0.74 C 11.3 km/h
763 07-01-2015 04:25:00 2.5 C 5.4 g/m*3 -0.26 C 9.7 km/h
764 07-01-2015 04:30:00 2.5 C 5.4 g/m*3 -1.52 C 16.1 km/h
765 07-01-2015 04:35:00 2.5 C 5.4 g/m*3 0.17 C 8.1 km/h
766 07-01-2015 04:40:00 2.6 C 5.44 g/m*3 -0.5 C 11.3 km/h
767 07-01-2015 04:45:00 2.5 C 5.4 g/m*3 0.71 C 6.4 km/h
768 07-01-2015 04:50:00 2.5 C 5.4 g/m*3 -0.62 C 11.3 km/h
769 07-01-2015 04:55:00 2.4 C 5.37 g/m*3 2.4 C 4.8 km/h
770 07-01-2015 05:00:00 2.4 C 5.37 g/m*3 0.59 C 6.4 km/h
771 07-01-2015 05:05:00 2.4 C 5.37 g/m*3 2.4 C 4.8 km/h
772 07-01-2015 05:10:00 2.4 C 5.37 g/m*3 0.05 C 8.1 km/h
773 07-01-2015 05:15:00 2.5 C 5.4 g/m*3 -0.26 C 9.7 km/h
774 07-01-2015 05:20:00 2.5 C 5.4 g/m*3 0.71 C 6.4 km/h
775 07-01-2015 05:25:00 2.6 C 5.44 g/m*3 2.6 C 4.8 km/h
Sensor: Nr:Datum:Temp:Abs-Feuchte:Windchill:Wind:
Aussen-T/F 776 07-01-2015 05:30:00 2.6 C 5.44 g/m*3 0.82 C 6.4 km/h
777 07-01-2015 05:35:00 2.6 C 5.44 g/m*3 -0.5 C 11.3 km/h
778 07-01-2015 05:40:00 2.5 C 5.4 g/m*3 0.71 C 6.4 km/h
779 07-01-2015 05:45:00 2.5 C 5.4 g/m*3 0.71 C 6.4 km/h
780 07-01-2015 05:50:00 2.4 C 5.37 g/m*3 2.4 C 4.8 km/h
781 07-01-2015 05:55:00 2.3 C 5.33 g/m*3 2.3 C 4.8 km/h
782 07-01-2015 06:00:00 2.1 C 5.26 g/m*3 2.1 C 3.2 km/h
783 07-01-2015 06:05:00 1.9 C 5.19 g/m*3 1.9 C 3.2 km/h
784 07-01-2015 06:10:00 1.8 C 5.15 g/m*3 1.8 C 1.6 km/h
785 07-01-2015 06:15:00 1.7 C 5.17 g/m*3 1.7 C 3.2 km/h
786 07-01-2015 06:20:00 1.6 C 5.14 g/m*3 1.6 C 1.6 km/h
787 07-01-2015 06:25:00 1.6 C 5.14 g/m*3 1.6 C 1.6 km/h
788 07-01-2015 06:30:00 1.4 C 5.07 g/m*3 1.4 C 0 km/h
789 07-01-2015 06:35:00 1.4 C 5.12 g/m*3 1.4 C 1.6 km/h
790 07-01-2015 06:40:00 1.4 C 5.12 g/m*3 1.4 C 4.8 km/h
791 07-01-2015 06:45:00 1.5 C 5.16 g/m*3 1.5 C 4.8 km/h
792 07-01-2015 06:50:00 1.4 C 5.12 g/m*3 1.4 C 3.2 km/h
793 07-01-2015 06:55:00 1.4 C 5.12 g/m*3 1.4 C 4.8 km/h
794 07-01-2015 07:00:00 1.3 C 5.09 g/m*3 1.3 C 4.8 km/h
795 07-01-2015 07:05:00 1.3 C 5.09 g/m*3 1.3 C 3.2 km/h
796 07-01-2015 07:10:00 1.4 C 5.12 g/m*3 1.4 C 3.2 km/h
797 07-01-2015 07:15:00 1.5 C 5.16 g/m*3 1.5 C 3.2 km/h
798 07-01-2015 07:20:00 1.4 C 5.12 g/m*3 1.4 C 3.2 km/h
799 07-01-2015 07:25:00 1.4 C 5.12 g/m*3 1.4 C 3.2 km/h
800 07-01-2015 07:30:00 1.4 C 5.12 g/m*3 -0.56 C 6.4 km/h
Sensor: Nr:Datum:Temp:Abs-Feuchte:Windchill:Wind:
Aussen-T/F 801 07-01-2015 07:35:00 1.4 C 5.12 g/m*3 1.4 C 3.2 km/h
802 07-01-2015 07:40:00 1.3 C 5.09 g/m*3 1.3 C 1.6 km/h
803 07-01-2015 07:45:00 1.3 C 5.09 g/m*3 -0.68 C 6.4 km/h
804 07-01-2015 07:50:00 1.4 C 5.12 g/m*3 1.4 C 3.2 km/h
805 07-01-2015 07:55:00 1.3 C 5.09 g/m*3 1.3 C 3.2 km/h
806 07-01-2015 08:00:00 1.3 C 5.09 g/m*3 1.3 C 3.2 km/h
807 07-01-2015 08:05:00 1.3 C 5.14 g/m*3 1.3 C 4.8 km/h
808 07-01-2015 08:10:00 1.4 C 5.17 g/m*3 1.4 C 4.8 km/h
809 07-01-2015 08:15:00 1.5 C 5.21 g/m*3 -1.01 C 8.1 km/h
810 07-01-2015 08:20:00 1.6 C 5.25 g/m*3 1.6 C 4.8 km/h
811 07-01-2015 08:25:00 1.7 C 5.28 g/m*3 -0.22 C 6.4 km/h
812 07-01-2015 08:30:00 1.7 C 5.28 g/m*3 -0.22 C 6.4 km/h
813 07-01-2015 08:35:00 1.7 C 5.23 g/m*3 -0.22 C 6.4 km/h
814 07-01-2015 08:40:00 1.8 C 5.26 g/m*3 1.8 C 3.2 km/h
815 07-01-2015 08:45:00 1.8 C 5.26 g/m*3 1.8 C 3.2 km/h
816 07-01-2015 08:50:00 1.8 C 5.26 g/m*3 -0.65 C 8.1 km/h
817 07-01-2015 08:55:00 1.9 C 5.35 g/m*3 1.9 C 4.8 km/h
818 07-01-2015 09:00:00 2 C 5.33 g/m*3 2 C 4.8 km/h
819 07-01-2015 09:05:00 2.1 C 5.37 g/m*3 2.1 C 4.8 km/h
820 07-01-2015 09:10:00 2 C 5.33 g/m*3 2 C 3.2 km/h
821 07-01-2015 09:15:00 2 C 5.33 g/m*3 2 C 1.6 km/h
822 07-01-2015 09:20:00 2 C 5.33 g/m*3 2 C 3.2 km/h
823 07-01-2015 09:25:00 2.1 C 5.37 g/m*3 2.1 C 4.8 km/h
824 07-01-2015 09:30:00 2.1 C 5.37 g/m*3 2.1 C 0 km/h
825 07-01-2015 09:35:00 2.1 C 5.37 g/m*3 2.1 C 4.8 km/h
Sensor: Nr:Datum:Temp:Abs-Feuchte:Windchill:Wind:
Aussen-T/F 826 07-01-2015 09:40:00 2.1 C 5.37 g/m*3 2.1 C 3.2 km/h
827 07-01-2015 11:40:00 3.2 C 5.54 g/m*3 -0.1 C 12.9 km/h
828 07-01-2015 11:45:00 3.3 C 5.58 g/m*3 1.63 C 6.4 km/h
829 07-01-2015 11:50:00 3.2 C 5.54 g/m*3 0.58 C 9.7 km/h
830 07-01-2015 11:55:00 3.2 C 5.54 g/m*3 3.2 C 4.8 km/h
831 07-01-2015 12:00:00 3.1 C 5.51 g/m*3 1.4 C 6.4 km/h
832 07-01-2015 12:05:00 3.1 C 5.51 g/m*3 3.1 C 4.8 km/h
833 07-01-2015 12:10:00 3.2 C 5.54 g/m*3 1.51 C 6.4 km/h
834 07-01-2015 12:15:00 3.1 C 5.51 g/m*3 1.4 C 6.4 km/h
835 07-01-2015 12:20:00 3.1 C 5.51 g/m*3 3.1 C 4.8 km/h
836 07-01-2015 12:25:00 3.1 C 5.51 g/m*3 0.1 C 11.3 km/h
837 07-01-2015 12:30:00 3.2 C 5.54 g/m*3 0.58 C 9.7 km/h
838 07-01-2015 12:35:00 3.2 C 5.48 g/m*3 1.51 C 6.4 km/h
839 07-01-2015 12:40:00 3.2 C 5.54 g/m*3 0.22 C 11.3 km/h
840 07-01-2015 12:45:00 3.3 C 5.52 g/m*3 0.34 C 11.3 km/h
841 07-01-2015 12:50:00 3.3 C 5.52 g/m*3 1.11 C 8.1 km/h
842 07-01-2015 12:55:00 3.4 C 5.56 g/m*3 0.46 C 11.3 km/h
843 07-01-2015 13:00:00 3.4 C 5.5 g/m*3 0.46 C 11.3 km/h
844 07-01-2015 13:05:00 3.4 C 5.5 g/m*3 0.46 C 11.3 km/h
845 07-01-2015 13:10:00 3.4 C 5.5 g/m*3 1.75 C 6.4 km/h
846 07-01-2015 13:15:00 3.4 C 5.5 g/m*3 1.23 C 8.1 km/h
847 07-01-2015 13:20:00 3.4 C 5.56 g/m*3 1.75 C 6.4 km/h
848 07-01-2015 13:25:00 3.4 C 5.56 g/m*3 0.46 C 11.3 km/h
849 07-01-2015 13:30:00 3.4 C 5.56 g/m*3 1.23 C 8.1 km/h
850 07-01-2015 13:35:00 3.4 C 5.56 g/m*3 0.82 C 9.7 km/h
Sensor: Nr:Datum:Temp:Abs-Feuchte:Windchill:Wind:
Aussen-T/F 851 07-01-2015 13:40:00 3.4 C 5.5 g/m*3 -0.14 C 14.5 km/h
852 07-01-2015 13:45:00 3.4 C 5.5 g/m*3 1.23 C 8.1 km/h
853 07-01-2015 13:50:00 3.4 C 5.5 g/m*3 0.14 C 12.9 km/h
854 07-01-2015 13:55:00 3.5 C 5.53 g/m*3 0.58 C 11.3 km/h
855 07-01-2015 14:00:00 3.5 C 5.53 g/m*3 0.94 C 9.7 km/h
856 07-01-2015 14:05:00 3.5 C 5.53 g/m*3 1.86 C 6.4 km/h
857 07-01-2015 14:10:00 3.5 C 5.53 g/m*3 0.94 C 9.7 km/h
858 07-01-2015 14:15:00 3.4 C 5.5 g/m*3 -0.4 C 16.1 km/h
859 07-01-2015 14:20:00 3.4 C 5.5 g/m*3 0.46 C 11.3 km/h
860 07-01-2015 14:25:00 3.4 C 5.5 g/m*3 0.82 C 9.7 km/h
861 07-01-2015 14:30:00 3.4 C 5.44 g/m*3 0.46 C 11.3 km/h
862 07-01-2015 14:35:00 3.4 C 5.44 g/m*3 0.82 C 9.7 km/h
863 07-01-2015 14:40:00 3.4 C 5.44 g/m*3 0.82 C 9.7 km/h
864 07-01-2015 14:45:00 3.4 C 5.44 g/m*3 0.82 C 9.7 km/h
865 07-01-2015 14:50:00 3.4 C 5.44 g/m*3 0.14 C 12.9 km/h
866 07-01-2015 14:55:00 3.4 C 5.44 g/m*3 0.46 C 11.3 km/h
867 07-01-2015 15:00:00 3.4 C 5.44 g/m*3 3.4 C 4.8 km/h
868 07-01-2015 15:05:00 3.4 C 5.37 g/m*3 3.4 C 4.8 km/h
869 07-01-2015 15:10:00 3.5 C 5.47 g/m*3 0.58 C 11.3 km/h
870 07-01-2015 15:15:00 3.5 C 5.47 g/m*3 1.86 C 6.4 km/h
871 07-01-2015 15:20:00 3.5 C 5.47 g/m*3 1.86 C 6.4 km/h
872 07-01-2015 15:25:00 3.5 C 5.41 g/m*3 3.5 C 4.8 km/h
873 07-01-2015 15:30:00 3.5 C 5.47 g/m*3 3.5 C 4.8 km/h
874 07-01-2015 15:35:00 3.4 C 5.44 g/m*3 0.82 C 9.7 km/h
875 07-01-2015 15:40:00 3.4 C 5.37 g/m*3 1.23 C 8.1 km/h
Sensor: Nr:Datum:Temp:Abs-Feuchte:Windchill:Wind:
Aussen-T/F 876 07-01-2015 15:45:00 3.3 C 5.34 g/m*3 0.7 C 9.7 km/h
877 07-01-2015 15:50:00 3.3 C 5.4 g/m*3 0.34 C 11.3 km/h
878 07-01-2015 15:55:00 3.3 C 5.4 g/m*3 0.7 C 9.7 km/h
879 07-01-2015 16:00:00 3.2 C 5.36 g/m*3 0.99 C 8.1 km/h
880 07-01-2015 16:05:00 3.2 C 5.36 g/m*3 3.2 C 4.8 km/h
881 07-01-2015 16:10:00 3.2 C 5.42 g/m*3 0.99 C 8.1 km/h
882 07-01-2015 16:15:00 3.2 C 5.36 g/m*3 0.58 C 9.7 km/h
883 07-01-2015 16:20:00 3.2 C 5.42 g/m*3 3.2 C 4.8 km/h
884 07-01-2015 16:25:00 3.2 C 5.42 g/m*3 3.2 C 3.2 km/h
885 07-01-2015 16:30:00 3.1 C 5.39 g/m*3 3.1 C 3.2 km/h
886 07-01-2015 16:35:00 3.1 C 5.39 g/m*3 3.1 C 4.8 km/h
887 07-01-2015 16:40:00 3.1 C 5.39 g/m*3 0.87 C 8.1 km/h
888 07-01-2015 16:45:00 3.1 C 5.39 g/m*3 1.4 C 6.4 km/h
889 07-01-2015 16:50:00 3.1 C 5.39 g/m*3 1.4 C 6.4 km/h
890 07-01-2015 16:55:00 3 C 5.35 g/m*3 3 C 4.8 km/h
891 07-01-2015 17:00:00 3 C 5.35 g/m*3 1.28 C 6.4 km/h
892 07-01-2015 17:05:00 2.9 C 5.32 g/m*3 2.9 C 3.2 km/h
893 07-01-2015 17:10:00 2.9 C 5.32 g/m*3 2.9 C 3.2 km/h
894 07-01-2015 17:15:00 2.9 C 5.32 g/m*3 0.22 C 9.7 km/h
895 07-01-2015 17:20:00 2.9 C 5.37 g/m*3 2.9 C 1.6 km/h
896 07-01-2015 17:25:00 2.8 C 5.34 g/m*3 2.8 C 0 km/h
897 07-01-2015 17:30:00 2.8 C 5.34 g/m*3 2.8 C 0 km/h
898 07-01-2015 17:35:00 2.8 C 5.34 g/m*3 2.8 C 0 km/h
899 07-01-2015 17:40:00 2.7 C 5.3 g/m*3 2.7 C 3.2 km/h
900 07-01-2015 17:45:00 2.7 C 5.3 g/m*3 0.4 C 8.1 km/h
Sensor: Nr:Datum:Temp:Abs-Feuchte:Windchill:Wind:
Aussen-T/F 901 07-01-2015 17:50:00 2.8 C 5.34 g/m*3 0.52 C 8.1 km/h
902 07-01-2015 17:55:00 2.8 C 5.34 g/m*3 1.05 C 6.4 km/h
903 07-01-2015 18:00:00 2.8 C 5.28 g/m*3 2.8 C 4.8 km/h
904 07-01-2015 18:05:00 2.8 C 5.28 g/m*3 0.1 C 9.7 km/h
905 07-01-2015 18:10:00 2.8 C 5.28 g/m*3 1.05 C 6.4 km/h
906 07-01-2015 18:15:00 2.8 C 5.28 g/m*3 2.8 C 3.2 km/h
907 07-01-2015 18:20:00 2.8 C 5.28 g/m*3 2.8 C 1.6 km/h
908 07-01-2015 18:25:00 2.8 C 5.28 g/m*3 2.8 C 3.2 km/h
909 07-01-2015 18:30:00 2.8 C 5.28 g/m*3 2.8 C 4.8 km/h
910 07-01-2015 18:35:00 2.8 C 5.28 g/m*3 2.8 C 3.2 km/h
911 07-01-2015 18:40:00 2.8 C 5.28 g/m*3 2.8 C 3.2 km/h
912 07-01-2015 18:45:00 2.8 C 5.34 g/m*3 2.8 C 0 km/h
913 07-01-2015 18:50:00 2.7 C 5.3 g/m*3 2.7 C 0 km/h
914 07-01-2015 18:55:00 2.7 C 5.3 g/m*3 2.7 C 1.6 km/h
915 07-01-2015 19:00:00 2.7 C 5.3 g/m*3 2.7 C 1.6 km/h
916 07-01-2015 19:05:00 2.7 C 5.3 g/m*3 2.7 C 0 km/h
917 07-01-2015 19:10:00 2.7 C 5.36 g/m*3 2.7 C 1.6 km/h
918 07-01-2015 19:15:00 2.6 C 5.32 g/m*3 2.6 C 0 km/h
919 07-01-2015 19:20:00 2.6 C 5.32 g/m*3 2.6 C 0 km/h
920 07-01-2015 19:25:00 2.6 C 5.32 g/m*3 2.6 C 1.6 km/h
921 07-01-2015 19:30:00 2.6 C 5.32 g/m*3 2.6 C 1.6 km/h
922 07-01-2015 19:35:00 2.5 C 5.35 g/m*3 2.5 C 1.6 km/h
923 07-01-2015 19:40:00 2.5 C 5.35 g/m*3 2.5 C 0 km/h
924 07-01-2015 19:45:00 2.5 C 5.35 g/m*3 2.5 C 0 km/h
925 07-01-2015 19:50:00 2.4 C 5.31 g/m*3 2.4 C 0 km/h
Sensor: Nr:Datum:Temp:Abs-Feuchte:Windchill:Wind:
Aussen-T/F 926 07-01-2015 19:55:00 2.4 C 5.31 g/m*3 2.4 C 3.2 km/h
927 07-01-2015 20:00:00 2.5 C 5.35 g/m*3 2.5 C 0 km/h
928 07-01-2015 20:05:00 2.5 C 5.35 g/m*3 2.5 C 0 km/h
929 07-01-2015 20:10:00 2.6 C 5.38 g/m*3 2.6 C 0 km/h
930 07-01-2015 20:15:00 2.6 C 5.38 g/m*3 2.6 C 0 km/h
931 07-01-2015 20:20:00 2.6 C 5.38 g/m*3 2.6 C 0 km/h
932 07-01-2015 20:25:00 2.6 C 5.38 g/m*3 2.6 C 0 km/h
933 07-01-2015 20:30:00 2.6 C 5.38 g/m*3 2.6 C 1.6 km/h
934 07-01-2015 20:35:00 2.6 C 5.32 g/m*3 2.6 C 4.8 km/h
935 07-01-2015 20:40:00 2.6 C 5.32 g/m*3 0.29 C 8.1 km/h
936 07-01-2015 20:45:00 2.7 C 5.36 g/m*3 0.94 C 6.4 km/h
937 07-01-2015 20:50:00 2.7 C 5.36 g/m*3 0.94 C 6.4 km/h
938 07-01-2015 20:55:00 2.7 C 5.36 g/m*3 2.7 C 3.2 km/h
939 07-01-2015 21:00:00 2.7 C 5.36 g/m*3 2.7 C 1.6 km/h
940 07-01-2015 21:05:00 2.7 C 5.36 g/m*3 2.7 C 1.6 km/h
941 07-01-2015 21:10:00 2.7 C 5.36 g/m*3 2.7 C 3.2 km/h
942 07-01-2015 21:15:00 2.6 C 5.32 g/m*3 2.6 C 3.2 km/h
943 07-01-2015 21:20:00 2.6 C 5.32 g/m*3 2.6 C 3.2 km/h
944 07-01-2015 21:25:00 2.6 C 5.27 g/m*3 2.6 C 3.2 km/h
945 07-01-2015 21:30:00 2.6 C 5.32 g/m*3 2.6 C 0 km/h
946 07-01-2015 21:35:00 2.6 C 5.32 g/m*3 2.6 C 1.6 km/h
947 07-01-2015 21:40:00 2.6 C 5.32 g/m*3 2.6 C 1.6 km/h
948 07-01-2015 21:45:00 2.5 C 5.29 g/m*3 2.5 C 0 km/h
949 07-01-2015 21:50:00 2.4 C 5.25 g/m*3 2.4 C 0 km/h
950 07-01-2015 21:55:00 2.4 C 5.31 g/m*3 2.4 C 0 km/h
Sensor: Nr:Datum:Temp:Abs-Feuchte:Windchill:Wind:
Aussen-T/F 951 07-01-2015 22:00:00 2.4 C 5.31 g/m*3 2.4 C 0 km/h
952 07-01-2015 22:05:00 2.4 C 5.31 g/m*3 2.4 C 0 km/h
953 07-01-2015 22:10:00 2.4 C 5.31 g/m*3 2.4 C 0 km/h
954 07-01-2015 22:15:00 2.4 C 5.31 g/m*3 2.4 C 0 km/h
955 07-01-2015 22:20:00 2.4 C 5.31 g/m*3 2.4 C 1.6 km/h
956 07-01-2015 22:25:00 2.4 C 5.25 g/m*3 2.4 C 1.6 km/h
957 07-01-2015 22:30:00 2.4 C 5.25 g/m*3 0.59 C 6.4 km/h
958 07-01-2015 22:35:00 2.4 C 5.2 g/m*3 2.4 C 3.2 km/h
959 07-01-2015 22:40:00 2.6 C 5.21 g/m*3 2.6 C 4.8 km/h
960 07-01-2015 22:45:00 2.6 C 5.15 g/m*3 2.6 C 3.2 km/h
961 07-01-2015 22:50:00 2.6 C 5.15 g/m*3 2.6 C 3.2 km/h
962 07-01-2015 22:55:00 2.7 C 5.19 g/m*3 2.7 C 1.6 km/h
963 07-01-2015 23:00:00 2.7 C 5.19 g/m*3 0.4 C 8.1 km/h
964 07-01-2015 23:05:00 2.7 C 5.13 g/m*3 0.94 C 6.4 km/h
965 07-01-2015 23:10:00 2.8 C 5.16 g/m*3 2.8 C 3.2 km/h
966 07-01-2015 23:15:00 2.8 C 5.16 g/m*3 2.8 C 0 km/h
967 07-01-2015 23:20:00 2.8 C 5.16 g/m*3 0.52 C 8.1 km/h
968 07-01-2015 23:25:00 2.8 C 5.16 g/m*3 2.8 C 3.2 km/h
969 07-01-2015 23:30:00 2.8 C 5.16 g/m*3 2.8 C 0 km/h
970 07-01-2015 23:35:00 2.8 C 5.16 g/m*3 2.8 C 3.2 km/h
971 07-01-2015 23:40:00 2.9 C 5.2 g/m*3 2.9 C 3.2 km/h
972 07-01-2015 23:45:00 2.9 C 5.2 g/m*3 2.9 C 0 km/h
973 07-01-2015 23:50:00 2.9 C 5.26 g/m*3 2.9 C 0 km/h
974 07-01-2015 23:55:00 2.8 C 5.22 g/m*3 2.8 C 0 km/h
975 08-01-2015 00:00:00 2.8 C 5.28 g/m*3 2.8 C 0 km/h
Sensor: Nr:Datum:Temp:Abs-Feuchte:Windchill:Wind:
Aussen-T/F 976 08-01-2015 00:05:00 2.7 C 5.3 g/m*3 2.7 C 3.2 km/h
977 08-01-2015 00:10:00 2.6 C 5.27 g/m*3 2.6 C 0 km/h
978 08-01-2015 00:15:00 2.6 C 5.32 g/m*3 2.6 C 0 km/h
979 08-01-2015 00:20:00 2.6 C 5.32 g/m*3 2.6 C 0 km/h
980 08-01-2015 00:25:00 2.6 C 5.32 g/m*3 2.6 C 1.6 km/h
981 08-01-2015 00:30:00 2.6 C 5.32 g/m*3 2.6 C 1.6 km/h
982 08-01-2015 00:35:00 2.6 C 5.32 g/m*3 2.6 C 0 km/h
983 08-01-2015 00:40:00 2.6 C 5.38 g/m*3 2.6 C 1.6 km/h
984 08-01-2015 00:45:00 2.6 C 5.38 g/m*3 2.6 C 1.6 km/h
985 08-01-2015 00:50:00 2.6 C 5.38 g/m*3 2.6 C 0 km/h
986 08-01-2015 00:55:00 2.6 C 5.38 g/m*3 2.6 C 1.6 km/h
987 08-01-2015 01:00:00 2.6 C 5.38 g/m*3 2.6 C 0 km/h
988 08-01-2015 01:05:00 2.6 C 5.38 g/m*3 2.6 C 0 km/h
989 08-01-2015 01:10:00 2.6 C 5.44 g/m*3 2.6 C 0 km/h
990 08-01-2015 01:15:00 2.6 C 5.44 g/m*3 2.6 C 0 km/h
991 08-01-2015 01:20:00 2.6 C 5.44 g/m*3 2.6 C 0 km/h
992 08-01-2015 01:25:00 2.6 C 5.44 g/m*3 2.6 C 0 km/h
993 08-01-2015 01:30:00 2.6 C 5.44 g/m*3 2.6 C 1.6 km/h
994 08-01-2015 01:35:00 2.6 C 5.44 g/m*3 2.6 C 0 km/h
995 08-01-2015 01:40:00 2.6 C 5.44 g/m*3 2.6 C 0 km/h
996 08-01-2015 01:45:00 2.7 C 5.48 g/m*3 2.7 C 0 km/h
997 08-01-2015 01:50:00 2.7 C 5.48 g/m*3 2.7 C 0 km/h
998 08-01-2015 01:55:00 2.7 C 5.48 g/m*3 2.7 C 0 km/h
999 08-01-2015 02:00:00 2.6 C 5.44 g/m*3 2.6 C 0 km/h
1000 08-01-2015 02:05:00 2.7 C 5.48 g/m*3 2.7 C 0 km/h
Sensor: Nr:Datum:Temp:Abs-Feuchte:Windchill:Wind:
Aussen-T/F 1001 08-01-2015 02:10:00 2.7 C 5.48 g/m*3 2.7 C 0 km/h
1002 08-01-2015 02:15:00 2.7 C 5.48 g/m*3 2.7 C 0 km/h
1003 08-01-2015 02:20:00 2.7 C 5.48 g/m*3 2.7 C 0 km/h
1004 08-01-2015 02:25:00 2.7 C 5.48 g/m*3 2.7 C 0 km/h
1005 08-01-2015 02:30:00 2.7 C 5.48 g/m*3 2.7 C 0 km/h
1006 08-01-2015 02:35:00 2.8 C 5.51 g/m*3 2.8 C 0 km/h
1007 08-01-2015 02:40:00 2.8 C 5.51 g/m*3 2.8 C 1.6 km/h
1008 08-01-2015 02:45:00 2.9 C 5.55 g/m*3 2.9 C 0 km/h
1009 08-01-2015 02:50:00 2.9 C 5.55 g/m*3 2.9 C 0 km/h
1010 08-01-2015 02:55:00 3.2 C 5.66 g/m*3 1.51 C 6.4 km/h
1011 08-01-2015 03:00:00 3.4 C 5.74 g/m*3 0.82 C 9.7 km/h
1012 08-01-2015 03:05:00 3.8 C 5.9 g/m*3 0.35 C 14.5 km/h
1013 08-01-2015 03:10:00 4 C 5.98 g/m*3 2.44 C 6.4 km/h
1014 08-01-2015 03:15:00 4.2 C 5.99 g/m*3 1.43 C 11.3 km/h
1015 08-01-2015 03:20:00 4.2 C 5.93 g/m*3 2.17 C 8.1 km/h
1016 08-01-2015 03:25:00 4.3 C 5.97 g/m*3 1.24 C 12.9 km/h
1017 08-01-2015 03:30:00 4.4 C 6.01 g/m*3 2.01 C 9.7 km/h
1018 08-01-2015 03:35:00 4.5 C 6.05 g/m*3 1.48 C 12.9 km/h
1019 08-01-2015 03:40:00 4.6 C 6.02 g/m*3 3.13 C 6.4 km/h
1020 08-01-2015 03:45:00 4.7 C 6.06 g/m*3 2.37 C 9.7 km/h
1021 08-01-2015 03:50:00 4.7 C 6.06 g/m*3 4.7 C 4.8 km/h
1022 08-01-2015 03:55:00 4.6 C 6.02 g/m*3 3.13 C 6.4 km/h
1023 08-01-2015 04:00:00 4.6 C 6.09 g/m*3 4.6 C 4.8 km/h
1024 08-01-2015 04:05:00 4.5 C 6.05 g/m*3 4.5 C 4.8 km/h
1025 08-01-2015 04:10:00 4.4 C 6.07 g/m*3 4.4 C 4.8 km/h
Sensor: Nr:Datum:Temp:Abs-Feuchte:Windchill:Wind:
Aussen-T/F 1026 08-01-2015 04:15:00 4.4 C 6.14 g/m*3 4.4 C 4.8 km/h
1027 08-01-2015 04:20:00 4.5 C 6.18 g/m*3 4.5 C 4.8 km/h
1028 08-01-2015 04:25:00 4.5 C 6.18 g/m*3 4.5 C 0 km/h
1029 08-01-2015 04:30:00 4.4 C 6.14 g/m*3 4.4 C 4.8 km/h
1030 08-01-2015 04:35:00 4.3 C 6.16 g/m*3 4.3 C 0 km/h
1031 08-01-2015 04:40:00 4.2 C 6.12 g/m*3 4.2 C 4.8 km/h
1032 08-01-2015 04:45:00 4.2 C 6.12 g/m*3 4.2 C 3.2 km/h
1033 08-01-2015 04:50:00 4.2 C 6.19 g/m*3 4.2 C 3.2 km/h
1034 08-01-2015 04:55:00 4.2 C 6.19 g/m*3 4.2 C 3.2 km/h
1035 08-01-2015 05:00:00 4.2 C 6.19 g/m*3 4.2 C 1.6 km/h
1036 08-01-2015 05:05:00 4.3 C 6.23 g/m*3 4.3 C 1.6 km/h
1037 08-01-2015 05:10:00 4.3 C 6.23 g/m*3 4.3 C 0 km/h
1038 08-01-2015 05:15:00 4.2 C 6.19 g/m*3 4.2 C 0 km/h
1039 08-01-2015 05:20:00 4.2 C 6.19 g/m*3 4.2 C 1.6 km/h
1040 08-01-2015 05:25:00 4.3 C 6.23 g/m*3 4.3 C 3.2 km/h
1041 08-01-2015 05:30:00 4.3 C 6.23 g/m*3 4.3 C 1.6 km/h
1042 08-01-2015 05:35:00 4.3 C 6.23 g/m*3 4.3 C 1.6 km/h
1043 08-01-2015 05:40:00 4.3 C 6.29 g/m*3 4.3 C 3.2 km/h
1044 08-01-2015 05:45:00 4.3 C 6.23 g/m*3 4.3 C 4.8 km/h
1045 08-01-2015 05:50:00 4.3 C 6.23 g/m*3 4.3 C 1.6 km/h
1046 08-01-2015 05:55:00 4.3 C 6.23 g/m*3 4.3 C 0 km/h
1047 08-01-2015 06:00:00 4.3 C 6.23 g/m*3 4.3 C 3.2 km/h
1048 08-01-2015 06:05:00 4.3 C 6.29 g/m*3 4.3 C 1.6 km/h
1049 08-01-2015 06:10:00 4.3 C 6.29 g/m*3 4.3 C 0 km/h
1050 08-01-2015 06:15:00 4.2 C 6.25 g/m*3 4.2 C 1.6 km/h
Sensor: Nr:Datum:Temp:Abs-Feuchte:Windchill:Wind:
Aussen-T/F 1051 08-01-2015 06:20:00 4.3 C 6.29 g/m*3 4.3 C 1.6 km/h
1052 08-01-2015 06:25:00 4.3 C 6.29 g/m*3 4.3 C 0 km/h
1053 08-01-2015 06:30:00 4.3 C 6.29 g/m*3 4.3 C 3.2 km/h
1054 08-01-2015 06:35:00 4.3 C 6.29 g/m*3 4.3 C 1.6 km/h
1055 08-01-2015 06:40:00 4.2 C 6.25 g/m*3 4.2 C 1.6 km/h
1056 08-01-2015 06:45:00 4.3 C 6.29 g/m*3 4.3 C 0 km/h
1057 08-01-2015 06:50:00 4.3 C 6.29 g/m*3 4.3 C 0 km/h
1058 08-01-2015 06:55:00 4.3 C 6.29 g/m*3 4.3 C 0 km/h
1059 08-01-2015 07:00:00 4.3 C 6.29 g/m*3 4.3 C 1.6 km/h
1060 08-01-2015 07:05:00 4.4 C 6.33 g/m*3 4.4 C 1.6 km/h
1061 08-01-2015 07:10:00 4.4 C 6.33 g/m*3 4.4 C 4.8 km/h
1062 08-01-2015 07:15:00 4.5 C 6.38 g/m*3 4.5 C 3.2 km/h
1063 08-01-2015 07:20:00 4.7 C 6.53 g/m*3 2.03 C 11.3 km/h
1064 08-01-2015 07:25:00 4.9 C 6.62 g/m*3 2.99 C 8.1 km/h
1065 08-01-2015 07:30:00 5.1 C 6.7 g/m*3 5.1 C 3.2 km/h
1066 08-01-2015 07:35:00 5.2 C 6.68 g/m*3 3.34 C 8.1 km/h
1067 08-01-2015 07:40:00 5.3 C 6.72 g/m*3 2.46 C 12.9 km/h
1068 08-01-2015 07:45:00 5.4 C 6.77 g/m*3 2.08 C 16.1 km/h
1069 08-01-2015 07:50:00 5.6 C 6.86 g/m*3 2.33 C 16.1 km/h
1070 08-01-2015 07:55:00 5.6 C 6.79 g/m*3 2.11 C 17.7 km/h
1071 08-01-2015 08:00:00 5.7 C 6.83 g/m*3 3.93 C 8.1 km/h
1072 08-01-2015 08:05:00 5.6 C 6.79 g/m*3 5.6 C 4.8 km/h
1073 08-01-2015 08:10:00 5.6 C 6.79 g/m*3 3.81 C 8.1 km/h
1074 08-01-2015 08:15:00 5.7 C 6.83 g/m*3 3.56 C 9.7 km/h
1075 08-01-2015 08:20:00 5.7 C 6.83 g/m*3 3.93 C 8.1 km/h
Sensor: Nr:Datum:Temp:Abs-Feuchte:Windchill:Wind:
Aussen-T/F 1076 08-01-2015 08:25:00 5.7 C 6.83 g/m*3 4.4 C 6.4 km/h
1077 08-01-2015 08:30:00 5.7 C 6.83 g/m*3 5.7 C 4.8 km/h
1078 08-01-2015 08:35:00 5.6 C 6.79 g/m*3 5.6 C 1.6 km/h
1079 08-01-2015 08:40:00 5.6 C 6.79 g/m*3 5.6 C 1.6 km/h
1080 08-01-2015 08:45:00 5.6 C 6.79 g/m*3 5.6 C 0 km/h
1081 08-01-2015 08:50:00 5.6 C 6.79 g/m*3 5.6 C 4.8 km/h
1082 08-01-2015 08:55:00 5.5 C 6.74 g/m*3 5.5 C 3.2 km/h
1083 08-01-2015 09:00:00 5.4 C 6.77 g/m*3 5.4 C 3.2 km/h
1084 08-01-2015 09:05:00 5.4 C 6.77 g/m*3 5.4 C 3.2 km/h
1085 08-01-2015 09:10:00 5.5 C 6.81 g/m*3 5.5 C 0 km/h
1086 08-01-2015 09:15:00 5.5 C 6.81 g/m*3 5.5 C 1.6 km/h
1087 08-01-2015 09:20:00 5.5 C 6.81 g/m*3 5.5 C 0 km/h
1088 08-01-2015 09:25:00 5.5 C 6.81 g/m*3 5.5 C 0 km/h
1089 08-01-2015 09:30:00 5.6 C 6.86 g/m*3 5.6 C 0 km/h
1090 08-01-2015 09:35:00 5.6 C 6.86 g/m*3 5.6 C 3.2 km/h
1091 08-01-2015 09:40:00 5.6 C 6.86 g/m*3 5.6 C 1.6 km/h
1092 08-01-2015 09:45:00 5.7 C 6.97 g/m*3 5.7 C 1.6 km/h
1093 08-01-2015 09:50:00 5.8 C 7.02 g/m*3 5.8 C 3.2 km/h
1094 08-01-2015 09:55:00 5.9 C 7.07 g/m*3 5.9 C 1.6 km/h
1095 08-01-2015 10:00:00 6 C 7.11 g/m*3 6 C 3.2 km/h
1096 08-01-2015 10:05:00 6.1 C 7.16 g/m*3 6.1 C 3.2 km/h
1097 08-01-2015 10:10:00 6.1 C 7.16 g/m*3 6.1 C 4.8 km/h
1098 08-01-2015 10:15:00 6.2 C 7.21 g/m*3 6.2 C 1.6 km/h
1099 08-01-2015 10:20:00 6.3 C 7.25 g/m*3 6.3 C 0 km/h
1100 08-01-2015 10:25:00 6.4 C 7.3 g/m*3 6.4 C 3.2 km/h
Sensor: Nr:Datum:Temp:Abs-Feuchte:Windchill:Wind:
Aussen-T/F 1101 08-01-2015 10:30:00 6.4 C 7.3 g/m*3 6.4 C 0 km/h
1102 08-01-2015 10:35:00 6.6 C 7.4 g/m*3 6.6 C 4.8 km/h
1103 08-01-2015 10:40:00 6.7 C 7.45 g/m*3 5.56 C 6.4 km/h
1104 08-01-2015 10:45:00 6.8 C 7.5 g/m*3 6.8 C 1.6 km/h
1105 08-01-2015 10:50:00 6.8 C 7.42 g/m*3 5.67 C 6.4 km/h
1106 08-01-2015 10:55:00 6.9 C 7.47 g/m*3 4.68 C 11.3 km/h
1107 08-01-2015 11:00:00 7.1 C 7.57 g/m*3 7.1 C 3.2 km/h
1108 08-01-2015 11:05:00 7.1 C 7.57 g/m*3 7.1 C 4.8 km/h
1109 08-01-2015 11:10:00 7.2 C 7.61 g/m*3 7.2 C 4.8 km/h
1110 08-01-2015 11:15:00 7.2 C 7.61 g/m*3 7.2 C 4.8 km/h
1111 08-01-2015 11:20:00 7.3 C 7.58 g/m*3 5.47 C 9.7 km/h
1112 08-01-2015 11:25:00 7.4 C 7.63 g/m*3 5.93 C 8.1 km/h
1113 08-01-2015 11:30:00 7.6 C 7.65 g/m*3 5.82 C 9.7 km/h
1114 08-01-2015 11:35:00 7.7 C 7.7 g/m*3 6.28 C 8.1 km/h
1115 08-01-2015 11:40:00 7.7 C 7.7 g/m*3 6.71 C 6.4 km/h
1116 08-01-2015 11:45:00 7.8 C 7.75 g/m*3 6.06 C 9.7 km/h
1117 08-01-2015 11:50:00 7.9 C 7.8 g/m*3 6.18 C 9.7 km/h
1118 08-01-2015 11:55:00 8 C 7.85 g/m*3 6.3 C 9.7 km/h
1119 08-01-2015 12:00:00 8.1 C 7.82 g/m*3 8.1 C 3.2 km/h
1120 08-01-2015 12:05:00 8.1 C 7.82 g/m*3 8.1 C 3.2 km/h
1121 08-01-2015 12:10:00 8.1 C 7.82 g/m*3 6.75 C 8.1 km/h
1122 08-01-2015 12:15:00 8.1 C 7.82 g/m*3 6.75 C 8.1 km/h
1123 08-01-2015 12:20:00 8.2 C 7.87 g/m*3 6.87 C 8.1 km/h
1124 08-01-2015 12:25:00 8.2 C 7.87 g/m*3 6.87 C 8.1 km/h
1125 08-01-2015 12:30:00 8.3 C 7.92 g/m*3 7.41 C 6.4 km/h
Sensor: Nr:Datum:Temp:Abs-Feuchte:Windchill:Wind:
Aussen-T/F 1126 08-01-2015 12:35:00 8.4 C 7.89 g/m*3 6.49 C 11.3 km/h
1127 08-01-2015 12:40:00 8.6 C 7.99 g/m*3 6.48 C 12.9 km/h
1128 08-01-2015 12:45:00 8.7 C 7.96 g/m*3 7.46 C 8.1 km/h
1129 08-01-2015 12:50:00 8.8 C 8.01 g/m*3 7.58 C 8.1 km/h
1130 08-01-2015 12:55:00 8.9 C 8.06 g/m*3 6.85 C 12.9 km/h
1131 08-01-2015 13:00:00 8.9 C 8.06 g/m*3 6.42 C 16.1 km/h
1132 08-01-2015 13:05:00 8.9 C 8.06 g/m*3 6.42 C 16.1 km/h
1133 08-01-2015 13:10:00 8.9 C 8.06 g/m*3 6.23 C 17.7 km/h
1134 08-01-2015 13:15:00 8.9 C 8.06 g/m*3 5.6 C 24.1 km/h
1135 08-01-2015 13:20:00 9 C 8.11 g/m*3 5.6 C 25.7 km/h
1136 08-01-2015 13:25:00 9 C 8.11 g/m*3 5.73 C 24.1 km/h
1137 08-01-2015 13:30:00 9.1 C 8.16 g/m*3 6.15 C 20.9 km/h
1138 08-01-2015 13:35:00 9.1 C 8.16 g/m*3 5.73 C 25.7 km/h
1139 08-01-2015 13:40:00 9.2 C 8.13 g/m*3 6.13 C 22.5 km/h
1140 08-01-2015 13:45:00 9.2 C 8.13 g/m*3 5.86 C 25.7 km/h
1141 08-01-2015 13:50:00 9.3 C 8.18 g/m*3 6.12 C 24.1 km/h
1142 08-01-2015 13:55:00 9.3 C 8.18 g/m*3 5.98 C 25.7 km/h
1143 08-01-2015 14:00:00 9.2 C 8.22 g/m*3 7.21 C 12.9 km/h
1144 08-01-2015 14:05:00 9.2 C 8.22 g/m*3 6.61 C 17.7 km/h
1145 08-01-2015 14:10:00 9.2 C 8.13 g/m*3 5.86 C 25.7 km/h
1146 08-01-2015 14:15:00 9.3 C 8.18 g/m*3 6.73 C 17.7 km/h
1147 08-01-2015 14:20:00 9.3 C 8.18 g/m*3 6.92 C 16.1 km/h
1148 08-01-2015 14:25:00 9.4 C 8.23 g/m*3 7.04 C 16.1 km/h
1149 08-01-2015 14:30:00 9.4 C 8.23 g/m*3 6.11 C 25.7 km/h
1150 08-01-2015 14:35:00 9.5 C 8.28 g/m*3 6.82 C 19.3 km/h
Sensor: Nr:Datum:Temp:Abs-Feuchte:Windchill:Wind:
Aussen-T/F 1151 08-01-2015 14:40:00 9.6 C 8.34 g/m*3 6.94 C 19.3 km/h
1152 08-01-2015 14:45:00 9.6 C 8.24 g/m*3 6.79 C 20.9 km/h
1153 08-01-2015 14:50:00 9.6 C 8.24 g/m*3 7.48 C 14.5 km/h
1154 08-01-2015 14:55:00 9.7 C 8.3 g/m*3 7.23 C 17.7 km/h
1155 08-01-2015 15:00:00 9.7 C 8.3 g/m*3 7.41 C 16.1 km/h
1156 08-01-2015 15:05:00 9.8 C 8.35 g/m*3 7.19 C 19.3 km/h
1157 08-01-2015 15:10:00 9.8 C 8.35 g/m*3 7.36 C 17.7 km/h
1158 08-01-2015 15:15:00 9.7 C 8.39 g/m*3 9.02 C 6.4 km/h
1159 08-01-2015 15:20:00 9.6 C 8.34 g/m*3 7.7 C 12.9 km/h
1160 08-01-2015 15:25:00 9.5 C 8.37 g/m*3 8.4 C 8.1 km/h
1161 08-01-2015 15:30:00 9.5 C 8.37 g/m*3 8.09 C 9.7 km/h
1162 08-01-2015 15:35:00 9.6 C 8.34 g/m*3 7.29 C 16.1 km/h
1163 08-01-2015 15:40:00 9.7 C 8.39 g/m*3 8.33 C 9.7 km/h
1164 08-01-2015 15:45:00 9.7 C 8.39 g/m*3 6.5 C 25.7 km/h
1165 08-01-2015 15:50:00 9.8 C 8.35 g/m*3 6.89 C 22.5 km/h
1166 08-01-2015 15:55:00 9.8 C 8.35 g/m*3 7.54 C 16.1 km/h
1167 08-01-2015 16:00:00 9.8 C 8.35 g/m*3 7.73 C 14.5 km/h
1168 08-01-2015 16:05:00 9.8 C 8.26 g/m*3 6.17 C 32.2 km/h
1169 08-01-2015 16:10:00 9.9 C 8.31 g/m*3 7.02 C 22.5 km/h
1170 08-01-2015 16:15:00 9.9 C 8.31 g/m*3 7.66 C 16.1 km/h
1171 08-01-2015 16:20:00 9.9 C 8.31 g/m*3 7.48 C 17.7 km/h
1172 08-01-2015 16:25:00 9.8 C 8.26 g/m*3 7.73 C 14.5 km/h
1173 08-01-2015 16:30:00 9.8 C 8.35 g/m*3 6.27 C 30.6 km/h
1174 08-01-2015 16:35:00 9.8 C 8.35 g/m*3 6.89 C 22.5 km/h
1175 08-01-2015 16:40:00 9.7 C 8.3 g/m*3 7.23 C 17.7 km/h
Sensor: Nr:Datum:Temp:Abs-Feuchte:Windchill:Wind:
Aussen-T/F 1176 08-01-2015 16:45:00 9.7 C 8.3 g/m*3 7.41 C 16.1 km/h
1177 08-01-2015 16:50:00 9.7 C 8.3 g/m*3 8.06 C 11.3 km/h
1178 08-01-2015 16:55:00 9.6 C 8.34 g/m*3 7.7 C 12.9 km/h
1179 08-01-2015 17:00:00 9.6 C 8.34 g/m*3 7.48 C 14.5 km/h
1180 08-01-2015 17:05:00 9.6 C 8.34 g/m*3 6.94 C 19.3 km/h
1181 08-01-2015 17:10:00 9.6 C 8.34 g/m*3 7.94 C 11.3 km/h
1182 08-01-2015 17:15:00 9.6 C 8.34 g/m*3 7.11 C 17.7 km/h
1183 08-01-2015 17:20:00 9.6 C 8.34 g/m*3 6.79 C 20.9 km/h
1184 08-01-2015 17:25:00 9.7 C 8.39 g/m*3 7.41 C 16.1 km/h
1185 08-01-2015 17:30:00 9.7 C 8.39 g/m*3 7.41 C 16.1 km/h
1186 08-01-2015 17:35:00 9.7 C 8.39 g/m*3 7.23 C 17.7 km/h
1187 08-01-2015 17:40:00 9.7 C 8.39 g/m*3 7.61 C 14.5 km/h
1188 08-01-2015 17:45:00 9.7 C 8.39 g/m*3 7.41 C 16.1 km/h
1189 08-01-2015 17:50:00 9.7 C 8.39 g/m*3 7.23 C 17.7 km/h
1190 08-01-2015 17:55:00 9.7 C 8.39 g/m*3 7.82 C 12.9 km/h
1191 08-01-2015 18:00:00 9.8 C 8.44 g/m*3 7.04 C 20.9 km/h
1192 08-01-2015 18:05:00 9.8 C 8.44 g/m*3 7.36 C 17.7 km/h
1193 08-01-2015 18:10:00 9.8 C 8.44 g/m*3 6.89 C 22.5 km/h
1194 08-01-2015 18:15:00 9.8 C 8.44 g/m*3 7.36 C 17.7 km/h
1195 08-01-2015 18:20:00 9.8 C 8.44 g/m*3 7.04 C 20.9 km/h
1196 08-01-2015 18:25:00 9.8 C 8.44 g/m*3 7.19 C 19.3 km/h
1197 08-01-2015 18:30:00 9.8 C 8.44 g/m*3 6.63 C 25.7 km/h
1198 08-01-2015 18:35:00 9.8 C 8.44 g/m*3 6.76 C 24.1 km/h
1199 08-01-2015 18:40:00 9.8 C 8.44 g/m*3 7.19 C 19.3 km/h
1200 08-01-2015 18:45:00 9.7 C 8.48 g/m*3 7.82 C 12.9 km/h
Sensor: Nr:Datum:Temp:Abs-Feuchte:Windchill:Wind:
Aussen-T/F 1201 08-01-2015 18:50:00 9.7 C 8.48 g/m*3 7.07 C 19.3 km/h
1202 08-01-2015 18:55:00 9.7 C 8.48 g/m*3 7.07 C 19.3 km/h
1203 08-01-2015 19:00:00 9.6 C 8.43 g/m*3 7.29 C 16.1 km/h
1204 08-01-2015 19:05:00 9.6 C 8.43 g/m*3 5.61 C 37 km/h
1205 08-01-2015 19:10:00 9.6 C 8.34 g/m*3 6.5 C 24.1 km/h
1206 08-01-2015 19:15:00 9.5 C 8.01 g/m*3 6.37 C 24.1 km/h
1207 08-01-2015 19:20:00 9.3 C 7.73 g/m*3 6.92 C 16.1 km/h
1208 08-01-2015 19:25:00 9.1 C 7.54 g/m*3 6.67 C 16.1 km/h
1209 08-01-2015 19:30:00 8.9 C 7.36 g/m*3 5.47 C 25.7 km/h
1210 08-01-2015 19:35:00 8.9 C 7.45 g/m*3 6.85 C 12.9 km/h
1211 08-01-2015 19:40:00 8.8 C 7.31 g/m*3 5.48 C 24.1 km/h
1212 08-01-2015 19:45:00 8.7 C 7.26 g/m*3 4.62 C 33.8 km/h
1213 08-01-2015 19:50:00 8.5 C 7.26 g/m*3 4.46 C 32.2 km/h
1214 08-01-2015 19:55:00 8.3 C 7.16 g/m*3 4.84 C 24.1 km/h
1215 08-01-2015 20:00:00 8.1 C 7.07 g/m*3 4.58 C 24.1 km/h
1216 08-01-2015 20:05:00 8 C 7.11 g/m*3 6.3 C 9.7 km/h
1217 08-01-2015 20:10:00 7.9 C 7.15 g/m*3 5.39 C 14.5 km/h
1218 08-01-2015 20:15:00 7.8 C 7.1 g/m*3 4.86 C 17.7 km/h
1219 08-01-2015 20:20:00 7.8 C 7.1 g/m*3 5.27 C 14.5 km/h
1220 08-01-2015 20:25:00 7.7 C 7.14 g/m*3 5.38 C 12.9 km/h
1221 08-01-2015 20:30:00 7.7 C 7.14 g/m*3 5.65 C 11.3 km/h
1222 08-01-2015 20:35:00 7.6 C 7.09 g/m*3 4.81 C 16.1 km/h
1223 08-01-2015 20:40:00 7.6 C 7.17 g/m*3 4.61 C 17.7 km/h
1224 08-01-2015 20:45:00 7.5 C 7.12 g/m*3 5.7 C 9.7 km/h
1225 08-01-2015 20:50:00 7.4 C 7.08 g/m*3 5.58 C 9.7 km/h
Sensor: Nr:Datum:Temp:Abs-Feuchte:Windchill:Wind:
Aussen-T/F 1226 08-01-2015 20:55:00 7.4 C 7.16 g/m*3 5.02 C 12.9 km/h
1227 08-01-2015 21:00:00 7.4 C 7.16 g/m*3 5.93 C 8.1 km/h
1228 08-01-2015 21:05:00 7.3 C 7.11 g/m*3 4.9 C 12.9 km/h
1229 08-01-2015 21:10:00 7.3 C 7.03 g/m*3 4.9 C 12.9 km/h
1230 08-01-2015 21:15:00 7.3 C 7.03 g/m*3 5.16 C 11.3 km/h
1231 08-01-2015 21:20:00 7.4 C 7.08 g/m*3 5.28 C 11.3 km/h
1232 08-01-2015 21:25:00 7.3 C 7.03 g/m*3 5.47 C 9.7 km/h
1233 08-01-2015 21:30:00 7.3 C 7.03 g/m*3 5.81 C 8.1 km/h
1234 08-01-2015 21:35:00 7.3 C 7.03 g/m*3 6.25 C 6.4 km/h
1235 08-01-2015 21:40:00 7.3 C 7.03 g/m*3 5.16 C 11.3 km/h
1236 08-01-2015 21:45:00 7.3 C 7.03 g/m*3 5.47 C 9.7 km/h
1237 08-01-2015 21:50:00 7.3 C 7.03 g/m*3 5.16 C 11.3 km/h
1238 08-01-2015 21:55:00 7.3 C 6.95 g/m*3 5.47 C 9.7 km/h
1239 08-01-2015 22:00:00 7.3 C 6.95 g/m*3 4.66 C 14.5 km/h
1240 08-01-2015 22:05:00 7.3 C 6.95 g/m*3 4.9 C 12.9 km/h
1241 08-01-2015 22:10:00 7.2 C 6.99 g/m*3 5.04 C 11.3 km/h
1242 08-01-2015 22:15:00 7.2 C 6.91 g/m*3 4.53 C 14.5 km/h
1243 08-01-2015 22:20:00 7.2 C 6.91 g/m*3 4.53 C 14.5 km/h
1244 08-01-2015 22:25:00 7.2 C 6.91 g/m*3 4.53 C 14.5 km/h
1245 08-01-2015 22:30:00 7.2 C 6.91 g/m*3 5.35 C 9.7 km/h
1246 08-01-2015 22:35:00 7.1 C 6.86 g/m*3 7.1 C 4.8 km/h
1247 08-01-2015 22:40:00 7.1 C 6.86 g/m*3 5.23 C 9.7 km/h
1248 08-01-2015 22:45:00 7.1 C 6.86 g/m*3 4.65 C 12.9 km/h
1249 08-01-2015 22:50:00 7 C 6.82 g/m*3 5.11 C 9.7 km/h
1250 08-01-2015 22:55:00 7 C 6.9 g/m*3 5.46 C 8.1 km/h
Sensor: Nr:Datum:Temp:Abs-Feuchte:Windchill:Wind:
Aussen-T/F 1251 08-01-2015 23:00:00 6.9 C 6.85 g/m*3 5.79 C 6.4 km/h
1252 08-01-2015 23:05:00 6.8 C 6.81 g/m*3 5.67 C 6.4 km/h
1253 08-01-2015 23:10:00 6.7 C 6.84 g/m*3 6.7 C 4.8 km/h
1254 08-01-2015 23:15:00 6.6 C 6.79 g/m*3 4.99 C 8.1 km/h
1255 08-01-2015 23:20:00 6.5 C 6.75 g/m*3 5.33 C 6.4 km/h
1256 08-01-2015 23:25:00 6.4 C 6.78 g/m*3 3.8 C 12.9 km/h
1257 08-01-2015 23:30:00 6.5 C 6.82 g/m*3 4.51 C 9.7 km/h
1258 08-01-2015 23:35:00 6.6 C 6.87 g/m*3 4.32 C 11.3 km/h
1259 08-01-2015 23:40:00 6.5 C 6.75 g/m*3 4.51 C 9.7 km/h
1260 08-01-2015 23:45:00 6.5 C 6.82 g/m*3 5.33 C 6.4 km/h
1261 08-01-2015 23:50:00 6.4 C 6.78 g/m*3 6.4 C 4.8 km/h
1262 08-01-2015 23:55:00 6.5 C 6.75 g/m*3 4.2 C 11.3 km/h
1263 09-01-2015 00:00:00 6.6 C 6.79 g/m*3 4.04 C 12.9 km/h
1264 09-01-2015 00:05:00 6.5 C 6.75 g/m*3 4.87 C 8.1 km/h
1265 09-01-2015 00:10:00 6.6 C 6.79 g/m*3 4.63 C 9.7 km/h
1266 09-01-2015 00:15:00 6.5 C 6.75 g/m*3 5.33 C 6.4 km/h
1267 09-01-2015 00:20:00 6.6 C 6.72 g/m*3 4.63 C 9.7 km/h
1268 09-01-2015 00:25:00 6.5 C 6.67 g/m*3 6.5 C 4.8 km/h
1269 09-01-2015 00:30:00 6.5 C 6.67 g/m*3 5.33 C 6.4 km/h
1270 09-01-2015 00:35:00 6.4 C 6.63 g/m*3 4.39 C 9.7 km/h
1271 09-01-2015 00:40:00 6.5 C 6.67 g/m*3 4.87 C 8.1 km/h
1272 09-01-2015 00:45:00 6.6 C 6.72 g/m*3 4.99 C 8.1 km/h
1273 09-01-2015 00:50:00 6.4 C 6.63 g/m*3 6.4 C 4.8 km/h
1274 09-01-2015 00:55:00 6.3 C 6.66 g/m*3 3.96 C 11.3 km/h
1275 09-01-2015 01:00:00 6.3 C 6.59 g/m*3 5.1 C 6.4 km/h
Sensor: Nr:Datum:Temp:Abs-Feuchte:Windchill:Wind:
Aussen-T/F 1276 09-01-2015 01:05:00 6.3 C 6.59 g/m*3 4.64 C 8.1 km/h
1277 09-01-2015 01:10:00 6.2 C 6.62 g/m*3 4.15 C 9.7 km/h
1278 09-01-2015 01:15:00 6.2 C 6.62 g/m*3 3.84 C 11.3 km/h
1279 09-01-2015 01:20:00 6.2 C 6.62 g/m*3 2.86 C 17.7 km/h
1280 09-01-2015 01:25:00 6.3 C 6.66 g/m*3 3.96 C 11.3 km/h
1281 09-01-2015 01:30:00 6.5 C 6.75 g/m*3 4.51 C 9.7 km/h
1282 09-01-2015 01:35:00 6.6 C 6.72 g/m*3 3.17 C 19.3 km/h
1283 09-01-2015 01:40:00 6.7 C 6.76 g/m*3 3.29 C 19.3 km/h
1284 09-01-2015 01:45:00 6.7 C 6.69 g/m*3 4.44 C 11.3 km/h
1285 09-01-2015 01:50:00 6.7 C 6.69 g/m*3 5.11 C 8.1 km/h
1286 09-01-2015 01:55:00 6.7 C 6.69 g/m*3 3.92 C 14.5 km/h
1287 09-01-2015 02:00:00 6.7 C 6.69 g/m*3 5.11 C 8.1 km/h
1288 09-01-2015 02:05:00 6.7 C 6.69 g/m*3 5.11 C 8.1 km/h
1289 09-01-2015 02:10:00 6.6 C 6.64 g/m*3 5.44 C 6.4 km/h
1290 09-01-2015 02:15:00 6.5 C 6.6 g/m*3 5.33 C 6.4 km/h
1291 09-01-2015 02:20:00 6.3 C 6.59 g/m*3 5.1 C 6.4 km/h
1292 09-01-2015 02:25:00 6.4 C 6.63 g/m*3 5.21 C 6.4 km/h
1293 09-01-2015 02:30:00 6.3 C 6.59 g/m*3 3.43 C 14.5 km/h
1294 09-01-2015 02:35:00 6.3 C 6.59 g/m*3 5.1 C 6.4 km/h
1295 09-01-2015 02:40:00 6.3 C 6.66 g/m*3 5.1 C 6.4 km/h
1296 09-01-2015 02:45:00 6.3 C 6.66 g/m*3 5.1 C 6.4 km/h
1297 09-01-2015 02:50:00 6.3 C 6.66 g/m*3 5.1 C 6.4 km/h
1298 09-01-2015 02:55:00 6.4 C 6.71 g/m*3 5.21 C 6.4 km/h
1299 09-01-2015 03:00:00 6.4 C 6.71 g/m*3 5.21 C 6.4 km/h
1300 09-01-2015 03:05:00 6.7 C 6.76 g/m*3 4.17 C 12.9 km/h
Sensor: Nr:Datum:Temp:Abs-Feuchte:Windchill:Wind:
Aussen-T/F 1301 09-01-2015 03:10:00 7 C 6.9 g/m*3 5.46 C 8.1 km/h
1302 09-01-2015 03:15:00 7.2 C 6.83 g/m*3 3.92 C 19.3 km/h
1303 09-01-2015 03:20:00 7.3 C 6.87 g/m*3 4.66 C 14.5 km/h
1304 09-01-2015 03:25:00 7.4 C 6.84 g/m*3 5.02 C 12.9 km/h
1305 09-01-2015 03:30:00 7.4 C 6.84 g/m*3 4.56 C 16.1 km/h
1306 09-01-2015 03:35:00 7.4 C 6.84 g/m*3 4.78 C 14.5 km/h
1307 09-01-2015 03:40:00 7.5 C 6.88 g/m*3 5.41 C 11.3 km/h
1308 09-01-2015 03:45:00 7.5 C 6.88 g/m*3 4.9 C 14.5 km/h
1309 09-01-2015 03:50:00 7.5 C 6.88 g/m*3 6.48 C 6.4 km/h
1310 09-01-2015 03:55:00 7.5 C 6.88 g/m*3 6.48 C 6.4 km/h
1311 09-01-2015 04:00:00 7.4 C 6.92 g/m*3 7.4 C 4.8 km/h
1312 09-01-2015 04:05:00 7.4 C 6.92 g/m*3 5.93 C 8.1 km/h
1313 09-01-2015 04:10:00 7.4 C 6.92 g/m*3 7.4 C 4.8 km/h
1314 09-01-2015 04:15:00 7.4 C 6.92 g/m*3 6.37 C 6.4 km/h
1315 09-01-2015 04:20:00 7.4 C 6.92 g/m*3 4.36 C 17.7 km/h
1316 09-01-2015 04:25:00 7.5 C 6.96 g/m*3 6.05 C 8.1 km/h
1317 09-01-2015 04:30:00 7.5 C 6.96 g/m*3 6.05 C 8.1 km/h
1318 09-01-2015 04:35:00 7.4 C 6.92 g/m*3 5.93 C 8.1 km/h
1319 09-01-2015 04:40:00 7.4 C 7 g/m*3 7.4 C 4.8 km/h
1320 09-01-2015 04:45:00 7.3 C 7.03 g/m*3 7.3 C 1.6 km/h
1321 09-01-2015 04:50:00 7.2 C 6.99 g/m*3 5.69 C 8.1 km/h
1322 09-01-2015 04:55:00 7.2 C 6.99 g/m*3 7.2 C 1.6 km/h
1323 09-01-2015 05:00:00 7.2 C 6.99 g/m*3 7.2 C 3.2 km/h
1324 09-01-2015 05:05:00 7.2 C 6.99 g/m*3 5.69 C 8.1 km/h
1325 09-01-2015 05:10:00 7.2 C 6.99 g/m*3 5.69 C 8.1 km/h
Sensor: Nr:Datum:Temp:Abs-Feuchte:Windchill:Wind:
Aussen-T/F 1326 09-01-2015 05:15:00 7.3 C 6.95 g/m*3 6.25 C 6.4 km/h
1327 09-01-2015 05:20:00 7.4 C 7 g/m*3 7.4 C 4.8 km/h
1328 09-01-2015 05:25:00 7.6 C 7.01 g/m*3 5.26 C 12.9 km/h
1329 09-01-2015 05:30:00 7.6 C 6.93 g/m*3 5.02 C 14.5 km/h
1330 09-01-2015 05:35:00 7.7 C 6.97 g/m*3 6.28 C 8.1 km/h
1331 09-01-2015 05:40:00 7.7 C 6.89 g/m*3 5.15 C 14.5 km/h
1332 09-01-2015 05:45:00 7.8 C 6.94 g/m*3 5.77 C 11.3 km/h
1333 09-01-2015 05:50:00 7.7 C 6.89 g/m*3 5.65 C 11.3 km/h
1334 09-01-2015 05:55:00 7.7 C 6.89 g/m*3 5.94 C 9.7 km/h
1335 09-01-2015 06:00:00 7.7 C 6.89 g/m*3 6.71 C 6.4 km/h
1336 09-01-2015 06:05:00 7.7 C 6.89 g/m*3 4.93 C 16.1 km/h
1337 09-01-2015 06:10:00 7.8 C 6.86 g/m*3 5.06 C 16.1 km/h
1338 09-01-2015 06:15:00 7.9 C 6.9 g/m*3 4.8 C 19.3 km/h
1339 09-01-2015 06:20:00 8.1 C 6.91 g/m*3 4.58 C 24.1 km/h
1340 09-01-2015 06:25:00 8.1 C 6.91 g/m*3 5.43 C 16.1 km/h
1341 09-01-2015 06:30:00 8.1 C 6.91 g/m*3 4.44 C 25.7 km/h
1342 09-01-2015 06:35:00 8.1 C 6.91 g/m*3 5.05 C 19.3 km/h
1343 09-01-2015 06:40:00 8.2 C 6.95 g/m*3 4.86 C 22.5 km/h
1344 09-01-2015 06:45:00 8.2 C 6.95 g/m*3 5.18 C 19.3 km/h
1345 09-01-2015 06:50:00 8.2 C 6.95 g/m*3 5.01 C 20.9 km/h
1346 09-01-2015 06:55:00 8.2 C 6.95 g/m*3 5.36 C 17.7 km/h
1347 09-01-2015 07:00:00 8.2 C 6.95 g/m*3 5.01 C 20.9 km/h
1348 09-01-2015 07:05:00 8.3 C 6.91 g/m*3 4.98 C 22.5 km/h
1349 09-01-2015 07:10:00 8.3 C 6.91 g/m*3 5.89 C 14.5 km/h
1350 09-01-2015 07:15:00 8.3 C 6.91 g/m*3 6.12 C 12.9 km/h
Sensor: Nr:Datum:Temp:Abs-Feuchte:Windchill:Wind:
Aussen-T/F 1351 09-01-2015 07:20:00 8.4 C 6.96 g/m*3 5.8 C 16.1 km/h
1352 09-01-2015 07:25:00 8.4 C 6.96 g/m*3 5.27 C 20.9 km/h
1353 09-01-2015 07:30:00 8.4 C 7.04 g/m*3 5.8 C 16.1 km/h
1354 09-01-2015 07:35:00 8.4 C 7.04 g/m*3 5.61 C 17.7 km/h
1355 09-01-2015 07:40:00 8.4 C 7.04 g/m*3 5.43 C 19.3 km/h
1356 09-01-2015 07:45:00 8.4 C 7.04 g/m*3 6.01 C 14.5 km/h
1357 09-01-2015 07:50:00 8.5 C 7.09 g/m*3 5.73 C 17.7 km/h
1358 09-01-2015 07:55:00 8.6 C 7.13 g/m*3 5.86 C 17.7 km/h
1359 09-01-2015 08:00:00 8.6 C 7.05 g/m*3 5.22 C 24.1 km/h
1360 09-01-2015 08:05:00 8.7 C 7.09 g/m*3 5.98 C 17.7 km/h
1361 09-01-2015 08:10:00 8.7 C 7.09 g/m*3 5.81 C 19.3 km/h
1362 09-01-2015 08:15:00 8.7 C 7.09 g/m*3 6.17 C 16.1 km/h
1363 09-01-2015 08:20:00 8.7 C 7.09 g/m*3 5.65 C 20.9 km/h
1364 09-01-2015 08:25:00 8.7 C 7.09 g/m*3 5.65 C 20.9 km/h
1365 09-01-2015 08:30:00 8.7 C 7.09 g/m*3 5.81 C 19.3 km/h
1366 09-01-2015 08:35:00 8.7 C 7.09 g/m*3 5.35 C 24.1 km/h
1367 09-01-2015 08:40:00 8.8 C 7.14 g/m*3 5.77 C 20.9 km/h
1368 09-01-2015 08:45:00 8.8 C 7.14 g/m*3 5.34 C 25.7 km/h
1369 09-01-2015 08:50:00 8.8 C 7.14 g/m*3 5.48 C 24.1 km/h
1370 09-01-2015 08:55:00 8.9 C 7.18 g/m*3 7.09 C 11.3 km/h
1371 09-01-2015 09:00:00 8.9 C 7.18 g/m*3 5.75 C 22.5 km/h
1372 09-01-2015 09:05:00 9 C 7.14 g/m*3 5.34 C 29 km/h
1373 09-01-2015 09:10:00 9.1 C 7.19 g/m*3 5.86 C 24.1 km/h
1374 09-01-2015 09:15:00 9.1 C 7.19 g/m*3 5.86 C 24.1 km/h
1375 09-01-2015 09:20:00 9.1 C 7.19 g/m*3 6.67 C 16.1 km/h
Sensor: Nr:Datum:Temp:Abs-Feuchte:Windchill:Wind:
Aussen-T/F 1376 09-01-2015 09:25:00 9.1 C 7.28 g/m*3 6.15 C 20.9 km/h
1377 09-01-2015 09:30:00 9.1 C 7.28 g/m*3 6.87 C 14.5 km/h
1378 09-01-2015 09:35:00 9.1 C 7.28 g/m*3 5.25 C 32.2 km/h
1379 09-01-2015 09:40:00 9.1 C 7.28 g/m*3 7.33 C 11.3 km/h
1380 09-01-2015 09:45:00 9.1 C 7.28 g/m*3 6.67 C 16.1 km/h
1381 09-01-2015 09:50:00 9.1 C 7.28 g/m*3 5.86 C 24.1 km/h
1382 09-01-2015 09:55:00 9.1 C 7.28 g/m*3 6.48 C 17.7 km/h
1383 09-01-2015 10:00:00 9 C 7.32 g/m*3 6.03 C 20.9 km/h
1384 09-01-2015 10:05:00 9 C 7.32 g/m*3 6.36 C 17.7 km/h
1385 09-01-2015 10:10:00 9 C 7.32 g/m*3 6.36 C 17.7 km/h
1386 09-01-2015 10:15:00 9 C 7.32 g/m*3 5.6 C 25.7 km/h
1387 09-01-2015 10:20:00 8.9 C 7.36 g/m*3 6.62 C 14.5 km/h
1388 09-01-2015 10:25:00 8.9 C 7.36 g/m*3 6.42 C 16.1 km/h
1389 09-01-2015 10:30:00 8.8 C 7.31 g/m*3 6.3 C 16.1 km/h
1390 09-01-2015 10:35:00 8.9 C 7.36 g/m*3 5.21 C 29 km/h
1391 09-01-2015 10:40:00 8.9 C 7.36 g/m*3 5.75 C 22.5 km/h
1392 09-01-2015 10:45:00 8.9 C 7.36 g/m*3 5.1 C 30.6 km/h
1393 09-01-2015 10:50:00 8.9 C 7.36 g/m*3 5.9 C 20.9 km/h
1394 09-01-2015 10:55:00 8.9 C 7.36 g/m*3 5.33 C 27.4 km/h
1395 09-01-2015 11:00:00 9 C 7.41 g/m*3 5.87 C 22.5 km/h
1396 09-01-2015 11:05:00 9.1 C 7.45 g/m*3 6 C 22.5 km/h
1397 09-01-2015 11:10:00 9.1 C 7.36 g/m*3 5.25 C 32.2 km/h
1398 09-01-2015 11:15:00 9.1 C 7.45 g/m*3 5.47 C 29 km/h
1399 09-01-2015 11:20:00 9.1 C 7.45 g/m*3 5.59 C 27.4 km/h
1400 09-01-2015 11:25:00 9.2 C 7.5 g/m*3 5.27 C 33.8 km/h
Sensor: Nr:Datum:Temp:Abs-Feuchte:Windchill:Wind:
Aussen-T/F 1401 09-01-2015 11:30:00 9.2 C 7.5 g/m*3 6.44 C 19.3 km/h
1402 09-01-2015 11:35:00 9.2 C 7.5 g/m*3 6.28 C 20.9 km/h
1403 09-01-2015 11:40:00 9.2 C 7.5 g/m*3 5.6 C 29 km/h
1404 09-01-2015 11:45:00 9.2 C 7.5 g/m*3 5.6 C 29 km/h
1405 09-01-2015 11:50:00 9.2 C 7.59 g/m*3 5.17 C 35.4 km/h
1406 09-01-2015 11:55:00 9.3 C 7.64 g/m*3 5.98 C 25.7 km/h
1407 09-01-2015 12:00:00 9.3 C 7.64 g/m*3 5.41 C 33.8 km/h
1408 09-01-2015 12:05:00 9.3 C 7.64 g/m*3 5.73 C 29 km/h
1409 09-01-2015 12:10:00 9.3 C 7.64 g/m*3 5.98 C 25.7 km/h
1410 09-01-2015 12:15:00 9.3 C 7.64 g/m*3 5.62 C 30.6 km/h
1411 09-01-2015 12:20:00 9.3 C 7.64 g/m*3 5.12 C 38.6 km/h
1412 09-01-2015 12:25:00 9.3 C 7.73 g/m*3 5.03 C 40.2 km/h
1413 09-01-2015 12:30:00 9.3 C 7.73 g/m*3 5.98 C 25.7 km/h
1414 09-01-2015 12:35:00 9.4 C 7.78 g/m*3 5.86 C 29 km/h
1415 09-01-2015 12:40:00 9.4 C 7.78 g/m*3 6.38 C 22.5 km/h
1416 09-01-2015 12:45:00 9.4 C 7.78 g/m*3 6.38 C 22.5 km/h
1417 09-01-2015 12:50:00 9.4 C 7.78 g/m*3 6.25 C 24.1 km/h
1418 09-01-2015 12:55:00 9.4 C 7.78 g/m*3 5.98 C 27.4 km/h
1419 09-01-2015 13:00:00 9.5 C 7.83 g/m*3 5.57 C 35.4 km/h
1420 09-01-2015 13:05:00 9.6 C 7.97 g/m*3 6.5 C 24.1 km/h
1421 09-01-2015 13:10:00 9.6 C 7.97 g/m*3 5.8 C 33.8 km/h
1422 09-01-2015 13:15:00 9.6 C 7.97 g/m*3 6.5 C 24.1 km/h
1423 09-01-2015 13:20:00 9.7 C 7.93 g/m*3 5.93 C 33.8 km/h
1424 09-01-2015 13:25:00 9.7 C 8.02 g/m*3 5.93 C 33.8 km/h
1425 09-01-2015 13:30:00 9.7 C 8.02 g/m*3 6.25 C 29 km/h
Sensor: Nr:Datum:Temp:Abs-Feuchte:Windchill:Wind:
Aussen-T/F 1426 09-01-2015 13:35:00 9.7 C 8.02 g/m*3 6.77 C 22.5 km/h
1427 09-01-2015 13:40:00 9.8 C 8.07 g/m*3 6.89 C 22.5 km/h
1428 09-01-2015 13:45:00 9.8 C 8.07 g/m*3 6.38 C 29 km/h
1429 09-01-2015 13:50:00 9.8 C 8.07 g/m*3 6.5 C 27.4 km/h
1430 09-01-2015 13:55:00 9.9 C 8.12 g/m*3 6.89 C 24.1 km/h
1431 09-01-2015 14:00:00 9.9 C 8.12 g/m*3 7.16 C 20.9 km/h
1432 09-01-2015 14:05:00 10.1 C 8.23 g/m*3 6.77 C 29 km/h
1433 09-01-2015 14:10:00 10.1 C 8.23 g/m*3 7.28 C 22.5 km/h
1434 09-01-2015 14:15:00 10.2 C 8.28 g/m*3 7.4 C 22.5 km/h
1435 09-01-2015 14:20:00 10.2 C 8.28 g/m*3 6.8 C 30.6 km/h
1436 09-01-2015 14:25:00 10.3 C 8.33 g/m*3 6.93 C 30.6 km/h
1437 09-01-2015 14:30:00 10.3 C 8.33 g/m*3 7.98 C 17.7 km/h
1438 09-01-2015 14:35:00 10.4 C 8.38 g/m*3 7.53 C 24.1 km/h
1439 09-01-2015 14:40:00 10.5 C 8.44 g/m*3 6.99 C 33.8 km/h
1440 09-01-2015 14:45:00 10.6 C 8.49 g/m*3 8.05 C 20.9 km/h
1441 09-01-2015 14:50:00 10.6 C 8.49 g/m*3 7.54 C 27.4 km/h
1442 09-01-2015 14:55:00 10.8 C 8.5 g/m*3 8.17 C 22.5 km/h
1443 09-01-2015 15:00:00 10.8 C 8.5 g/m*3 8.04 C 24.1 km/h
1444 09-01-2015 15:05:00 10.9 C 8.55 g/m*3 8.43 C 20.9 km/h
1445 09-01-2015 15:10:00 11.1 C 8.66 g/m*3 11.1 C 27.4 km/h
1446 09-01-2015 15:15:00 11.2 C 8.62 g/m*3 11.2 C 27.4 km/h
1447 09-01-2015 15:20:00 11.2 C 8.62 g/m*3 11.2 C 24.1 km/h
1448 09-01-2015 15:25:00 11.3 C 8.67 g/m*3 11.3 C 25.7 km/h
1449 09-01-2015 15:30:00 11.3 C 8.67 g/m*3 11.3 C 16.1 km/h
1450 09-01-2015 15:35:00 11.3 C 8.67 g/m*3 11.3 C 37 km/h
Sensor: Nr:Datum:Temp:Abs-Feuchte:Windchill:Wind:
Aussen-T/F 1451 09-01-2015 15:40:00 11.3 C 8.57 g/m*3 11.3 C 19.3 km/h
1452 09-01-2015 15:45:00 11.4 C 8.62 g/m*3 11.4 C 25.7 km/h
1453 09-01-2015 15:50:00 11.4 C 8.62 g/m*3 11.4 C 20.9 km/h
1454 09-01-2015 15:55:00 11.5 C 8.68 g/m*3 11.5 C 27.4 km/h
1455 09-01-2015 16:00:00 11.5 C 8.68 g/m*3 11.5 C 27.4 km/h
1456 09-01-2015 16:05:00 11.6 C 8.63 g/m*3 11.6 C 32.2 km/h
1457 09-01-2015 16:10:00 11.6 C 8.63 g/m*3 11.6 C 27.4 km/h
1458 09-01-2015 16:15:00 11.6 C 8.63 g/m*3 11.6 C 22.5 km/h
1459 09-01-2015 16:20:00 11.6 C 8.63 g/m*3 11.6 C 24.1 km/h
1460 09-01-2015 16:25:00 11.6 C 8.63 g/m*3 11.6 C 29 km/h
1461 09-01-2015 16:30:00 11.7 C 8.68 g/m*3 11.7 C 22.5 km/h
1462 09-01-2015 16:35:00 11.7 C 8.68 g/m*3 11.7 C 16.1 km/h
1463 09-01-2015 16:40:00 11.7 C 8.58 g/m*3 11.7 C 14.5 km/h
1464 09-01-2015 16:45:00 11.7 C 8.58 g/m*3 11.7 C 20.9 km/h
1465 09-01-2015 16:50:00 11.7 C 8.58 g/m*3 11.7 C 20.9 km/h
1466 09-01-2015 16:55:00 11.7 C 8.58 g/m*3 11.7 C 22.5 km/h
1467 09-01-2015 17:00:00 11.7 C 8.58 g/m*3 11.7 C 27.4 km/h
1468 09-01-2015 17:05:00 11.8 C 8.53 g/m*3 11.8 C 19.3 km/h
1469 09-01-2015 17:10:00 11.8 C 8.63 g/m*3 11.8 C 12.9 km/h
1470 09-01-2015 17:15:00 11.8 C 8.63 g/m*3 11.8 C 20.9 km/h
1471 09-01-2015 17:20:00 11.7 C 8.58 g/m*3 11.7 C 12.9 km/h
1472 09-01-2015 17:25:00 11.7 C 8.58 g/m*3 11.7 C 16.1 km/h
1473 09-01-2015 17:30:00 11.7 C 8.58 g/m*3 11.7 C 16.1 km/h
1474 09-01-2015 17:35:00 11.7 C 8.58 g/m*3 11.7 C 20.9 km/h
1475 09-01-2015 17:40:00 11.7 C 8.58 g/m*3 11.7 C 16.1 km/h
Sensor: Nr:Datum:Temp:Abs-Feuchte:Windchill:Wind:
Aussen-T/F 1476 09-01-2015 17:45:00 11.7 C 8.58 g/m*3 11.7 C 17.7 km/h
1477 09-01-2015 17:50:00 11.7 C 8.47 g/m*3 11.7 C 17.7 km/h
1478 09-01-2015 17:55:00 11.7 C 8.47 g/m*3 11.7 C 17.7 km/h
1479 09-01-2015 18:00:00 11.7 C 8.47 g/m*3 11.7 C 11.3 km/h
1480 09-01-2015 18:05:00 11.7 C 8.37 g/m*3 11.7 C 14.5 km/h
1481 09-01-2015 18:10:00 11.8 C 8.31 g/m*3 11.8 C 17.7 km/h
1482 09-01-2015 18:15:00 11.8 C 8.31 g/m*3 11.8 C 20.9 km/h
1483 09-01-2015 18:20:00 11.8 C 8.31 g/m*3 11.8 C 9.7 km/h
1484 09-01-2015 18:25:00 11.8 C 8.21 g/m*3 11.8 C 14.5 km/h
1485 09-01-2015 18:30:00 11.8 C 8.1 g/m*3 11.8 C 16.1 km/h
1486 09-01-2015 18:35:00 11.7 C 7.84 g/m*3 11.7 C 14.5 km/h
1487 09-01-2015 18:40:00 11.4 C 7.8 g/m*3 11.4 C 17.7 km/h
1488 09-01-2015 18:45:00 11.3 C 7.96 g/m*3 11.3 C 19.3 km/h
1489 09-01-2015 18:50:00 11.1 C 7.86 g/m*3 11.1 C 9.7 km/h
1490 09-01-2015 18:55:00 11.1 C 8.26 g/m*3 11.1 C 6.4 km/h
1491 09-01-2015 19:00:00 10.7 C 8.05 g/m*3 10.7 C 4.8 km/h
1492 09-01-2015 19:05:00 10.7 C 8.05 g/m*3 10.7 C 4.8 km/h
1493 09-01-2015 19:10:00 10.7 C 8.05 g/m*3 10.18 C 6.4 km/h
1494 09-01-2015 21:15:00 10 C 9.02 g/m*3 8.19 C 12.9 km/h
1495 09-01-2015 21:20:00 10.2 C 9.14 g/m*3 7.86 C 17.7 km/h
1496 09-01-2015 21:25:00 10.3 C 9.1 g/m*3 7.82 C 19.3 km/h
1497 09-01-2015 21:30:00 10.5 C 9.21 g/m*3 8.8 C 12.9 km/h
1498 09-01-2015 21:35:00 10.6 C 9.27 g/m*3 8.53 C 16.1 km/h
1499 09-01-2015 21:40:00 10.7 C 9.33 g/m*3 8.84 C 14.5 km/h
1500 09-01-2015 21:45:00 10.9 C 9.35 g/m*3 9.08 C 14.5 km/h
Sensor: Nr:Datum:Temp:Abs-Feuchte:Windchill:Wind:
Aussen-T/F 1501 09-01-2015 21:50:00 10.9 C 9.35 g/m*3 9.08 C 14.5 km/h
1502 09-01-2015 21:55:00 11 C 9.41 g/m*3 8.7 C 19.3 km/h
1503 09-01-2015 22:00:00 11.1 C 9.47 g/m*3 11.1 C 12.9 km/h
1504 09-01-2015 22:05:00 11.2 C 9.53 g/m*3 11.2 C 22.5 km/h
1505 09-01-2015 22:10:00 11.3 C 9.59 g/m*3 11.3 C 16.1 km/h
1506 09-01-2015 22:15:00 11.5 C 9.61 g/m*3 11.5 C 20.9 km/h
1507 09-01-2015 22:20:00 11.7 C 9.73 g/m*3 11.7 C 17.7 km/h
1508 09-01-2015 22:25:00 11.7 C 9.73 g/m*3 11.7 C 16.1 km/h
1509 09-01-2015 22:30:00 11.7 C 9.73 g/m*3 11.7 C 19.3 km/h
1510 09-01-2015 22:35:00 11.8 C 9.79 g/m*3 11.8 C 16.1 km/h
1511 09-01-2015 22:40:00 11.8 C 9.79 g/m*3 11.8 C 19.3 km/h
1512 09-01-2015 22:45:00 11.8 C 9.79 g/m*3 11.8 C 14.5 km/h
1513 09-01-2015 22:50:00 11.9 C 9.85 g/m*3 11.9 C 25.7 km/h
1514 09-01-2015 22:55:00 11.9 C 9.85 g/m*3 11.9 C 20.9 km/h
1515 09-01-2015 23:00:00 12 C 9.91 g/m*3 12 C 24.1 km/h
1516 09-01-2015 23:05:00 12.1 C 9.97 g/m*3 12.1 C 25.7 km/h
1517 09-01-2015 23:10:00 12.2 C 9.93 g/m*3 12.2 C 17.7 km/h
1518 09-01-2015 23:15:00 12.3 C 9.99 g/m*3 12.3 C 25.7 km/h
1519 09-01-2015 23:20:00 12.4 C 9.94 g/m*3 12.4 C 29 km/h
1520 09-01-2015 23:25:00 12.6 C 10.07 g/m*3 12.6 C 16.1 km/h
1521 09-01-2015 23:30:00 12.6 C 10.07 g/m*3 12.6 C 17.7 km/h
1522 09-01-2015 23:35:00 12.8 C 10.08 g/m*3 12.8 C 33.8 km/h
1523 09-01-2015 23:40:00 12.9 C 10.14 g/m*3 12.9 C 25.7 km/h
1524 09-01-2015 23:45:00 12.9 C 10.14 g/m*3 12.9 C 27.4 km/h
1525 09-01-2015 23:50:00 13 C 10.21 g/m*3 13 C 29 km/h
Sensor: Nr:Datum:Temp:Abs-Feuchte:Windchill:Wind:
Aussen-T/F 1526 09-01-2015 23:55:00 13.1 C 10.27 g/m*3 13.1 C 38.6 km/h
1527 10-01-2015 00:00:00 13 C 10.21 g/m*3 13 C 22.5 km/h
1528 10-01-2015 00:05:00 13 C 10.21 g/m*3 13 C 22.5 km/h
1529 10-01-2015 00:10:00 12.9 C 10.26 g/m*3 12.9 C 20.9 km/h
1530 10-01-2015 00:15:00 12.9 C 10.26 g/m*3 12.9 C 25.7 km/h
1531 10-01-2015 00:20:00 12.9 C 10.26 g/m*3 12.9 C 25.7 km/h
1532 10-01-2015 00:25:00 12.9 C 10.26 g/m*3 12.9 C 20.9 km/h
1533 10-01-2015 00:30:00 12.9 C 10.26 g/m*3 12.9 C 19.3 km/h
1534 10-01-2015 00:35:00 12.9 C 10.26 g/m*3 12.9 C 25.7 km/h
1535 10-01-2015 00:40:00 12.9 C 10.26 g/m*3 12.9 C 20.9 km/h
1536 10-01-2015 00:45:00 12.9 C 10.26 g/m*3 12.9 C 11.3 km/h
1537 10-01-2015 00:50:00 12.9 C 10.26 g/m*3 12.9 C 12.9 km/h
1538 10-01-2015 00:55:00 12.9 C 10.26 g/m*3 12.9 C 14.5 km/h
1539 10-01-2015 01:00:00 13.2 C 10.33 g/m*3 13.2 C 16.1 km/h
1540 10-01-2015 01:05:00 13.2 C 10.33 g/m*3 13.2 C 14.5 km/h
1541 10-01-2015 01:10:00 13.3 C 10.4 g/m*3 13.3 C 17.7 km/h
1542 10-01-2015 01:15:00 13.3 C 10.4 g/m*3 13.3 C 17.7 km/h
1543 10-01-2015 01:20:00 13.3 C 10.4 g/m*3 13.3 C 20.9 km/h
1544 10-01-2015 01:25:00 13.4 C 10.46 g/m*3 13.4 C 19.3 km/h
1545 10-01-2015 01:30:00 13.4 C 10.46 g/m*3 13.4 C 14.5 km/h
1546 10-01-2015 02:40:00 14 C 12.06 g/m*3 14 C 17.7 km/h
1547 10-01-2015 02:45:00 14 C 12.06 g/m*3 14 C 8.1 km/h
1548 10-01-2015 04:15:00 15.2 C 10.9 g/m*3 15.2 C 16.1 km/h
1549 10-01-2015 04:20:00 15.2 C 10.9 g/m*3 15.2 C 17.7 km/h
1550 10-01-2015 04:25:00 15.2 C 10.9 g/m*3 15.2 C 19.3 km/h
Sensor: Nr:Datum:Temp:Abs-Feuchte:Windchill:Wind:
Aussen-T/F 1551 10-01-2015 04:30:00 15.3 C 10.97 g/m*3 15.3 C 16.1 km/h
1552 10-01-2015 04:35:00 15.3 C 10.97 g/m*3 15.3 C 20.9 km/h
1553 10-01-2015 04:40:00 15.3 C 10.97 g/m*3 15.3 C 22.5 km/h
1554 10-01-2015 04:45:00 15.3 C 10.97 g/m*3 15.3 C 17.7 km/h
1555 10-01-2015 04:50:00 15.3 C 10.71 g/m*3 15.3 C 22.5 km/h
1556 10-01-2015 04:55:00 15.4 C 10.77 g/m*3 15.4 C 14.5 km/h
1557 10-01-2015 05:00:00 15.4 C 10.77 g/m*3 15.4 C 29 km/h
1558 10-01-2015 05:05:00 15.4 C 10.77 g/m*3 15.4 C 22.5 km/h
1559 10-01-2015 05:10:00 15.4 C 10.77 g/m*3 15.4 C 14.5 km/h
1560 10-01-2015 05:15:00 15.3 C 10.84 g/m*3 15.3 C 20.9 km/h
1561 10-01-2015 05:20:00 15.3 C 10.84 g/m*3 15.3 C 22.5 km/h
1562 10-01-2015 05:25:00 15.3 C 10.84 g/m*3 15.3 C 17.7 km/h
1563 10-01-2015 05:30:00 15.3 C 10.84 g/m*3 15.3 C 22.5 km/h
1564 10-01-2015 05:35:00 15.3 C 10.97 g/m*3 15.3 C 22.5 km/h
1565 10-01-2015 05:40:00 15.2 C 10.9 g/m*3 15.2 C 24.1 km/h
1566 10-01-2015 05:45:00 15.1 C 10.97 g/m*3 15.1 C 32.2 km/h
1567 10-01-2015 05:50:00 15 C 11.03 g/m*3 15 C 20.9 km/h
1568 10-01-2015 05:55:00 14.9 C 10.96 g/m*3 14.9 C 14.5 km/h
1569 10-01-2015 06:00:00 14.8 C 11.02 g/m*3 14.8 C 27.4 km/h
1570 10-01-2015 06:05:00 14.8 C 11.02 g/m*3 14.8 C 14.5 km/h
1571 10-01-2015 06:35:00 14.7 C 12.59 g/m*3 14.7 C 22.5 km/h
1572 10-01-2015 06:40:00 14.7 C 10.95 g/m*3 14.7 C 25.7 km/h
1573 10-01-2015 06:45:00 14.8 C 11.02 g/m*3 14.8 C 24.1 km/h
1574 10-01-2015 06:50:00 14.8 C 10.89 g/m*3 14.8 C 22.5 km/h
1575 10-01-2015 06:55:00 14.9 C 10.83 g/m*3 14.9 C 30.6 km/h
Sensor: Nr:Datum:Temp:Abs-Feuchte:Windchill:Wind:
Aussen-T/F 1576 10-01-2015 07:00:00 15 C 10.64 g/m*3 15 C 30.6 km/h
1577 10-01-2015 07:05:00 15.1 C 10.45 g/m*3 15.1 C 32.2 km/h
1578 10-01-2015 07:10:00 15.1 C 10.32 g/m*3 15.1 C 32.2 km/h
1579 10-01-2015 07:15:00 15.1 C 10.32 g/m*3 15.1 C 17.7 km/h
1580 10-01-2015 07:20:00 15.1 C 10.32 g/m*3 15.1 C 19.3 km/h
1581 10-01-2015 07:25:00 14.7 C 10.45 g/m*3 14.7 C 12.9 km/h
1582 10-01-2015 07:30:00 14.7 C 10.45 g/m*3 14.7 C 20.9 km/h
1583 10-01-2015 07:35:00 14.7 C 10.58 g/m*3 14.7 C 16.1 km/h
1584 10-01-2015 07:40:00 14.6 C 10.51 g/m*3 14.6 C 22.5 km/h
1585 10-01-2015 07:45:00 14.6 C 10.51 g/m*3 14.6 C 20.9 km/h
1586 10-01-2015 07:50:00 14.6 C 10.39 g/m*3 14.6 C 16.1 km/h
1587 10-01-2015 07:55:00 14.6 C 10.39 g/m*3 14.6 C 22.5 km/h
1588 10-01-2015 08:00:00 14.6 C 10.39 g/m*3 14.6 C 19.3 km/h
1589 10-01-2015 08:05:00 14.6 C 10.39 g/m*3 14.6 C 20.9 km/h
1590 10-01-2015 08:10:00 14.5 C 10.2 g/m*3 14.5 C 22.5 km/h
1591 10-01-2015 08:15:00 14.4 C 10.26 g/m*3 14.4 C 19.3 km/h
1592 10-01-2015 08:20:00 14.5 C 10.2 g/m*3 14.5 C 30.6 km/h
1593 10-01-2015 08:25:00 14.4 C 10.14 g/m*3 14.4 C 19.3 km/h
1594 10-01-2015 08:30:00 14.4 C 10.14 g/m*3 14.4 C 22.5 km/h
1595 10-01-2015 08:35:00 14.5 C 10.2 g/m*3 14.5 C 33.8 km/h
1596 10-01-2015 08:40:00 14.5 C 10.07 g/m*3 14.5 C 27.4 km/h
1597 10-01-2015 08:45:00 14.5 C 10.07 g/m*3 14.5 C 22.5 km/h
1598 10-01-2015 08:50:00 14.4 C 10.01 g/m*3 14.4 C 22.5 km/h
1599 10-01-2015 08:55:00 14.5 C 10.07 g/m*3 14.5 C 24.1 km/h
1600 10-01-2015 09:00:00 14.5 C 10.07 g/m*3 14.5 C 16.1 km/h
Sensor: Nr:Datum:Temp:Abs-Feuchte:Windchill:Wind:
Aussen-T/F 1601 10-01-2015 09:05:00 14.6 C 10.14 g/m*3 14.6 C 29 km/h
1602 10-01-2015 09:10:00 14.7 C 10.07 g/m*3 14.7 C 24.1 km/h
1603 10-01-2015 09:15:00 14.7 C 10.07 g/m*3 14.7 C 27.4 km/h
1604 10-01-2015 09:20:00 14.7 C 9.95 g/m*3 14.7 C 33.8 km/h
1605 10-01-2015 09:25:00 14.7 C 9.95 g/m*3 14.7 C 33.8 km/h
1606 10-01-2015 09:30:00 14.7 C 9.95 g/m*3 14.7 C 24.1 km/h
1607 10-01-2015 09:35:00 14.7 C 9.95 g/m*3 14.7 C 32.2 km/h
1608 10-01-2015 09:40:00 14.7 C 9.95 g/m*3 14.7 C 24.1 km/h
1609 10-01-2015 09:45:00 14.7 C 9.95 g/m*3 14.7 C 19.3 km/h
1610 10-01-2015 09:50:00 14.7 C 9.95 g/m*3 14.7 C 32.2 km/h
1611 10-01-2015 09:55:00 14.7 C 9.95 g/m*3 14.7 C 25.7 km/h
1612 10-01-2015 10:00:00 14.7 C 9.82 g/m*3 14.7 C 19.3 km/h
1613 10-01-2015 10:05:00 14.7 C 9.82 g/m*3 14.7 C 27.4 km/h
1614 10-01-2015 10:10:00 14.7 C 9.82 g/m*3 14.7 C 20.9 km/h
1615 10-01-2015 10:15:00 14.6 C 9.76 g/m*3 14.6 C 20.9 km/h
1616 10-01-2015 10:20:00 14.6 C 9.76 g/m*3 14.6 C 17.7 km/h
1617 10-01-2015 10:25:00 14.6 C 9.76 g/m*3 14.6 C 20.9 km/h
1618 10-01-2015 10:30:00 14.6 C 9.76 g/m*3 14.6 C 22.5 km/h
1619 10-01-2015 10:35:00 14.6 C 9.76 g/m*3 14.6 C 22.5 km/h
1620 10-01-2015 10:40:00 14.6 C 9.76 g/m*3 14.6 C 24.1 km/h
1621 10-01-2015 10:45:00 14.4 C 9.64 g/m*3 14.4 C 22.5 km/h
1622 10-01-2015 10:50:00 14.4 C 9.52 g/m*3 14.4 C 20.9 km/h
1623 10-01-2015 10:55:00 14.5 C 9.58 g/m*3 14.5 C 25.7 km/h
1624 10-01-2015 11:00:00 14.4 C 9.52 g/m*3 14.4 C 24.1 km/h
1625 10-01-2015 11:05:00 14.4 C 9.52 g/m*3 14.4 C 19.3 km/h
Sensor: Nr:Datum:Temp:Abs-Feuchte:Windchill:Wind:
Aussen-T/F 1626 10-01-2015 11:10:00 14.4 C 9.52 g/m*3 14.4 C 22.5 km/h
1627 10-01-2015 11:15:00 14.3 C 9.46 g/m*3 14.3 C 17.7 km/h
1628 10-01-2015 11:20:00 14.3 C 9.46 g/m*3 14.3 C 20.9 km/h
1629 10-01-2015 11:25:00 14.3 C 9.46 g/m*3 14.3 C 17.7 km/h
1630 10-01-2015 11:30:00 14.2 C 9.52 g/m*3 14.2 C 17.7 km/h
1631 10-01-2015 11:35:00 14.2 C 9.52 g/m*3 14.2 C 11.3 km/h
1632 10-01-2015 11:40:00 14.2 C 9.52 g/m*3 14.2 C 17.7 km/h
1633 10-01-2015 11:45:00 14.2 C 9.52 g/m*3 14.2 C 24.1 km/h
1634 10-01-2015 11:50:00 14.2 C 9.52 g/m*3 14.2 C 17.7 km/h
1635 10-01-2015 11:55:00 14.2 C 9.52 g/m*3 14.2 C 14.5 km/h
1636 10-01-2015 12:00:00 14.2 C 9.52 g/m*3 14.2 C 12.9 km/h
1637 10-01-2015 12:05:00 14.2 C 9.52 g/m*3 14.2 C 19.3 km/h
1638 10-01-2015 12:10:00 14.2 C 9.52 g/m*3 14.2 C 19.3 km/h
1639 10-01-2015 12:15:00 14.2 C 9.52 g/m*3 14.2 C 22.5 km/h
1640 10-01-2015 12:20:00 14.3 C 9.46 g/m*3 14.3 C 29 km/h
1641 10-01-2015 12:25:00 14.3 C 9.46 g/m*3 14.3 C 19.3 km/h
1642 10-01-2015 12:30:00 14.4 C 9.52 g/m*3 14.4 C 22.5 km/h
1643 10-01-2015 12:35:00 14.4 C 9.39 g/m*3 14.4 C 29 km/h
1644 10-01-2015 12:40:00 14.4 C 9.39 g/m*3 14.4 C 20.9 km/h
1645 10-01-2015 12:45:00 14.4 C 9.39 g/m*3 14.4 C 22.5 km/h
1646 10-01-2015 12:50:00 14.4 C 9.39 g/m*3 14.4 C 19.3 km/h
1647 10-01-2015 12:55:00 14.2 C 9.4 g/m*3 14.2 C 14.5 km/h
1648 10-01-2015 13:00:00 14.2 C 9.52 g/m*3 14.2 C 16.1 km/h
1649 10-01-2015 13:05:00 14.1 C 9.47 g/m*3 14.1 C 19.3 km/h
1650 10-01-2015 13:10:00 14 C 9.41 g/m*3 14 C 20.9 km/h
Sensor: Nr:Datum:Temp:Abs-Feuchte:Windchill:Wind:
Aussen-T/F 1651 10-01-2015 13:15:00 14 C 9.41 g/m*3 14 C 20.9 km/h
1652 10-01-2015 13:20:00 13.9 C 9.35 g/m*3 13.9 C 20.9 km/h
1653 10-01-2015 13:25:00 13.9 C 9.35 g/m*3 13.9 C 14.5 km/h
1654 10-01-2015 13:30:00 13.9 C 9.35 g/m*3 13.9 C 17.7 km/h
1655 10-01-2015 13:35:00 13.9 C 9.35 g/m*3 13.9 C 16.1 km/h
1656 10-01-2015 13:40:00 13.9 C 9.35 g/m*3 13.9 C 16.1 km/h
1657 10-01-2015 13:45:00 13.9 C 9.35 g/m*3 13.9 C 11.3 km/h
1658 10-01-2015 13:50:00 13.9 C 9.23 g/m*3 13.9 C 22.5 km/h
1659 10-01-2015 13:55:00 14 C 9.29 g/m*3 14 C 20.9 km/h
1660 10-01-2015 14:00:00 14.1 C 9.34 g/m*3 14.1 C 25.7 km/h
1661 10-01-2015 14:05:00 14.1 C 9.34 g/m*3 14.1 C 30.6 km/h
1662 10-01-2015 14:10:00 14 C 9.29 g/m*3 14 C 22.5 km/h
1663 10-01-2015 14:15:00 14 C 9.29 g/m*3 14 C 17.7 km/h
1664 10-01-2015 14:20:00 14 C 9.29 g/m*3 14 C 17.7 km/h
1665 10-01-2015 14:25:00 13.9 C 9.23 g/m*3 13.9 C 12.9 km/h
1666 10-01-2015 14:30:00 13.9 C 9.23 g/m*3 13.9 C 17.7 km/h
1667 10-01-2015 14:35:00 13.9 C 9.35 g/m*3 13.9 C 12.9 km/h
1668 10-01-2015 14:40:00 13.8 C 9.41 g/m*3 13.8 C 14.5 km/h
1669 10-01-2015 14:45:00 13.7 C 9.35 g/m*3 13.7 C 20.9 km/h
1670 10-01-2015 14:50:00 13.7 C 9.35 g/m*3 13.7 C 16.1 km/h
1671 10-01-2015 14:55:00 13.7 C 9.47 g/m*3 13.7 C 11.3 km/h
1672 10-01-2015 15:00:00 13.6 C 9.42 g/m*3 13.6 C 11.3 km/h
1673 10-01-2015 15:05:00 13.6 C 9.42 g/m*3 13.6 C 16.1 km/h
1674 10-01-2015 15:10:00 13.6 C 9.42 g/m*3 13.6 C 19.3 km/h
1675 10-01-2015 15:15:00 13.6 C 9.42 g/m*3 13.6 C 16.1 km/h
Sensor: Nr:Datum:Temp:Abs-Feuchte:Windchill:Wind:
Aussen-T/F 1676 10-01-2015 15:55:00 13.2 C 9.53 g/m*3 13.2 C 14.5 km/h
1677 10-01-2015 16:00:00 13.2 C 9.53 g/m*3 13.2 C 17.7 km/h
1678 10-01-2015 16:05:00 13.1 C 9.47 g/m*3 13.1 C 14.5 km/h
1679 10-01-2015 16:10:00 13.1 C 9.59 g/m*3 13.1 C 16.1 km/h
1680 10-01-2015 16:15:00 13 C 9.53 g/m*3 13 C 17.7 km/h
1681 10-01-2015 16:20:00 12.9 C 9.58 g/m*3 12.9 C 19.3 km/h
1682 10-01-2015 16:25:00 12.9 C 9.58 g/m*3 12.9 C 17.7 km/h
1683 10-01-2015 16:30:00 12.9 C 9.58 g/m*3 12.9 C 16.1 km/h
1684 10-01-2015 16:35:00 12.8 C 9.52 g/m*3 12.8 C 17.7 km/h
1685 10-01-2015 16:40:00 12.7 C 9.46 g/m*3 12.7 C 11.3 km/h
1686 10-01-2015 16:45:00 12.7 C 9.68 g/m*3 12.7 C 17.7 km/h
1687 10-01-2015 16:50:00 12.6 C 9.62 g/m*3 12.6 C 22.5 km/h
1688 10-01-2015 16:55:00 12.6 C 9.62 g/m*3 12.6 C 14.5 km/h
1689 10-01-2015 17:00:00 12.4 C 9.62 g/m*3 12.4 C 20.9 km/h
1690 10-01-2015 17:05:00 12.3 C 9.66 g/m*3 12.3 C 14.5 km/h
1691 10-01-2015 17:10:00 12.3 C 9.66 g/m*3 12.3 C 12.9 km/h
1692 10-01-2015 17:15:00 12.1 C 9.54 g/m*3 12.1 C 14.5 km/h
1693 10-01-2015 17:20:00 12 C 9.7 g/m*3 12 C 16.1 km/h
1694 10-01-2015 17:25:00 11.9 C 9.74 g/m*3 11.9 C 12.9 km/h
1695 10-01-2015 17:30:00 11.8 C 9.58 g/m*3 11.8 C 20.9 km/h
1696 10-01-2015 17:35:00 11.9 C 9.64 g/m*3 11.9 C 12.9 km/h
1697 10-01-2015 17:40:00 12 C 9.59 g/m*3 12 C 14.5 km/h
1698 10-01-2015 17:45:00 12.1 C 9.65 g/m*3 12.1 C 16.1 km/h
1699 10-01-2015 17:50:00 12.1 C 9.65 g/m*3 12.1 C 9.7 km/h
1700 10-01-2015 17:55:00 12.2 C 9.5 g/m*3 12.2 C 20.9 km/h
Sensor: Nr:Datum:Temp:Abs-Feuchte:Windchill:Wind:
Aussen-T/F 1701 10-01-2015 18:00:00 12.6 C 9.29 g/m*3 12.6 C 20.9 km/h
1702 10-01-2015 18:05:00 11.8 C 8.42 g/m*3 11.8 C 33.8 km/h
1703 10-01-2015 18:10:00 10.9 C 8.16 g/m*3 8.58 C 19.3 km/h
1704 10-01-2015 18:15:00 10.4 C 8.19 g/m*3 7.8 C 20.9 km/h
1705 10-01-2015 18:20:00 9.9 C 8.03 g/m*3 6.4 C 30.6 km/h
1706 10-01-2015 18:25:00 9.6 C 8.06 g/m*3 7.11 C 17.7 km/h
1707 10-01-2015 18:30:00 9.6 C 7.97 g/m*3 6.5 C 24.1 km/h
1708 10-01-2015 18:35:00 9.6 C 7.97 g/m*3 7.11 C 17.7 km/h
1709 10-01-2015 18:40:00 9.1 C 7.45 g/m*3 6 C 22.5 km/h
1710 10-01-2015 18:45:00 8.9 C 7.27 g/m*3 5.33 C 27.4 km/h
1711 10-01-2015 18:50:00 8.8 C 7.31 g/m*3 5.08 C 29 km/h
1712 10-01-2015 18:55:00 8.8 C 7.31 g/m*3 6.3 C 16.1 km/h
1713 10-01-2015 19:00:00 8.7 C 7.26 g/m*3 5.98 C 17.7 km/h
1714 10-01-2015 19:05:00 8.7 C 7.26 g/m*3 6.17 C 16.1 km/h
1715 10-01-2015 19:10:00 8.7 C 7.26 g/m*3 5.81 C 19.3 km/h
1716 10-01-2015 19:15:00 8.7 C 7.09 g/m*3 5.98 C 17.7 km/h
1717 10-01-2015 19:20:00 8.7 C 7.01 g/m*3 5.49 C 22.5 km/h
1718 10-01-2015 19:25:00 8.7 C 7.01 g/m*3 6.17 C 16.1 km/h
1719 10-01-2015 20:05:00 8.8 C 8.7 g/m*3 5.62 C 22.5 km/h
1720 10-01-2015 20:10:00 8.8 C 8.7 g/m*3 6.11 C 17.7 km/h
1721 10-01-2015 20:15:00 8.8 C 8.7 g/m*3 6.97 C 11.3 km/h
1722 11-01-2015 01:45:00 5.1 C 6.84 g/m*3 3.71 C 6.4 km/h
1723 11-01-2015 01:50:00 5.1 C 5.27 g/m*3 3.71 C 6.4 km/h
1724 11-01-2015 01:55:00 5 C 5.23 g/m*3 2.72 C 9.7 km/h
1725 11-01-2015 02:00:00 5 C 5.23 g/m*3 3.11 C 8.1 km/h
Sensor: Nr:Datum:Temp:Abs-Feuchte:Windchill:Wind:
Aussen-T/F 1726 11-01-2015 02:05:00 5 C 5.23 g/m*3 3.11 C 8.1 km/h
1727 11-01-2015 02:25:00 4.8 C 5.23 g/m*3 4.8 C 4.8 km/h
1728 11-01-2015 02:30:00 4.7 C 5.13 g/m*3 4.7 C 3.2 km/h
1729 11-01-2015 02:35:00 4.5 C 5.13 g/m*3 4.5 C 4.8 km/h
1730 11-01-2015 02:40:00 4.4 C 5.09 g/m*3 4.4 C 4.8 km/h
1731 11-01-2015 02:45:00 4.4 C 5.09 g/m*3 4.4 C 3.2 km/h
1732 11-01-2015 02:50:00 4.4 C 5.09 g/m*3 4.4 C 4.8 km/h
1733 11-01-2015 02:55:00 4.4 C 5.09 g/m*3 4.4 C 4.8 km/h
1734 11-01-2015 03:00:00 4.3 C 5.06 g/m*3 4.3 C 4.8 km/h
1735 11-01-2015 03:05:00 4.2 C 5.03 g/m*3 4.2 C 4.8 km/h
1736 11-01-2015 03:10:00 4.2 C 5.15 g/m*3 4.2 C 4.8 km/h
1737 11-01-2015 03:15:00 3.8 C 5.14 g/m*3 3.8 C 4.8 km/h
1738 11-01-2015 03:20:00 3.9 C 5.18 g/m*3 3.9 C 3.2 km/h
1739 11-01-2015 03:25:00 3.9 C 5.18 g/m*3 3.9 C 4.8 km/h
1740 11-01-2015 05:45:00 3.4 C 6.11 g/m*3 1.23 C 8.1 km/h
1741 11-01-2015 05:50:00 3.4 C 6.11 g/m*3 1.75 C 6.4 km/h
1742 11-01-2015 08:30:00 3.8 C 6.27 g/m*3 0.35 C 14.5 km/h
1743 11-01-2015 08:35:00 3.8 C 4.83 g/m*3 -1.57 C 30.6 km/h
1744 11-01-2015 08:40:00 3.8 C 4.83 g/m*3 -1.57 C 30.6 km/h
1745 11-01-2015 08:45:00 3.8 C 4.83 g/m*3 0.94 C 11.3 km/h
1746 11-01-2015 08:50:00 4.1 C 4.86 g/m*3 0.72 C 14.5 km/h
1747 11-01-2015 08:55:00 4.2 C 4.9 g/m*3 1.43 C 11.3 km/h
1748 11-01-2015 09:00:00 4.2 C 4.9 g/m*3 1.43 C 11.3 km/h
1749 11-01-2015 09:05:00 4.2 C 4.9 g/m*3 1.77 C 9.7 km/h
1750 11-01-2015 11:15:00 4.9 C 5.47 g/m*3 1.97 C 12.9 km/h
Sensor: Nr:Datum:Temp:Abs-Feuchte:Windchill:Wind:
Aussen-T/F 1751 11-01-2015 11:20:00 5 C 5.44 g/m*3 1.15 C 19.3 km/h
1752 11-01-2015 11:25:00 5.1 C 5.4 g/m*3 1.95 C 14.5 km/h
1753 11-01-2015 11:30:00 5.1 C 5.4 g/m*3 1.71 C 16.1 km/h
1754 11-01-2015 11:35:00 5.2 C 5.44 g/m*3 1.83 C 16.1 km/h
1755 11-01-2015 11:40:00 5.2 C 5.44 g/m*3 2.34 C 12.9 km/h
1756 11-01-2015 11:45:00 5.2 C 5.44 g/m*3 1.83 C 16.1 km/h
1757 11-01-2015 11:50:00 5.2 C 5.37 g/m*3 2.07 C 14.5 km/h
1758 11-01-2015 11:55:00 5.2 C 5.37 g/m*3 1.83 C 16.1 km/h
1759 11-01-2015 12:00:00 5.2 C 5.37 g/m*3 2.07 C 14.5 km/h
1760 11-01-2015 12:05:00 5.2 C 5.37 g/m*3 1.4 C 19.3 km/h
1761 11-01-2015 12:10:00 5.2 C 5.37 g/m*3 2.07 C 14.5 km/h
1762 11-01-2015 12:15:00 5.3 C 5.41 g/m*3 1.96 C 16.1 km/h
1763 11-01-2015 12:20:00 5.5 C 5.41 g/m*3 1.59 C 20.9 km/h
1764 11-01-2015 12:25:00 5.6 C 5.23 g/m*3 1.54 C 22.5 km/h
1765 11-01-2015 12:30:00 5.6 C 5.16 g/m*3 2.57 C 14.5 km/h
1766 11-01-2015 12:35:00 5.6 C 5.16 g/m*3 1.91 C 19.3 km/h
1767 11-01-2015 12:40:00 5.6 C 5.16 g/m*3 1.91 C 19.3 km/h
1768 11-01-2015 12:45:00 5.7 C 5.19 g/m*3 2.24 C 17.7 km/h
1769 11-01-2015 12:50:00 5.7 C 5.19 g/m*3 1.35 C 25.7 km/h
1770 11-01-2015 12:55:00 5.8 C 5.16 g/m*3 1.32 C 27.4 km/h
1771 11-01-2015 13:00:00 5.9 C 5.12 g/m*3 2.29 C 19.3 km/h
1772 11-01-2015 13:05:00 6.1 C 5.19 g/m*3 2.18 C 22.5 km/h
1773 11-01-2015 13:10:00 6 C 5.15 g/m*3 1.44 C 29 km/h
1774 11-01-2015 13:15:00 6 C 5.08 g/m*3 2.41 C 19.3 km/h
1775 11-01-2015 13:20:00 6 C 5.15 g/m*3 2.41 C 19.3 km/h
Sensor: Nr:Datum:Temp:Abs-Feuchte:Windchill:Wind:
Aussen-T/F 1776 11-01-2015 13:25:00 6 C 5.08 g/m*3 1.31 C 30.6 km/h
1777 11-01-2015 13:30:00 6.1 C 5.11 g/m*3 2.02 C 24.1 km/h
1778 11-01-2015 13:35:00 6.1 C 5.04 g/m*3 1.86 C 25.7 km/h
1779 11-01-2015 13:40:00 6.1 C 5.04 g/m*3 1.71 C 27.4 km/h
1780 11-01-2015 13:45:00 6.1 C 5.11 g/m*3 2.18 C 22.5 km/h
1781 11-01-2015 13:50:00 6 C 5.08 g/m*3 2.61 C 17.7 km/h
1782 11-01-2015 13:55:00 6 C 5.15 g/m*3 2.41 C 19.3 km/h
1783 11-01-2015 14:00:00 6.1 C 5.19 g/m*3 2.35 C 20.9 km/h
1784 11-01-2015 14:05:00 6.1 C 5.04 g/m*3 2.35 C 20.9 km/h
1785 11-01-2015 14:10:00 6.2 C 5.07 g/m*3 2.48 C 20.9 km/h
1786 11-01-2015 14:15:00 6.2 C 5.07 g/m*3 2.48 C 20.9 km/h
1787 11-01-2015 14:20:00 6.2 C 5.07 g/m*3 1.7 C 29 km/h
1788 11-01-2015 14:25:00 6.2 C 5.15 g/m*3 2.66 C 19.3 km/h
1789 11-01-2015 14:30:00 6.1 C 5.11 g/m*3 2.95 C 16.1 km/h
1790 11-01-2015 14:35:00 6.1 C 5.11 g/m*3 2.73 C 17.7 km/h
1791 11-01-2015 14:40:00 6.1 C 5.11 g/m*3 2.35 C 20.9 km/h
1792 11-01-2015 15:00:00 6.1 C 5.11 g/m*3 2.35 C 20.9 km/h
1793 11-01-2015 15:05:00 6.2 C 5.07 g/m*3 2.66 C 19.3 km/h
1794 11-01-2015 15:10:00 6.2 C 5.15 g/m*3 2.86 C 17.7 km/h
1795 11-01-2015 15:15:00 6.1 C 5.11 g/m*3 1.44 C 30.6 km/h
1796 11-01-2015 15:20:00 6.1 C 5.11 g/m*3 2.54 C 19.3 km/h
1797 11-01-2015 15:25:00 6.1 C 5.04 g/m*3 2.02 C 24.1 km/h
1798 11-01-2015 15:30:00 6.1 C 5.04 g/m*3 1.31 C 32.2 km/h
1799 11-01-2015 15:35:00 6.1 C 5.04 g/m*3 1.31 C 32.2 km/h
1800 11-01-2015 15:40:00 6 C 5.08 g/m*3 2.23 C 20.9 km/h
Sensor: Nr:Datum:Temp:Abs-Feuchte:Windchill:Wind:
Aussen-T/F 1801 11-01-2015 15:45:00 5.9 C 5.12 g/m*3 2.48 C 17.7 km/h
1802 11-01-2015 15:50:00 5.8 C 5.16 g/m*3 2.58 C 16.1 km/h
1803 11-01-2015 15:55:00 5.8 C 5.16 g/m*3 2.36 C 17.7 km/h
1804 11-01-2015 16:00:00 5.8 C 5.16 g/m*3 2.36 C 17.7 km/h
1805 11-01-2015 16:05:00 5.7 C 5.12 g/m*3 2.45 C 16.1 km/h
1806 11-01-2015 16:10:00 5.7 C 5.12 g/m*3 2.45 C 16.1 km/h
1807 11-01-2015 16:15:00 5.7 C 5.05 g/m*3 2.24 C 17.7 km/h
1808 11-01-2015 16:20:00 5.7 C 5.12 g/m*3 2.45 C 16.1 km/h
1809 11-01-2015 16:25:00 5.7 C 5.12 g/m*3 2.45 C 16.1 km/h
1810 11-01-2015 16:30:00 5.7 C 5.12 g/m*3 2.69 C 14.5 km/h
1811 11-01-2015 16:35:00 5.6 C 5.09 g/m*3 3.44 C 9.7 km/h
1812 11-01-2015 16:40:00 5.6 C 5.09 g/m*3 3.11 C 11.3 km/h
1813 11-01-2015 16:45:00 5.6 C 5.09 g/m*3 1.91 C 19.3 km/h
1814 11-01-2015 17:05:00 5.5 C 7.02 g/m*3 2.7 C 12.9 km/h
1815 11-01-2015 17:10:00 5.5 C 7.02 g/m*3 1.78 C 19.3 km/h
1816 11-01-2015 17:15:00 5.5 C 7.02 g/m*3 2.7 C 12.9 km/h
1817 11-01-2015 17:20:00 5.5 C 7.02 g/m*3 2.7 C 12.9 km/h
1818 11-01-2015 17:25:00 5.4 C 6.98 g/m*3 2.32 C 14.5 km/h
1819 11-01-2015 17:30:00 5.5 C 7.02 g/m*3 2.7 C 12.9 km/h
1820 11-01-2015 17:35:00 5.5 C 7.02 g/m*3 2.44 C 14.5 km/h
1821 11-01-2015 18:15:00 5.6 C 7.07 g/m*3 2.33 C 16.1 km/h
1822 11-01-2015 18:20:00 5.6 C 7.07 g/m*3 3.11 C 11.3 km/h
1823 11-01-2015 18:25:00 5.6 C 5.02 g/m*3 3.44 C 9.7 km/h
1824 11-01-2015 18:30:00 5.6 C 5.02 g/m*3 3.11 C 11.3 km/h
1825 11-01-2015 18:35:00 5.5 C 5.06 g/m*3 4.17 C 6.4 km/h
Sensor: Nr:Datum:Temp:Abs-Feuchte:Windchill:Wind:
Aussen-T/F 1826 11-01-2015 18:40:00 5.4 C 5.02 g/m*3 2.58 C 12.9 km/h
1827 11-01-2015 18:45:00 5.5 C 5.06 g/m*3 3.32 C 9.7 km/h
1828 11-01-2015 18:50:00 5.4 C 5.09 g/m*3 3.58 C 8.1 km/h
1829 11-01-2015 18:55:00 5.4 C 5.09 g/m*3 2.87 C 11.3 km/h
1830 11-01-2015 19:00:00 5.5 C 5.13 g/m*3 1.78 C 19.3 km/h
1831 11-01-2015 19:05:00 5.6 C 5.16 g/m*3 3.11 C 11.3 km/h
1832 11-01-2015 19:10:00 5.5 C 5.13 g/m*3 2.99 C 11.3 km/h
1833 11-01-2015 19:15:00 5.5 C 5.13 g/m*3 1.99 C 17.7 km/h
1834 11-01-2015 19:20:00 5.6 C 5.16 g/m*3 3.44 C 9.7 km/h
1835 11-01-2015 19:25:00 5.6 C 5.16 g/m*3 2.57 C 14.5 km/h
1836 11-01-2015 19:30:00 5.6 C 5.16 g/m*3 2.57 C 14.5 km/h
1837 11-01-2015 19:35:00 5.6 C 5.16 g/m*3 3.81 C 8.1 km/h
1838 11-01-2015 19:40:00 5.7 C 5.19 g/m*3 2.69 C 14.5 km/h
1839 11-01-2015 19:45:00 5.7 C 5.19 g/m*3 2.45 C 16.1 km/h
1840 11-01-2015 19:50:00 5.8 C 5.23 g/m*3 1.8 C 22.5 km/h
1841 11-01-2015 19:55:00 5.8 C 5.23 g/m*3 3.07 C 12.9 km/h
1842 11-01-2015 20:00:00 5.8 C 5.23 g/m*3 2.81 C 14.5 km/h
1843 11-01-2015 20:05:00 5.8 C 5.23 g/m*3 3.07 C 12.9 km/h
1844 11-01-2015 20:10:00 5.8 C 5.23 g/m*3 2.81 C 14.5 km/h
1845 11-01-2015 20:15:00 5.8 C 5.23 g/m*3 3.07 C 12.9 km/h
1846 11-01-2015 20:20:00 5.8 C 5.23 g/m*3 3.68 C 9.7 km/h
1847 11-01-2015 20:25:00 5.7 C 5.19 g/m*3 3.23 C 11.3 km/h
1848 11-01-2015 20:30:00 5.7 C 5.19 g/m*3 2.24 C 17.7 km/h
1849 11-01-2015 20:35:00 5.7 C 5.27 g/m*3 3.56 C 9.7 km/h
1850 11-01-2015 20:40:00 5.7 C 5.27 g/m*3 3.56 C 9.7 km/h
Sensor: Nr:Datum:Temp:Abs-Feuchte:Windchill:Wind:
Aussen-T/F 1851 11-01-2015 20:45:00 5.7 C 5.27 g/m*3 3.23 C 11.3 km/h
1852 11-01-2015 20:50:00 5.7 C 5.27 g/m*3 2.69 C 14.5 km/h
1853 11-01-2015 20:55:00 5.8 C 5.3 g/m*3 3.07 C 12.9 km/h
1854 11-01-2015 21:00:00 5.8 C 5.3 g/m*3 3.36 C 11.3 km/h
1855 11-01-2015 21:05:00 5.9 C 5.34 g/m*3 4.17 C 8.1 km/h
1856 11-01-2015 21:10:00 5.9 C 5.34 g/m*3 2.7 C 16.1 km/h
1857 11-01-2015 21:15:00 5.9 C 5.34 g/m*3 3.48 C 11.3 km/h
1858 11-01-2015 21:20:00 5.9 C 5.41 g/m*3 3.19 C 12.9 km/h
1859 11-01-2015 21:25:00 5.9 C 5.48 g/m*3 2.1 C 20.9 km/h
1860 11-01-2015 21:30:00 5.8 C 5.44 g/m*3 3.36 C 11.3 km/h
1861 11-01-2015 21:35:00 5.8 C 5.44 g/m*3 3.07 C 12.9 km/h
1862 11-01-2015 21:40:00 5.8 C 5.44 g/m*3 3.36 C 11.3 km/h
1863 11-01-2015 21:45:00 5.8 C 5.44 g/m*3 2.58 C 16.1 km/h
1864 11-01-2015 21:50:00 5.8 C 5.44 g/m*3 3.07 C 12.9 km/h
1865 11-01-2015 21:55:00 5.8 C 5.44 g/m*3 3.36 C 11.3 km/h
1866 11-01-2015 22:00:00 5.8 C 5.52 g/m*3 3.36 C 11.3 km/h
1867 11-01-2015 22:05:00 5.8 C 5.52 g/m*3 3.68 C 9.7 km/h
1868 11-01-2015 22:10:00 5.8 C 5.52 g/m*3 3.07 C 12.9 km/h
1869 11-01-2015 22:15:00 5.8 C 5.52 g/m*3 3.36 C 11.3 km/h
1870 12-01-2015 00:10:00 5.8 C 5.95 g/m*3 2.16 C 19.3 km/h
1871 12-01-2015 00:15:00 5.8 C 5.95 g/m*3 3.07 C 12.9 km/h
1872 12-01-2015 00:20:00 5.6 C 5.87 g/m*3 2.57 C 14.5 km/h
1873 12-01-2015 00:25:00 5.6 C 5.87 g/m*3 1.54 C 22.5 km/h
1874 12-01-2015 00:30:00 5.6 C 5.94 g/m*3 1.54 C 22.5 km/h
1875 12-01-2015 00:35:00 5.6 C 5.94 g/m*3 2.83 C 12.9 km/h
Sensor: Nr:Datum:Temp:Abs-Feuchte:Windchill:Wind:
Aussen-T/F 1876 12-01-2015 00:40:00 5.6 C 6.01 g/m*3 1.54 C 22.5 km/h
1877 12-01-2015 00:45:00 5.6 C 6.08 g/m*3 1.72 C 20.9 km/h
1878 12-01-2015 00:50:00 5.6 C 6.08 g/m*3 1.38 C 24.1 km/h
1879 12-01-2015 00:55:00 5.6 C 6.08 g/m*3 1.38 C 24.1 km/h
1880 12-01-2015 01:00:00 5.5 C 6.11 g/m*3 2.7 C 12.9 km/h
1881 12-01-2015 01:05:00 5.5 C 6.11 g/m*3 2.7 C 12.9 km/h
1882 12-01-2015 01:10:00 5.4 C 6.07 g/m*3 2.32 C 14.5 km/h
1883 12-01-2015 01:15:00 5.3 C 6.03 g/m*3 1.74 C 17.7 km/h
1884 12-01-2015 01:20:00 5.3 C 6.17 g/m*3 2.46 C 12.9 km/h
1885 12-01-2015 01:25:00 5.3 C 6.17 g/m*3 1.53 C 19.3 km/h
1886 12-01-2015 01:30:00 5.2 C 6.2 g/m*3 1.83 C 16.1 km/h
1887 12-01-2015 01:35:00 5.2 C 6.2 g/m*3 1.83 C 16.1 km/h
1888 12-01-2015 01:40:00 5.1 C 6.16 g/m*3 1.28 C 19.3 km/h
1889 12-01-2015 01:45:00 5.2 C 6.2 g/m*3 1.61 C 17.7 km/h
1890 12-01-2015 01:50:00 5.2 C 6.2 g/m*3 1.83 C 16.1 km/h
1891 12-01-2015 01:55:00 5.2 C 6.2 g/m*3 1.61 C 17.7 km/h
1892 12-01-2015 02:00:00 5.3 C 6.24 g/m*3 1.96 C 16.1 km/h
1893 12-01-2015 02:05:00 5.3 C 6.24 g/m*3 1.74 C 17.7 km/h
1894 12-01-2015 02:10:00 5.3 C 6.17 g/m*3 2.46 C 12.9 km/h
1895 12-01-2015 02:15:00 5.4 C 6.21 g/m*3 1.86 C 17.7 km/h
1896 12-01-2015 02:20:00 5.4 C 6.21 g/m*3 2.32 C 14.5 km/h
1897 12-01-2015 02:25:00 5.4 C 6.21 g/m*3 2.08 C 16.1 km/h
1898 12-01-2015 02:30:00 5.4 C 6.21 g/m*3 2.87 C 11.3 km/h
1899 12-01-2015 02:35:00 5.7 C 6.26 g/m*3 2.95 C 12.9 km/h
1900 12-01-2015 02:40:00 5.7 C 6.26 g/m*3 2.69 C 14.5 km/h
Sensor: Nr:Datum:Temp:Abs-Feuchte:Windchill:Wind:
Aussen-T/F 1901 12-01-2015 02:45:00 5.8 C 6.3 g/m*3 2.81 C 14.5 km/h
1902 12-01-2015 02:50:00 5.8 C 6.3 g/m*3 3.07 C 12.9 km/h
1903 12-01-2015 02:55:00 5.8 C 6.3 g/m*3 2.81 C 14.5 km/h
1904 12-01-2015 03:00:00 5.8 C 6.3 g/m*3 3.36 C 11.3 km/h
1905 12-01-2015 03:05:00 5.8 C 6.3 g/m*3 3.36 C 11.3 km/h
1906 12-01-2015 03:10:00 5.9 C 6.35 g/m*3 3.8 C 9.7 km/h
1907 12-01-2015 03:15:00 5.9 C 6.35 g/m*3 2.48 C 17.7 km/h
1908 12-01-2015 03:20:00 6 C 6.31 g/m*3 3.6 C 11.3 km/h
1909 12-01-2015 03:25:00 6 C 6.31 g/m*3 3.92 C 9.7 km/h
1910 12-01-2015 03:30:00 6.1 C 6.36 g/m*3 2.54 C 19.3 km/h
1911 12-01-2015 03:35:00 6.1 C 6.36 g/m*3 3.43 C 12.9 km/h
1912 12-01-2015 03:40:00 6.1 C 6.36 g/m*3 3.72 C 11.3 km/h
1913 12-01-2015 03:45:00 6.1 C 6.43 g/m*3 3.72 C 11.3 km/h
1914 12-01-2015 03:50:00 6.1 C 6.43 g/m*3 3.72 C 11.3 km/h
1915 12-01-2015 03:55:00 6.1 C 6.43 g/m*3 2.73 C 17.7 km/h
1916 12-01-2015 04:00:00 6.1 C 6.43 g/m*3 3.18 C 14.5 km/h
1917 12-01-2015 04:05:00 6.1 C 6.43 g/m*3 2.73 C 17.7 km/h
1918 12-01-2015 04:10:00 6.1 C 6.43 g/m*3 3.72 C 11.3 km/h
1919 12-01-2015 04:15:00 6.1 C 6.5 g/m*3 3.18 C 14.5 km/h
1920 12-01-2015 04:20:00 6 C 6.46 g/m*3 3.31 C 12.9 km/h
1921 12-01-2015 04:25:00 6 C 6.46 g/m*3 3.92 C 9.7 km/h
1922 12-01-2015 04:30:00 6 C 6.46 g/m*3 3.31 C 12.9 km/h
1923 12-01-2015 04:35:00 6 C 6.46 g/m*3 3.92 C 9.7 km/h
1924 12-01-2015 04:40:00 6.1 C 6.5 g/m*3 2.73 C 17.7 km/h
1925 12-01-2015 04:45:00 6.1 C 6.5 g/m*3 2.95 C 16.1 km/h
Sensor: Nr:Datum:Temp:Abs-Feuchte:Windchill:Wind:
Aussen-T/F 1926 12-01-2015 04:50:00 6.1 C 6.5 g/m*3 3.43 C 12.9 km/h
1927 12-01-2015 04:55:00 6.2 C 6.55 g/m*3 4.52 C 8.1 km/h
1928 12-01-2015 05:00:00 6.2 C 6.47 g/m*3 4.52 C 8.1 km/h
1929 12-01-2015 05:05:00 6.2 C 6.55 g/m*3 6.2 C 4.8 km/h
1930 12-01-2015 05:10:00 6.2 C 6.55 g/m*3 4.98 C 6.4 km/h
1931 12-01-2015 05:15:00 6.2 C 6.55 g/m*3 3.56 C 12.9 km/h
1932 12-01-2015 05:20:00 6.2 C 6.55 g/m*3 4.52 C 8.1 km/h
1933 12-01-2015 05:25:00 6.2 C 6.55 g/m*3 3.84 C 11.3 km/h
1934 12-01-2015 05:30:00 6.2 C 6.55 g/m*3 4.15 C 9.7 km/h
1935 12-01-2015 05:35:00 6.2 C 6.55 g/m*3 3.56 C 12.9 km/h
1936 12-01-2015 05:40:00 6.2 C 6.47 g/m*3 3.56 C 12.9 km/h
1937 12-01-2015 05:45:00 6.3 C 6.44 g/m*3 3.43 C 14.5 km/h
1938 12-01-2015 05:50:00 6.3 C 6.44 g/m*3 3.43 C 14.5 km/h
1939 12-01-2015 05:55:00 6.3 C 6.44 g/m*3 3.43 C 14.5 km/h
1940 12-01-2015 06:00:00 6.3 C 6.44 g/m*3 3.68 C 12.9 km/h
1941 12-01-2015 06:05:00 6.4 C 6.41 g/m*3 2.91 C 19.3 km/h
1942 12-01-2015 06:10:00 6.4 C 6.41 g/m*3 3.8 C 12.9 km/h
1943 12-01-2015 06:15:00 6.4 C 6.41 g/m*3 4.08 C 11.3 km/h
1944 12-01-2015 06:20:00 6.5 C 6.45 g/m*3 3.23 C 17.7 km/h
1945 12-01-2015 06:25:00 6.6 C 6.42 g/m*3 2.82 C 22.5 km/h
1946 12-01-2015 06:30:00 6.6 C 6.42 g/m*3 3.17 C 19.3 km/h
1947 12-01-2015 06:35:00 6.6 C 6.42 g/m*3 3.57 C 16.1 km/h
1948 12-01-2015 06:40:00 6.6 C 6.42 g/m*3 3.57 C 16.1 km/h
1949 12-01-2015 06:45:00 6.5 C 6.45 g/m*3 4.2 C 11.3 km/h
1950 12-01-2015 06:50:00 6.5 C 6.45 g/m*3 3.92 C 12.9 km/h
Sensor: Nr:Datum:Temp:Abs-Feuchte:Windchill:Wind:
Aussen-T/F 1951 12-01-2015 06:55:00 6.5 C 6.37 g/m*3 3.92 C 12.9 km/h
1952 12-01-2015 07:00:00 6.5 C 6.45 g/m*3 4.2 C 11.3 km/h
1953 12-01-2015 07:05:00 6.4 C 6.33 g/m*3 3.11 C 17.7 km/h
1954 12-01-2015 07:10:00 6.4 C 6.33 g/m*3 4.08 C 11.3 km/h
1955 12-01-2015 07:15:00 6.5 C 6.45 g/m*3 3.92 C 12.9 km/h
1956 12-01-2015 07:20:00 6.5 C 6.37 g/m*3 3.44 C 16.1 km/h
1957 12-01-2015 07:25:00 6.5 C 6.37 g/m*3 3.92 C 12.9 km/h
1958 12-01-2015 07:30:00 6.5 C 6.37 g/m*3 3.04 C 19.3 km/h
1959 12-01-2015 07:35:00 6.6 C 6.34 g/m*3 3.79 C 14.5 km/h
1960 12-01-2015 07:40:00 6.6 C 6.34 g/m*3 2.99 C 20.9 km/h
1961 12-01-2015 07:45:00 6.6 C 6.34 g/m*3 3.57 C 16.1 km/h
1962 12-01-2015 07:50:00 6.7 C 6.38 g/m*3 2.64 C 25.7 km/h
1963 12-01-2015 07:55:00 6.7 C 6.38 g/m*3 3.92 C 14.5 km/h
1964 12-01-2015 08:00:00 6.7 C 6.38 g/m*3 4.17 C 12.9 km/h
1965 12-01-2015 08:05:00 6.6 C 6.27 g/m*3 3.57 C 16.1 km/h
1966 12-01-2015 08:10:00 6.6 C 6.27 g/m*3 3.79 C 14.5 km/h
1967 12-01-2015 08:15:00 6.7 C 6.31 g/m*3 2.79 C 24.1 km/h
1968 12-01-2015 08:20:00 6.7 C 6.31 g/m*3 3.92 C 14.5 km/h
1969 12-01-2015 08:25:00 6.7 C 6.31 g/m*3 4.17 C 12.9 km/h
1970 12-01-2015 08:30:00 6.7 C 6.31 g/m*3 4.17 C 12.9 km/h
1971 12-01-2015 08:35:00 6.7 C 6.31 g/m*3 3.69 C 16.1 km/h
1972 12-01-2015 08:40:00 6.7 C 6.31 g/m*3 3.29 C 19.3 km/h
1973 12-01-2015 08:45:00 6.7 C 6.31 g/m*3 4.17 C 12.9 km/h
1974 12-01-2015 08:50:00 6.7 C 6.31 g/m*3 4.17 C 12.9 km/h
1975 12-01-2015 08:55:00 6.7 C 6.31 g/m*3 4.44 C 11.3 km/h
Sensor: Nr:Datum:Temp:Abs-Feuchte:Windchill:Wind:
Aussen-T/F 1976 12-01-2015 09:00:00 6.7 C 6.23 g/m*3 3.11 C 20.9 km/h
1977 12-01-2015 09:05:00 6.7 C 6.23 g/m*3 4.17 C 12.9 km/h
1978 12-01-2015 09:10:00 6.8 C 6.27 g/m*3 3.61 C 17.7 km/h
1979 12-01-2015 09:15:00 6.8 C 6.27 g/m*3 3.61 C 17.7 km/h
1980 12-01-2015 09:20:00 6.8 C 6.27 g/m*3 3.61 C 17.7 km/h
1981 12-01-2015 09:25:00 6.8 C 6.19 g/m*3 3.61 C 17.7 km/h
1982 12-01-2015 09:30:00 6.8 C 6.19 g/m*3 4.04 C 14.5 km/h
1983 12-01-2015 09:35:00 6.9 C 6.24 g/m*3 3.94 C 16.1 km/h
1984 12-01-2015 09:40:00 6.8 C 6.19 g/m*3 4.87 C 9.7 km/h
1985 12-01-2015 09:45:00 6.8 C 6.19 g/m*3 4.04 C 14.5 km/h
1986 12-01-2015 09:50:00 6.8 C 6.19 g/m*3 4.56 C 11.3 km/h
1987 12-01-2015 09:55:00 6.9 C 6.24 g/m*3 4.41 C 12.9 km/h
1988 12-01-2015 10:00:00 6.9 C 6.24 g/m*3 4.16 C 14.5 km/h
1989 12-01-2015 10:05:00 6.9 C 6.24 g/m*3 4.99 C 9.7 km/h
1990 12-01-2015 10:10:00 6.9 C 6.24 g/m*3 3.2 C 22.5 km/h
1991 12-01-2015 10:15:00 6.9 C 6.24 g/m*3 4.16 C 14.5 km/h
1992 12-01-2015 10:20:00 7 C 6.28 g/m*3 4.29 C 14.5 km/h
1993 12-01-2015 10:25:00 7.1 C 6.24 g/m*3 3.62 C 20.9 km/h
1994 12-01-2015 10:30:00 7.1 C 6.24 g/m*3 4.19 C 16.1 km/h
1995 12-01-2015 10:35:00 7.1 C 6.24 g/m*3 4.19 C 16.1 km/h
1996 12-01-2015 10:40:00 7.1 C 6.24 g/m*3 4.19 C 16.1 km/h
1997 12-01-2015 10:45:00 7.1 C 6.32 g/m*3 4.41 C 14.5 km/h
1998 12-01-2015 10:50:00 7.1 C 6.32 g/m*3 5.58 C 8.1 km/h
1999 12-01-2015 10:55:00 7 C 6.28 g/m*3 3.86 C 17.7 km/h
2000 12-01-2015 11:00:00 7 C 6.35 g/m*3 3.49 C 20.9 km/h
Sensor: Nr:Datum:Temp:Abs-Feuchte:Windchill:Wind:
Aussen-T/F 2001 12-01-2015 11:05:00 6.9 C 6.31 g/m*3 4.41 C 12.9 km/h
2002 12-01-2015 11:10:00 6.9 C 6.39 g/m*3 3.54 C 19.3 km/h
2003 12-01-2015 11:15:00 6.8 C 6.35 g/m*3 3.82 C 16.1 km/h
2004 12-01-2015 11:20:00 6.8 C 6.42 g/m*3 4.56 C 11.3 km/h
2005 12-01-2015 11:25:00 6.7 C 6.38 g/m*3 3.92 C 14.5 km/h
2006 12-01-2015 11:30:00 6.7 C 6.46 g/m*3 4.75 C 9.7 km/h
2007 12-01-2015 11:35:00 6.6 C 6.42 g/m*3 4.04 C 12.9 km/h
2008 12-01-2015 11:40:00 6.6 C 6.42 g/m*3 3.57 C 16.1 km/h
2009 12-01-2015 11:45:00 6.6 C 6.42 g/m*3 4.04 C 12.9 km/h
2010 12-01-2015 11:50:00 6.6 C 6.42 g/m*3 3.57 C 16.1 km/h
2011 12-01-2015 11:55:00 6.7 C 6.46 g/m*3 3.92 C 14.5 km/h
2012 12-01-2015 12:00:00 6.7 C 6.46 g/m*3 5.11 C 8.1 km/h
2013 12-01-2015 12:05:00 6.7 C 6.38 g/m*3 3.92 C 14.5 km/h
2014 12-01-2015 12:10:00 6.8 C 6.42 g/m*3 5.22 C 8.1 km/h
2015 12-01-2015 12:15:00 6.8 C 6.42 g/m*3 3.61 C 17.7 km/h
2016 12-01-2015 12:20:00 6.8 C 6.42 g/m*3 3.82 C 16.1 km/h
2017 12-01-2015 12:25:00 6.8 C 6.42 g/m*3 4.29 C 12.9 km/h
2018 12-01-2015 12:30:00 6.9 C 6.47 g/m*3 4.68 C 11.3 km/h
2019 12-01-2015 12:35:00 6.9 C 6.47 g/m*3 4.68 C 11.3 km/h
2020 12-01-2015 13:10:00 7.3 C 7.9 g/m*3 5.47 C 9.7 km/h
2021 12-01-2015 13:15:00 7.3 C 6.48 g/m*3 4.9 C 12.9 km/h
2022 12-01-2015 13:20:00 7.3 C 6.4 g/m*3 5.81 C 8.1 km/h
2023 12-01-2015 13:25:00 7.3 C 6.4 g/m*3 5.47 C 9.7 km/h
2024 12-01-2015 13:30:00 7.3 C 6.4 g/m*3 4.66 C 14.5 km/h
2025 12-01-2015 13:35:00 7.4 C 6.44 g/m*3 4.78 C 14.5 km/h
Sensor: Nr:Datum:Temp:Abs-Feuchte:Windchill:Wind:
Aussen-T/F 2026 12-01-2015 13:40:00 7.4 C 6.44 g/m*3 5.28 C 11.3 km/h
2027 12-01-2015 13:45:00 7.4 C 6.44 g/m*3 4.56 C 16.1 km/h
2028 12-01-2015 13:50:00 7.4 C 6.44 g/m*3 4.56 C 16.1 km/h
2029 12-01-2015 13:55:00 7.5 C 6.48 g/m*3 5.14 C 12.9 km/h
2030 12-01-2015 14:00:00 7.5 C 6.48 g/m*3 5.14 C 12.9 km/h
2031 12-01-2015 14:05:00 7.6 C 6.53 g/m*3 4.61 C 17.7 km/h
2032 12-01-2015 14:10:00 7.6 C 6.53 g/m*3 4.81 C 16.1 km/h
2033 12-01-2015 14:15:00 7.6 C 6.53 g/m*3 5.26 C 12.9 km/h
2034 12-01-2015 14:20:00 7.6 C 6.53 g/m*3 4.81 C 16.1 km/h
2035 12-01-2015 14:25:00 7.6 C 6.53 g/m*3 4.81 C 16.1 km/h
2036 12-01-2015 14:30:00 7.6 C 6.53 g/m*3 4.81 C 16.1 km/h
2037 12-01-2015 14:35:00 7.6 C 6.53 g/m*3 5.02 C 14.5 km/h
2038 12-01-2015 14:40:00 7.6 C 6.53 g/m*3 4.81 C 16.1 km/h
2039 12-01-2015 14:45:00 7.6 C 6.53 g/m*3 5.82 C 9.7 km/h
2040 12-01-2015 14:50:00 7.6 C 6.53 g/m*3 5.53 C 11.3 km/h
2041 12-01-2015 14:55:00 7.6 C 6.53 g/m*3 4.25 C 20.9 km/h
2042 12-01-2015 15:20:00 7.5 C 6.56 g/m*3 4.9 C 14.5 km/h
2043 12-01-2015 15:25:00 7.4 C 6.52 g/m*3 5.02 C 12.9 km/h
2044 12-01-2015 15:30:00 7.4 C 6.6 g/m*3 5.28 C 11.3 km/h
2045 12-01-2015 15:35:00 7.4 C 6.6 g/m*3 5.02 C 12.9 km/h
2046 12-01-2015 15:40:00 7.4 C 6.6 g/m*3 4.78 C 14.5 km/h
2047 12-01-2015 15:45:00 7.3 C 6.64 g/m*3 3.71 C 22.5 km/h
2048 12-01-2015 15:50:00 7.3 C 6.64 g/m*3 4.9 C 12.9 km/h
2049 12-01-2015 15:55:00 7.2 C 6.59 g/m*3 5.35 C 9.7 km/h
2050 12-01-2015 16:00:00 7.2 C 6.59 g/m*3 4.11 C 17.7 km/h
Sensor: Nr:Datum:Temp:Abs-Feuchte:Windchill:Wind:
Aussen-T/F 2051 12-01-2015 16:05:00 7.2 C 6.59 g/m*3 3.75 C 20.9 km/h
2052 12-01-2015 16:10:00 7.2 C 6.59 g/m*3 4.77 C 12.9 km/h
2053 12-01-2015 16:15:00 7.1 C 6.55 g/m*3 3.8 C 19.3 km/h
2054 12-01-2015 16:20:00 7.1 C 6.55 g/m*3 4.65 C 12.9 km/h
2055 12-01-2015 16:25:00 7.1 C 6.55 g/m*3 4.41 C 14.5 km/h
2056 12-01-2015 16:45:00 7.1 C 7.8 g/m*3 2.62 C 32.2 km/h
2057 12-01-2015 16:50:00 7.1 C 6.63 g/m*3 2.62 C 32.2 km/h
2058 12-01-2015 16:55:00 7.1 C 6.63 g/m*3 3.15 C 25.7 km/h
2059 12-01-2015 17:00:00 7.1 C 6.63 g/m*3 3.98 C 17.7 km/h
2060 12-01-2015 17:05:00 7.1 C 6.63 g/m*3 3.98 C 17.7 km/h
2061 12-01-2015 17:10:00 7.1 C 6.63 g/m*3 4.19 C 16.1 km/h
2062 12-01-2015 17:15:00 7.1 C 6.63 g/m*3 3.3 C 24.1 km/h
2063 12-01-2015 17:20:00 7.1 C 6.63 g/m*3 3.8 C 19.3 km/h
2064 12-01-2015 17:25:00 7.1 C 6.63 g/m*3 3.8 C 19.3 km/h
2065 12-01-2015 17:30:00 7.1 C 6.55 g/m*3 4.19 C 16.1 km/h
2066 12-01-2015 17:35:00 7.1 C 6.55 g/m*3 4.65 C 12.9 km/h
2067 12-01-2015 17:40:00 7.1 C 6.55 g/m*3 4.19 C 16.1 km/h
2068 12-01-2015 17:45:00 7.1 C 6.55 g/m*3 4.41 C 14.5 km/h
2069 12-01-2015 17:50:00 7.1 C 6.47 g/m*3 3.62 C 20.9 km/h
2070 12-01-2015 17:55:00 7.2 C 6.52 g/m*3 4.53 C 14.5 km/h
2071 12-01-2015 18:00:00 7.2 C 6.52 g/m*3 5.04 C 11.3 km/h
2072 12-01-2015 18:05:00 7.2 C 6.44 g/m*3 5.04 C 11.3 km/h
2073 12-01-2015 18:10:00 7.2 C 6.44 g/m*3 4.77 C 12.9 km/h
2074 12-01-2015 18:15:00 7.3 C 6.48 g/m*3 3.71 C 22.5 km/h
2075 12-01-2015 18:20:00 7.3 C 6.4 g/m*3 4.44 C 16.1 km/h
Sensor: Nr:Datum:Temp:Abs-Feuchte:Windchill:Wind:
Aussen-T/F 2076 12-01-2015 18:25:00 7.4 C 6.44 g/m*3 4.78 C 14.5 km/h
2077 12-01-2015 18:30:00 7.5 C 6.4 g/m*3 4.13 C 20.9 km/h
2078 12-01-2015 18:35:00 7.6 C 6.44 g/m*3 5.02 C 14.5 km/h
2079 12-01-2015 18:40:00 7.6 C 6.44 g/m*3 4.61 C 17.7 km/h
2080 12-01-2015 18:45:00 7.6 C 6.44 g/m*3 4.61 C 17.7 km/h
2081 12-01-2015 18:50:00 7.7 C 6.49 g/m*3 4.93 C 16.1 km/h
2082 12-01-2015 18:55:00 7.7 C 6.49 g/m*3 3.92 C 25.7 km/h
2083 12-01-2015 19:00:00 7.7 C 6.49 g/m*3 5.94 C 9.7 km/h
2084 12-01-2015 19:05:00 7.7 C 6.49 g/m*3 5.38 C 12.9 km/h
2085 12-01-2015 19:10:00 7.7 C 6.49 g/m*3 5.15 C 14.5 km/h
2086 12-01-2015 19:15:00 7.7 C 6.49 g/m*3 5.65 C 11.3 km/h
2087 12-01-2015 19:20:00 7.7 C 6.57 g/m*3 5.15 C 14.5 km/h
2088 12-01-2015 19:25:00 7.7 C 6.57 g/m*3 4.73 C 17.7 km/h
2089 12-01-2015 19:30:00 7.8 C 6.61 g/m*3 5.51 C 12.9 km/h
2090 12-01-2015 19:35:00 7.8 C 6.61 g/m*3 5.06 C 16.1 km/h
2091 12-01-2015 19:40:00 7.8 C 6.61 g/m*3 5.27 C 14.5 km/h
2092 12-01-2015 19:45:00 7.8 C 6.61 g/m*3 5.51 C 12.9 km/h
2093 12-01-2015 19:50:00 7.8 C 6.61 g/m*3 6.06 C 9.7 km/h
2094 12-01-2015 19:55:00 7.8 C 6.61 g/m*3 5.51 C 12.9 km/h
2095 12-01-2015 20:00:00 7.9 C 6.65 g/m*3 5.39 C 14.5 km/h
2096 12-01-2015 20:05:00 7.9 C 6.65 g/m*3 5.39 C 14.5 km/h
2097 12-01-2015 20:10:00 7.9 C 6.65 g/m*3 5.89 C 11.3 km/h
2098 12-01-2015 20:15:00 8 C 6.7 g/m*3 6.01 C 11.3 km/h
2099 12-01-2015 20:20:00 8.1 C 6.66 g/m*3 5.64 C 14.5 km/h
2100 12-01-2015 20:25:00 8.1 C 6.66 g/m*3 6.42 C 9.7 km/h
Sensor: Nr:Datum:Temp:Abs-Feuchte:Windchill:Wind:
Aussen-T/F 2101 12-01-2015 20:30:00 8.2 C 6.7 g/m*3 5.01 C 20.9 km/h
2102 12-01-2015 20:35:00 8.3 C 6.74 g/m*3 5.89 C 14.5 km/h
2103 12-01-2015 20:40:00 8.3 C 6.74 g/m*3 6.12 C 12.9 km/h
2104 12-01-2015 20:45:00 8.3 C 6.74 g/m*3 5.14 C 20.9 km/h
2105 12-01-2015 20:50:00 8.3 C 6.74 g/m*3 5.89 C 14.5 km/h
2106 12-01-2015 21:15:00 8.4 C 6.62 g/m*3 5.27 C 20.9 km/h
2107 12-01-2015 21:20:00 8.4 C 6.62 g/m*3 5.27 C 20.9 km/h
2108 12-01-2015 21:25:00 8.4 C 6.53 g/m*3 5.43 C 19.3 km/h
2109 12-01-2015 21:30:00 8.5 C 6.57 g/m*3 5.56 C 19.3 km/h
2110 12-01-2015 21:35:00 8.5 C 6.57 g/m*3 5.73 C 17.7 km/h
2111 12-01-2015 21:40:00 8.4 C 6.53 g/m*3 5.11 C 22.5 km/h
2112 12-01-2015 21:45:00 8.5 C 6.49 g/m*3 5.39 C 20.9 km/h
2113 12-01-2015 21:50:00 8.5 C 6.49 g/m*3 4.95 C 25.7 km/h
2114 12-01-2015 21:55:00 8.4 C 6.45 g/m*3 5.43 C 19.3 km/h
2115 12-01-2015 22:00:00 8.4 C 6.45 g/m*3 5.43 C 19.3 km/h
2116 12-01-2015 22:05:00 8.4 C 6.45 g/m*3 5.27 C 20.9 km/h
2117 12-01-2015 22:10:00 8.3 C 6.41 g/m*3 5.68 C 16.1 km/h
2118 12-01-2015 22:15:00 8.3 C 6.41 g/m*3 6.37 C 11.3 km/h
2119 12-01-2015 22:20:00 8.3 C 6.41 g/m*3 5.48 C 17.7 km/h
2120 12-01-2015 22:25:00 8.3 C 6.41 g/m*3 5.48 C 17.7 km/h
2121 12-01-2015 22:30:00 8.3 C 6.41 g/m*3 5.48 C 17.7 km/h
2122 12-01-2015 22:35:00 8.3 C 6.41 g/m*3 4.7 C 25.7 km/h
2123 12-01-2015 22:40:00 8.3 C 6.41 g/m*3 5.31 C 19.3 km/h
2124 12-01-2015 22:45:00 8.3 C 6.41 g/m*3 5.68 C 16.1 km/h
2125 12-01-2015 23:10:00 8.6 C 6.44 g/m*3 5.22 C 24.1 km/h
Sensor: Nr:Datum:Temp:Abs-Feuchte:Windchill:Wind:
Aussen-T/F 2126 12-01-2015 23:15:00 8.6 C 6.44 g/m*3 5.22 C 24.1 km/h
2127 12-01-2015 23:20:00 8.6 C 6.44 g/m*3 5.68 C 19.3 km/h
2128 12-01-2015 23:25:00 8.6 C 6.44 g/m*3 5.86 C 17.7 km/h
2129 12-01-2015 23:30:00 8.6 C 6.44 g/m*3 6.05 C 16.1 km/h
2130 12-01-2015 23:35:00 8.6 C 6.44 g/m*3 5.68 C 19.3 km/h
2131 12-01-2015 23:40:00 8.7 C 6.49 g/m*3 6.6 C 12.9 km/h
2132 12-01-2015 23:45:00 8.7 C 6.49 g/m*3 5.98 C 17.7 km/h
2133 12-01-2015 23:50:00 8.7 C 6.49 g/m*3 5.81 C 19.3 km/h
2134 12-01-2015 23:55:00 8.7 C 6.49 g/m*3 5.81 C 19.3 km/h
2135 13-01-2015 00:00:00 8.7 C 6.57 g/m*3 5.81 C 19.3 km/h
2136 13-01-2015 00:05:00 8.7 C 6.57 g/m*3 5.65 C 20.9 km/h
2137 13-01-2015 00:10:00 8.7 C 6.57 g/m*3 5.65 C 20.9 km/h
2138 13-01-2015 00:15:00 8.8 C 6.61 g/m*3 6.11 C 17.7 km/h
2139 13-01-2015 00:20:00 8.8 C 6.61 g/m*3 5.2 C 27.4 km/h
2140 13-01-2015 00:25:00 8.8 C 6.61 g/m*3 5.2 C 27.4 km/h
2141 13-01-2015 00:30:00 8.8 C 6.61 g/m*3 5.93 C 19.3 km/h
2142 13-01-2015 00:35:00 8.8 C 6.61 g/m*3 5.62 C 22.5 km/h
2143 13-01-2015 00:40:00 8.8 C 6.7 g/m*3 5.34 C 25.7 km/h
2144 13-01-2015 00:45:00 8.9 C 6.66 g/m*3 6.23 C 17.7 km/h
2145 13-01-2015 00:50:00 8.9 C 6.75 g/m*3 5.75 C 22.5 km/h
2146 13-01-2015 00:55:00 8.9 C 6.66 g/m*3 5.6 C 24.1 km/h
2147 13-01-2015 01:00:00 8.9 C 6.66 g/m*3 5.9 C 20.9 km/h
2148 13-01-2015 01:05:00 8.9 C 6.66 g/m*3 6.42 C 16.1 km/h
2149 13-01-2015 01:10:00 8.9 C 6.66 g/m*3 5.9 C 20.9 km/h
2150 13-01-2015 01:15:00 9 C 6.7 g/m*3 5.46 C 27.4 km/h
Sensor: Nr:Datum:Temp:Abs-Feuchte:Windchill:Wind:
Aussen-T/F 2151 13-01-2015 01:20:00 8.9 C 6.66 g/m*3 5.9 C 20.9 km/h
2152 13-01-2015 01:25:00 8.9 C 6.66 g/m*3 6.42 C 16.1 km/h
2153 13-01-2015 01:30:00 8.9 C 6.66 g/m*3 5.6 C 24.1 km/h
2154 13-01-2015 01:35:00 8.9 C 6.75 g/m*3 6.23 C 17.7 km/h
2155 13-01-2015 01:40:00 8.9 C 6.75 g/m*3 5.9 C 20.9 km/h
2156 13-01-2015 01:45:00 8.9 C 6.75 g/m*3 6.42 C 16.1 km/h
2157 13-01-2015 01:50:00 8.9 C 6.75 g/m*3 5.6 C 24.1 km/h
2158 13-01-2015 01:55:00 9 C 6.79 g/m*3 6.19 C 19.3 km/h
2159 13-01-2015 02:00:00 9.1 C 6.74 g/m*3 6.15 C 20.9 km/h
2160 13-01-2015 02:05:00 9.1 C 6.74 g/m*3 6 C 22.5 km/h
2161 13-01-2015 02:10:00 9.1 C 6.74 g/m*3 6.67 C 16.1 km/h
2162 13-01-2015 02:15:00 8.9 C 6.75 g/m*3 5.9 C 20.9 km/h
2163 13-01-2015 02:20:00 8.9 C 6.75 g/m*3 5.75 C 22.5 km/h
2164 13-01-2015 02:25:00 8.9 C 6.75 g/m*3 6.42 C 16.1 km/h
2165 13-01-2015 02:30:00 8.9 C 6.75 g/m*3 6.23 C 17.7 km/h
2166 13-01-2015 02:35:00 8.9 C 6.75 g/m*3 5.75 C 22.5 km/h
2167 13-01-2015 02:40:00 8.9 C 6.75 g/m*3 6.06 C 19.3 km/h
2168 13-01-2015 02:45:00 8.9 C 6.75 g/m*3 6.06 C 19.3 km/h
2169 13-01-2015 02:50:00 8.9 C 6.75 g/m*3 6.23 C 17.7 km/h
2170 13-01-2015 02:55:00 8.9 C 6.75 g/m*3 5.9 C 20.9 km/h
2171 13-01-2015 03:00:00 8.8 C 6.79 g/m*3 6.5 C 14.5 km/h
2172 13-01-2015 03:05:00 8.8 C 6.79 g/m*3 6.11 C 17.7 km/h
2173 13-01-2015 03:10:00 8.9 C 6.75 g/m*3 5.9 C 20.9 km/h
2174 13-01-2015 03:15:00 8.8 C 6.79 g/m*3 6.3 C 16.1 km/h
2175 13-01-2015 03:20:00 8.9 C 6.83 g/m*3 6.62 C 14.5 km/h
Sensor: Nr:Datum:Temp:Abs-Feuchte:Windchill:Wind:
Aussen-T/F 2176 13-01-2015 03:25:00 8.9 C 6.75 g/m*3 6.85 C 12.9 km/h
2177 13-01-2015 03:30:00 8.9 C 6.83 g/m*3 6.06 C 19.3 km/h
2178 13-01-2015 03:35:00 8.9 C 6.83 g/m*3 6.42 C 16.1 km/h
2179 13-01-2015 03:40:00 8.9 C 6.83 g/m*3 7.37 C 9.7 km/h
2180 13-01-2015 03:45:00 8.9 C 6.83 g/m*3 7.37 C 9.7 km/h
2181 13-01-2015 03:50:00 8.9 C 6.83 g/m*3 7.09 C 11.3 km/h
2182 13-01-2015 03:55:00 8.9 C 6.83 g/m*3 7.69 C 8.1 km/h
2183 13-01-2015 04:00:00 8.9 C 6.75 g/m*3 7.69 C 8.1 km/h
2184 13-01-2015 04:05:00 9.1 C 6.83 g/m*3 7.33 C 11.3 km/h
2185 13-01-2015 04:10:00 9.1 C 6.74 g/m*3 7.09 C 12.9 km/h
2186 13-01-2015 04:15:00 9.1 C 6.74 g/m*3 7.61 C 9.7 km/h
2187 13-01-2015 04:20:00 9.1 C 6.74 g/m*3 7.33 C 11.3 km/h
2188 13-01-2015 04:25:00 9.1 C 6.74 g/m*3 7.33 C 11.3 km/h
2189 13-01-2015 04:30:00 9.2 C 6.7 g/m*3 7.21 C 12.9 km/h
2190 13-01-2015 04:35:00 9.3 C 6.65 g/m*3 7.12 C 14.5 km/h
2191 13-01-2015 04:40:00 9.3 C 6.65 g/m*3 7.58 C 11.3 km/h
2192 13-01-2015 04:45:00 9.3 C 6.65 g/m*3 6.56 C 19.3 km/h
2193 13-01-2015 04:50:00 9.4 C 6.6 g/m*3 7.24 C 14.5 km/h
2194 13-01-2015 04:55:00 9.4 C 6.6 g/m*3 7.46 C 12.9 km/h
2195 13-01-2015 05:00:00 9.4 C 6.6 g/m*3 6.86 C 17.7 km/h
2196 13-01-2015 05:05:00 9.4 C 6.51 g/m*3 7.24 C 14.5 km/h
2197 13-01-2015 05:10:00 9.4 C 6.51 g/m*3 7.24 C 14.5 km/h
2198 13-01-2015 05:15:00 9.4 C 6.51 g/m*3 7.7 C 11.3 km/h
2199 13-01-2015 05:20:00 9.2 C 6.52 g/m*3 7.46 C 11.3 km/h
2200 13-01-2015 05:25:00 9.1 C 6.57 g/m*3 8.33 C 6.4 km/h
Sensor: Nr:Datum:Temp:Abs-Feuchte:Windchill:Wind:
Aussen-T/F 2201 13-01-2015 05:30:00 9 C 6.52 g/m*3 7.21 C 11.3 km/h
2202 13-01-2015 05:35:00 9.1 C 6.48 g/m*3 8.33 C 6.4 km/h
2203 13-01-2015 05:40:00 9.1 C 6.57 g/m*3 7.93 C 8.1 km/h
2204 13-01-2015 05:45:00 9.1 C 6.57 g/m*3 8.33 C 6.4 km/h
2205 13-01-2015 05:50:00 9.1 C 6.65 g/m*3 9.1 C 4.8 km/h
2206 13-01-2015 05:55:00 9 C 6.52 g/m*3 8.21 C 6.4 km/h
2207 13-01-2015 06:00:00 9.1 C 6.48 g/m*3 9.1 C 3.2 km/h
2208 13-01-2015 06:05:00 9.2 C 6.43 g/m*3 7.46 C 11.3 km/h
2209 13-01-2015 06:10:00 9.4 C 6.42 g/m*3 8.68 C 6.4 km/h
2210 13-01-2015 06:15:00 9.3 C 6.47 g/m*3 8.56 C 6.4 km/h
2211 13-01-2015 06:20:00 9.3 C 6.38 g/m*3 8.56 C 6.4 km/h
2212 13-01-2015 06:25:00 9.4 C 6.42 g/m*3 7.7 C 11.3 km/h
2213 13-01-2015 06:30:00 9.4 C 6.51 g/m*3 9.4 C 4.8 km/h
2214 13-01-2015 06:35:00 9.4 C 6.42 g/m*3 8.68 C 6.4 km/h
2215 13-01-2015 06:40:00 9.4 C 6.33 g/m*3 9.4 C 4.8 km/h
2216 13-01-2015 06:45:00 9.3 C 6.29 g/m*3 9.3 C 4.8 km/h
2217 13-01-2015 06:50:00 9.2 C 6.34 g/m*3 9.2 C 3.2 km/h
2218 13-01-2015 06:55:00 9.2 C 6.34 g/m*3 9.2 C 4.8 km/h
2219 13-01-2015 07:00:00 8.9 C 6.39 g/m*3 8.9 C 1.6 km/h
2220 13-01-2015 07:05:00 8.7 C 6.31 g/m*3 8.7 C 4.8 km/h
2221 13-01-2015 07:10:00 8.6 C 6.27 g/m*3 7.75 C 6.4 km/h
2222 13-01-2015 07:15:00 8.6 C 6.19 g/m*3 8.6 C 4.8 km/h
2223 13-01-2015 07:20:00 8.6 C 6.19 g/m*3 8.6 C 3.2 km/h
2224 13-01-2015 07:25:00 8.4 C 6.45 g/m*3 7.52 C 6.4 km/h
2225 13-01-2015 07:30:00 8.2 C 6.62 g/m*3 8.2 C 3.2 km/h
Sensor: Nr:Datum:Temp:Abs-Feuchte:Windchill:Wind:
Aussen-T/F 2226 13-01-2015 07:35:00 8.3 C 6.41 g/m*3 6.66 C 9.7 km/h
2227 13-01-2015 07:40:00 8.7 C 6.4 g/m*3 7.87 C 6.4 km/h
2228 13-01-2015 07:45:00 8.8 C 6.61 g/m*3 8.8 C 3.2 km/h
2229 13-01-2015 07:50:00 8.8 C 6.61 g/m*3 8.8 C 3.2 km/h
2230 13-01-2015 08:05:00 9 C 8.82 g/m*3 7.81 C 8.1 km/h
2231 13-01-2015 08:10:00 9 C 8.82 g/m*3 7.81 C 8.1 km/h
2232 13-01-2015 12:10:00 11.2 C 10.14 g/m*3 11.2 C 20.9 km/h
2233 13-01-2015 12:15:00 11.2 C 6.59 g/m*3 11.2 C 22.5 km/h
2234 13-01-2015 12:20:00 11.3 C 6.63 g/m*3 11.3 C 9.7 km/h
2235 13-01-2015 12:25:00 11.3 C 6.63 g/m*3 11.3 C 14.5 km/h
2236 13-01-2015 12:30:00 11.4 C 6.57 g/m*3 11.4 C 16.1 km/h
2237 13-01-2015 12:35:00 11.3 C 6.63 g/m*3 11.3 C 11.3 km/h
2238 13-01-2015 12:40:00 11.3 C 6.53 g/m*3 11.3 C 17.7 km/h
2239 13-01-2015 12:45:00 11.6 C 6.65 g/m*3 11.6 C 16.1 km/h
2240 13-01-2015 12:50:00 11.7 C 6.59 g/m*3 11.7 C 20.9 km/h
2241 13-01-2015 12:55:00 11.8 C 6.63 g/m*3 11.8 C 19.3 km/h
2242 13-01-2015 13:00:00 11.9 C 6.57 g/m*3 11.9 C 17.7 km/h
2243 13-01-2015 13:05:00 11.9 C 6.67 g/m*3 11.9 C 14.5 km/h
2244 13-01-2015 13:10:00 12.2 C 6.69 g/m*3 12.2 C 20.9 km/h
2245 13-01-2015 13:15:00 12.4 C 6.56 g/m*3 12.4 C 22.5 km/h
2246 13-01-2015 13:20:00 12.6 C 6.53 g/m*3 12.6 C 24.1 km/h
2247 13-01-2015 13:25:00 12.8 C 6.61 g/m*3 12.8 C 16.1 km/h
2248 13-01-2015 13:30:00 12.9 C 6.65 g/m*3 12.9 C 17.7 km/h
2249 13-01-2015 13:35:00 13.1 C 6.62 g/m*3 13.1 C 14.5 km/h
2250 13-01-2015 13:40:00 13.2 C 6.66 g/m*3 13.2 C 14.5 km/h
Sensor: Nr:Datum:Temp:Abs-Feuchte:Windchill:Wind:
Aussen-T/F 2251 13-01-2015 13:45:00 13.2 C 6.66 g/m*3 13.2 C 20.9 km/h
2252 13-01-2015 13:50:00 13.2 C 6.54 g/m*3 13.2 C 19.3 km/h
2253 13-01-2015 13:55:00 13.3 C 6.59 g/m*3 13.3 C 25.7 km/h
2254 13-01-2015 14:00:00 13.3 C 6.47 g/m*3 13.3 C 17.7 km/h
2255 13-01-2015 14:05:00 13.3 C 6.59 g/m*3 13.3 C 27.4 km/h
2256 13-01-2015 14:10:00 13.4 C 6.51 g/m*3 13.4 C 25.7 km/h
2257 13-01-2015 14:15:00 13.3 C 6.47 g/m*3 13.3 C 25.7 km/h
2258 13-01-2015 14:20:00 13.4 C 6.51 g/m*3 13.4 C 20.9 km/h
2259 13-01-2015 14:25:00 13.6 C 6.71 g/m*3 13.6 C 20.9 km/h
2260 13-01-2015 14:30:00 13.6 C 6.59 g/m*3 13.6 C 22.5 km/h
2261 13-01-2015 14:35:00 13.6 C 6.59 g/m*3 13.6 C 24.1 km/h
2262 13-01-2015 14:40:00 13.6 C 6.59 g/m*3 13.6 C 17.7 km/h
2263 13-01-2015 14:45:00 13.6 C 6.59 g/m*3 13.6 C 14.5 km/h
2264 13-01-2015 14:50:00 13.5 C 6.55 g/m*3 13.5 C 24.1 km/h
2265 13-01-2015 14:55:00 13.5 C 6.55 g/m*3 13.5 C 20.9 km/h
2266 13-01-2015 15:00:00 13.4 C 6.63 g/m*3 13.4 C 24.1 km/h
2267 13-01-2015 15:05:00 13.4 C 6.63 g/m*3 13.4 C 19.3 km/h
2268 13-01-2015 15:10:00 13.5 C 6.78 g/m*3 13.5 C 16.1 km/h
2269 13-01-2015 15:15:00 13.5 C 6.78 g/m*3 13.5 C 14.5 km/h
2270 13-01-2015 15:20:00 13.4 C 6.74 g/m*3 13.4 C 25.7 km/h
2271 13-01-2015 15:25:00 13.4 C 6.74 g/m*3 13.4 C 14.5 km/h
2272 13-01-2015 15:30:00 13.4 C 6.74 g/m*3 13.4 C 11.3 km/h
2273 13-01-2015 15:35:00 13.1 C 6.62 g/m*3 13.1 C 16.1 km/h
2274 13-01-2015 15:40:00 13.1 C 6.62 g/m*3 13.1 C 12.9 km/h
2275 13-01-2015 16:10:00 11.9 C 7.84 g/m*3 11.9 C 19.3 km/h
Sensor: Nr:Datum:Temp:Abs-Feuchte:Windchill:Wind:
Aussen-T/F 2276 13-01-2015 16:15:00 11.9 C 7.84 g/m*3 11.9 C 17.7 km/h
2277 13-01-2015 16:20:00 11.9 C 7.94 g/m*3 11.9 C 20.9 km/h
2278 13-01-2015 16:25:00 11.8 C 8 g/m*3 11.8 C 11.3 km/h
2279 13-01-2015 16:30:00 11.7 C 7.95 g/m*3 11.7 C 22.5 km/h
2280 13-01-2015 16:35:00 11.7 C 8.05 g/m*3 11.7 C 16.1 km/h
2281 13-01-2015 16:40:00 11.7 C 8.05 g/m*3 11.7 C 32.2 km/h
2282 13-01-2015 16:45:00 11.7 C 8.05 g/m*3 11.7 C 19.3 km/h
2283 13-01-2015 16:50:00 11.6 C 8.11 g/m*3 11.6 C 19.3 km/h
2284 13-01-2015 16:55:00 11.5 C 8.06 g/m*3 11.5 C 22.5 km/h
2285 13-01-2015 17:00:00 11.4 C 8.11 g/m*3 11.4 C 11.3 km/h
2286 13-01-2015 17:05:00 11.4 C 8.21 g/m*3 11.4 C 17.7 km/h
2287 13-01-2015 17:10:00 11.3 C 8.16 g/m*3 11.3 C 14.5 km/h
2288 13-01-2015 17:15:00 11.3 C 8.26 g/m*3 11.3 C 19.3 km/h
2289 13-01-2015 17:20:00 11.2 C 8.21 g/m*3 11.2 C 14.5 km/h
2290 13-01-2015 17:25:00 11.2 C 8.21 g/m*3 11.2 C 32.2 km/h
2291 13-01-2015 17:30:00 11.1 C 8.16 g/m*3 11.1 C 17.7 km/h
2292 13-01-2015 17:35:00 11.1 C 8.16 g/m*3 11.1 C 17.7 km/h
2293 13-01-2015 17:40:00 11.1 C 8.16 g/m*3 11.1 C 22.5 km/h
2294 13-01-2015 17:45:00 11.1 C 8.26 g/m*3 11.1 C 11.3 km/h
2295 13-01-2015 17:50:00 11 C 8.21 g/m*3 9.02 C 16.1 km/h
2296 13-01-2015 17:55:00 10.9 C 8.26 g/m*3 8.73 C 17.7 km/h
2297 13-01-2015 18:00:00 10.8 C 8.2 g/m*3 8.61 C 17.7 km/h
2298 13-01-2015 18:05:00 10.8 C 8.2 g/m*3 8.61 C 17.7 km/h
2299 13-01-2015 18:10:00 10.8 C 8.2 g/m*3 8.78 C 16.1 km/h
2300 13-01-2015 18:15:00 10.8 C 8.2 g/m*3 8.3 C 20.9 km/h
Sensor: Nr:Datum:Temp:Abs-Feuchte:Windchill:Wind:
Aussen-T/F 2301 13-01-2015 18:20:00 10.8 C 8.11 g/m*3 8.3 C 20.9 km/h
2302 13-01-2015 18:25:00 10.8 C 8.2 g/m*3 8.45 C 19.3 km/h
2303 13-01-2015 18:30:00 10.8 C 8.11 g/m*3 8.3 C 20.9 km/h
2304 13-01-2015 18:35:00 10.8 C 8.11 g/m*3 8.04 C 24.1 km/h
2305 13-01-2015 18:40:00 10.8 C 8.11 g/m*3 7.68 C 29 km/h
2306 13-01-2015 18:45:00 10.7 C 8.15 g/m*3 8.18 C 20.9 km/h
2307 13-01-2015 18:50:00 10.6 C 8.1 g/m*3 7.66 C 25.7 km/h
2308 13-01-2015 18:55:00 10.4 C 8.19 g/m*3 7.16 C 29 km/h
2309 13-01-2015 19:00:00 10.3 C 8.14 g/m*3 7.98 C 17.7 km/h
2310 13-01-2015 19:05:00 10.2 C 8.09 g/m*3 7.4 C 22.5 km/h
2311 13-01-2015 19:10:00 10.2 C 8.09 g/m*3 7.02 C 27.4 km/h
2312 13-01-2015 19:15:00 10.2 C 8.09 g/m*3 7.4 C 22.5 km/h
2313 13-01-2015 19:20:00 10.1 C 8.04 g/m*3 7.42 C 20.9 km/h
2314 13-01-2015 19:25:00 10.1 C 8.04 g/m*3 7.42 C 20.9 km/h
2315 13-01-2015 19:30:00 10.2 C 7.99 g/m*3 7.02 C 27.4 km/h
2316 13-01-2015 19:35:00 10.1 C 8.04 g/m*3 7.91 C 16.1 km/h
2317 13-01-2015 19:40:00 10.1 C 8.04 g/m*3 7.91 C 16.1 km/h
2318 13-01-2015 19:45:00 10.1 C 8.04 g/m*3 8.1 C 14.5 km/h
2319 13-01-2015 19:50:00 10.1 C 8.04 g/m*3 7.91 C 16.1 km/h
2320 13-01-2015 19:55:00 9.9 C 8.03 g/m*3 7.16 C 20.9 km/h
2321 13-01-2015 20:00:00 9.9 C 8.03 g/m*3 7.32 C 19.3 km/h
2322 13-01-2015 20:05:00 9.9 C 8.03 g/m*3 7.48 C 17.7 km/h
2323 13-01-2015 20:10:00 9.8 C 7.98 g/m*3 7.73 C 14.5 km/h
2324 13-01-2015 20:15:00 9.6 C 8.06 g/m*3 6.94 C 19.3 km/h
2325 13-01-2015 20:20:00 9.6 C 8.06 g/m*3 7.94 C 11.3 km/h
Sensor: Nr:Datum:Temp:Abs-Feuchte:Windchill:Wind:
Aussen-T/F 2326 13-01-2015 20:25:00 9.5 C 8.01 g/m*3 8.4 C 8.1 km/h
2327 13-01-2015 20:30:00 9.5 C 8.01 g/m*3 7.82 C 11.3 km/h
2328 13-01-2015 21:40:00 8.9 C 7.36 g/m*3 8.1 C 6.4 km/h
2329 13-01-2015 21:45:00 8.9 C 7.36 g/m*3 7.09 C 11.3 km/h
2330 13-01-2015 21:50:00 8.7 C 7.26 g/m*3 8.7 C 4.8 km/h
2331 13-01-2015 21:55:00 8.6 C 7.3 g/m*3 7.01 C 9.7 km/h
2332 13-01-2015 22:00:00 8.7 C 7.35 g/m*3 8.7 C 4.8 km/h
2333 13-01-2015 22:05:00 8.7 C 7.35 g/m*3 7.13 C 9.7 km/h
2334 13-01-2015 22:10:00 8.8 C 7.4 g/m*3 7.25 C 9.7 km/h
2335 13-01-2015 22:15:00 8.8 C 7.31 g/m*3 7.58 C 8.1 km/h
2336 13-01-2015 22:20:00 8.8 C 7.31 g/m*3 7.25 C 9.7 km/h
2337 13-01-2015 22:25:00 8.8 C 7.31 g/m*3 6.97 C 11.3 km/h
2338 13-01-2015 22:30:00 8.9 C 7.36 g/m*3 7.09 C 11.3 km/h
2339 13-01-2015 22:35:00 8.8 C 7.31 g/m*3 6.97 C 11.3 km/h
2340 13-01-2015 22:40:00 8.8 C 7.31 g/m*3 7.58 C 8.1 km/h
2341 13-01-2015 22:45:00 8.8 C 7.31 g/m*3 8.8 C 4.8 km/h
2342 13-01-2015 22:50:00 8.7 C 7.35 g/m*3 7.87 C 6.4 km/h
2343 13-01-2015 22:55:00 8.5 C 7.34 g/m*3 8.5 C 4.8 km/h
2344 13-01-2015 23:00:00 8.4 C 7.3 g/m*3 8.4 C 4.8 km/h
2345 13-01-2015 23:05:00 8.3 C 7.25 g/m*3 8.3 C 3.2 km/h
2346 13-01-2015 23:10:00 8.3 C 7.25 g/m*3 8.3 C 4.8 km/h
2347 13-01-2015 23:15:00 8.3 C 7.25 g/m*3 6.37 C 11.3 km/h
2348 13-01-2015 23:20:00 8.3 C 7.25 g/m*3 6.66 C 9.7 km/h
2349 13-01-2015 23:25:00 8.3 C 7.25 g/m*3 7.41 C 6.4 km/h
2350 13-01-2015 23:30:00 8.4 C 7.3 g/m*3 8.4 C 4.8 km/h
Sensor: Nr:Datum:Temp:Abs-Feuchte:Windchill:Wind:
Aussen-T/F 2351 13-01-2015 23:35:00 8.4 C 7.3 g/m*3 7.52 C 6.4 km/h
2352 13-01-2015 23:40:00 8.5 C 7.34 g/m*3 8.5 C 4.8 km/h
2353 13-01-2015 23:45:00 8.4 C 7.3 g/m*3 8.4 C 4.8 km/h
2354 13-01-2015 23:50:00 8.4 C 7.3 g/m*3 6.78 C 9.7 km/h
2355 13-01-2015 23:55:00 8.4 C 7.3 g/m*3 8.4 C 4.8 km/h
2356 14-01-2015 00:00:00 8.4 C 7.3 g/m*3 7.52 C 6.4 km/h
2357 14-01-2015 00:05:00 8.3 C 7.25 g/m*3 8.3 C 3.2 km/h
2358 14-01-2015 00:10:00 8.3 C 7.33 g/m*3 8.3 C 4.8 km/h
2359 14-01-2015 00:15:00 8.3 C 7.33 g/m*3 7.41 C 6.4 km/h
2360 14-01-2015 00:20:00 8.4 C 7.3 g/m*3 8.4 C 4.8 km/h
2361 14-01-2015 00:25:00 8.5 C 7.34 g/m*3 7.64 C 6.4 km/h
2362 14-01-2015 00:30:00 8.5 C 7.34 g/m*3 7.22 C 8.1 km/h
2363 14-01-2015 00:35:00 8.6 C 7.39 g/m*3 6.73 C 11.3 km/h
2364 14-01-2015 00:40:00 8.6 C 7.39 g/m*3 6.73 C 11.3 km/h
2365 14-01-2015 00:45:00 8.6 C 7.39 g/m*3 7.75 C 6.4 km/h
2366 14-01-2015 00:50:00 8.6 C 7.39 g/m*3 8.6 C 4.8 km/h
2367 14-01-2015 00:55:00 8.4 C 7.3 g/m*3 7.52 C 6.4 km/h
2368 14-01-2015 01:00:00 8.4 C 7.3 g/m*3 8.4 C 4.8 km/h
2369 14-01-2015 01:05:00 8.4 C 7.3 g/m*3 8.4 C 3.2 km/h
2370 14-01-2015 01:10:00 8.3 C 7.33 g/m*3 8.3 C 4.8 km/h
2371 14-01-2015 01:15:00 8.2 C 7.29 g/m*3 8.2 C 3.2 km/h
2372 14-01-2015 01:20:00 8.2 C 7.37 g/m*3 8.2 C 4.8 km/h
2373 14-01-2015 01:25:00 8.1 C 7.32 g/m*3 8.1 C 1.6 km/h
2374 14-01-2015 01:30:00 8 C 7.36 g/m*3 8 C 1.6 km/h
2375 14-01-2015 01:35:00 7.9 C 7.31 g/m*3 7.9 C 1.6 km/h
Sensor: Nr:Datum:Temp:Abs-Feuchte:Windchill:Wind:
Aussen-T/F 2376 14-01-2015 01:40:00 8 C 7.36 g/m*3 7.06 C 6.4 km/h
2377 14-01-2015 01:45:00 8.1 C 7.32 g/m*3 7.17 C 6.4 km/h
2378 14-01-2015 01:50:00 8.3 C 7.33 g/m*3 6.66 C 9.7 km/h
2379 14-01-2015 01:55:00 8.3 C 7.25 g/m*3 6.99 C 8.1 km/h
2380 14-01-2015 02:00:00 8.3 C 7.25 g/m*3 6.66 C 9.7 km/h
2381 14-01-2015 02:05:00 8.2 C 7.2 g/m*3 7.29 C 6.4 km/h
2382 14-01-2015 02:10:00 8.2 C 7.2 g/m*3 6.87 C 8.1 km/h
2383 14-01-2015 02:15:00 8.2 C 7.2 g/m*3 7.29 C 6.4 km/h
2384 14-01-2015 02:20:00 8.1 C 7.16 g/m*3 7.17 C 6.4 km/h
2385 14-01-2015 02:25:00 8.2 C 7.2 g/m*3 8.2 C 3.2 km/h
2386 14-01-2015 02:30:00 8.2 C 7.2 g/m*3 8.2 C 3.2 km/h
2387 14-01-2015 02:35:00 8 C 7.11 g/m*3 7.06 C 6.4 km/h
2388 14-01-2015 02:40:00 8.1 C 7.16 g/m*3 5.87 C 12.9 km/h
2389 14-01-2015 02:45:00 8.3 C 7.08 g/m*3 5.68 C 16.1 km/h
2390 14-01-2015 02:50:00 8.5 C 7 g/m*3 5.09 C 24.1 km/h
2391 14-01-2015 02:55:00 8.6 C 6.96 g/m*3 5.37 C 22.5 km/h
2392 14-01-2015 03:00:00 8.6 C 6.87 g/m*3 6.73 C 11.3 km/h
2393 14-01-2015 03:05:00 8.6 C 6.79 g/m*3 5.37 C 22.5 km/h
2394 14-01-2015 03:10:00 8.7 C 6.83 g/m*3 6.17 C 16.1 km/h
2395 14-01-2015 03:15:00 8.7 C 6.83 g/m*3 7.13 C 9.7 km/h
2396 14-01-2015 03:20:00 8.7 C 6.83 g/m*3 5.98 C 17.7 km/h
2397 14-01-2015 03:25:00 8.7 C 6.75 g/m*3 5.49 C 22.5 km/h
2398 14-01-2015 03:30:00 8.7 C 6.75 g/m*3 6.17 C 16.1 km/h
2399 14-01-2015 03:35:00 8.7 C 6.83 g/m*3 6.17 C 16.1 km/h
2400 14-01-2015 03:40:00 8.8 C 6.79 g/m*3 5.48 C 24.1 km/h
Sensor: Nr:Datum:Temp:Abs-Feuchte:Windchill:Wind:
Aussen-T/F 2401 14-01-2015 03:45:00 8.7 C 6.75 g/m*3 6.6 C 12.9 km/h
2402 14-01-2015 03:50:00 8.7 C 6.66 g/m*3 5.35 C 24.1 km/h
2403 14-01-2015 03:55:00 8.8 C 6.61 g/m*3 4.75 C 33.8 km/h
2404 14-01-2015 04:00:00 8.8 C 6.53 g/m*3 4.97 C 30.6 km/h
2405 14-01-2015 04:05:00 8.8 C 6.53 g/m*3 5.77 C 20.9 km/h
2406 14-01-2015 04:10:00 8.8 C 6.53 g/m*3 5.62 C 22.5 km/h
2407 14-01-2015 04:15:00 8.8 C 6.53 g/m*3 5.62 C 22.5 km/h
2408 14-01-2015 04:20:00 8.8 C 6.44 g/m*3 5.62 C 22.5 km/h
2409 14-01-2015 04:25:00 8.7 C 6.49 g/m*3 5.81 C 19.3 km/h
2410 14-01-2015 04:30:00 8.7 C 6.49 g/m*3 5.81 C 19.3 km/h
2411 14-01-2015 04:35:00 8.8 C 6.61 g/m*3 4.45 C 38.6 km/h
2412 14-01-2015 04:40:00 8.6 C 6.79 g/m*3 5.52 C 20.9 km/h
2413 14-01-2015 04:45:00 8.4 C 6.7 g/m*3 6.24 C 12.9 km/h
2414 14-01-2015 04:50:00 8.4 C 6.87 g/m*3 6.24 C 12.9 km/h
2415 14-01-2015 04:55:00 7.8 C 6.94 g/m*3 4.51 C 20.9 km/h
2416 14-01-2015 05:00:00 7.4 C 6.92 g/m*3 3.68 C 24.1 km/h
2417 14-01-2015 05:05:00 7 C 6.66 g/m*3 3.17 C 24.1 km/h
2418 14-01-2015 05:10:00 6.7 C 6.46 g/m*3 3.29 C 19.3 km/h
2419 14-01-2015 05:15:00 6.6 C 6.34 g/m*3 2.36 C 27.4 km/h
2420 14-01-2015 05:20:00 6.3 C 6.22 g/m*3 3.68 C 12.9 km/h
2421 14-01-2015 05:25:00 6.2 C 6.25 g/m*3 3.84 C 11.3 km/h
2422 14-01-2015 05:30:00 6.1 C 6.28 g/m*3 4.04 C 9.7 km/h
2423 14-01-2015 05:35:00 6.1 C 6.28 g/m*3 4.04 C 9.7 km/h
2424 14-01-2015 05:40:00 5.9 C 6.06 g/m*3 2.1 C 20.9 km/h
2425 14-01-2015 05:45:00 5.9 C 6.06 g/m*3 3.8 C 9.7 km/h
Sensor: Nr:Datum:Temp:Abs-Feuchte:Windchill:Wind:
Aussen-T/F 2426 14-01-2015 05:50:00 5.9 C 6.06 g/m*3 3.48 C 11.3 km/h
2427 14-01-2015 05:55:00 5.8 C 6.09 g/m*3 4.05 C 8.1 km/h
2428 14-01-2015 06:00:00 5.6 C 6.08 g/m*3 4.29 C 6.4 km/h
2429 14-01-2015 06:05:00 5.4 C 6 g/m*3 3.58 C 8.1 km/h
2430 14-01-2015 06:10:00 5.4 C 6 g/m*3 4.06 C 6.4 km/h
2431 14-01-2015 06:15:00 5.3 C 6.03 g/m*3 3.46 C 8.1 km/h
2432 14-01-2015 06:20:00 5.3 C 5.96 g/m*3 3.46 C 8.1 km/h
2433 14-01-2015 06:25:00 5.3 C 5.96 g/m*3 2.46 C 12.9 km/h
2434 14-01-2015 06:30:00 5.3 C 5.89 g/m*3 2.75 C 11.3 km/h
2435 14-01-2015 06:35:00 5.3 C 5.89 g/m*3 5.3 C 3.2 km/h
2436 14-01-2015 06:40:00 5.3 C 5.89 g/m*3 5.3 C 4.8 km/h
2437 14-01-2015 06:45:00 5.2 C 5.85 g/m*3 2.96 C 9.7 km/h
2438 14-01-2015 06:50:00 5.2 C 5.85 g/m*3 2.96 C 9.7 km/h
2439 14-01-2015 06:55:00 5.3 C 5.82 g/m*3 2.46 C 12.9 km/h
2440 14-01-2015 07:00:00 5.3 C 5.75 g/m*3 3.94 C 6.4 km/h
2441 14-01-2015 07:05:00 5.3 C 5.75 g/m*3 3.08 C 9.7 km/h
2442 14-01-2015 07:10:00 5.4 C 5.79 g/m*3 2.58 C 12.9 km/h
2443 14-01-2015 07:15:00 5.4 C 5.79 g/m*3 2.58 C 12.9 km/h
2444 14-01-2015 07:20:00 5.6 C 5.73 g/m*3 2.83 C 12.9 km/h
2445 14-01-2015 07:25:00 5.6 C 5.73 g/m*3 3.81 C 8.1 km/h
2446 14-01-2015 07:30:00 5.6 C 5.73 g/m*3 4.29 C 6.4 km/h
2447 14-01-2015 07:35:00 5.2 C 5.71 g/m*3 3.82 C 6.4 km/h
2448 14-01-2015 07:40:00 5.2 C 5.71 g/m*3 5.2 C 4.8 km/h
2449 14-01-2015 07:45:00 5.2 C 5.78 g/m*3 2.96 C 9.7 km/h
2450 14-01-2015 07:50:00 5.1 C 5.68 g/m*3 3.71 C 6.4 km/h
Sensor: Nr:Datum:Temp:Abs-Feuchte:Windchill:Wind:
Aussen-T/F 2451 14-01-2015 07:55:00 5.1 C 5.75 g/m*3 3.71 C 6.4 km/h
2452 14-01-2015 08:00:00 5 C 5.71 g/m*3 2.72 C 9.7 km/h
2453 14-01-2015 08:05:00 4.9 C 5.67 g/m*3 2.99 C 8.1 km/h
2454 14-01-2015 08:10:00 5.1 C 5.68 g/m*3 2.51 C 11.3 km/h
2455 14-01-2015 08:15:00 5.2 C 5.65 g/m*3 2.63 C 11.3 km/h
2456 14-01-2015 08:20:00 5.2 C 5.65 g/m*3 2.96 C 9.7 km/h
2457 14-01-2015 08:25:00 5.1 C 5.61 g/m*3 5.1 C 4.8 km/h
2458 14-01-2015 08:30:00 5.1 C 5.61 g/m*3 1.71 C 16.1 km/h
2459 14-01-2015 08:35:00 5.1 C 5.68 g/m*3 5.1 C 4.8 km/h
2460 14-01-2015 08:40:00 5 C 5.57 g/m*3 3.11 C 8.1 km/h
2461 14-01-2015 08:45:00 5.1 C 5.61 g/m*3 3.23 C 8.1 km/h
2462 14-01-2015 08:50:00 5.1 C 5.61 g/m*3 2.84 C 9.7 km/h
2463 14-01-2015 08:55:00 5.1 C 5.61 g/m*3 3.71 C 6.4 km/h
2464 14-01-2015 09:00:00 5 C 5.57 g/m*3 3.59 C 6.4 km/h
2465 14-01-2015 09:05:00 5 C 5.64 g/m*3 3.59 C 6.4 km/h
2466 14-01-2015 09:10:00 5 C 5.64 g/m*3 5 C 4.8 km/h
2467 14-01-2015 09:15:00 5.1 C 5.68 g/m*3 2.84 C 9.7 km/h
2468 14-01-2015 09:20:00 5.2 C 5.71 g/m*3 5.2 C 4.8 km/h
2469 14-01-2015 09:25:00 5.3 C 5.75 g/m*3 3.08 C 9.7 km/h
2470 14-01-2015 09:30:00 5.4 C 5.72 g/m*3 2.32 C 14.5 km/h
2471 14-01-2015 09:35:00 5.4 C 5.72 g/m*3 2.08 C 16.1 km/h
2472 14-01-2015 09:40:00 5.5 C 5.76 g/m*3 3.32 C 9.7 km/h
2473 14-01-2015 09:45:00 5.5 C 5.69 g/m*3 2.7 C 12.9 km/h
2474 14-01-2015 09:50:00 5.5 C 5.69 g/m*3 1.99 C 17.7 km/h
2475 14-01-2015 09:55:00 5.5 C 5.69 g/m*3 1.78 C 19.3 km/h
Sensor: Nr:Datum:Temp:Abs-Feuchte:Windchill:Wind:
Aussen-T/F 2476 14-01-2015 10:00:00 5.8 C 5.73 g/m*3 2.16 C 19.3 km/h
2477 14-01-2015 10:05:00 5.9 C 5.77 g/m*3 2.93 C 14.5 km/h
2478 14-01-2015 10:10:00 5.9 C 5.77 g/m*3 3.19 C 12.9 km/h
2479 14-01-2015 10:15:00 6 C 5.81 g/m*3 2.82 C 16.1 km/h
2480 14-01-2015 10:20:00 6.1 C 5.84 g/m*3 3.18 C 14.5 km/h
2481 14-01-2015 10:25:00 6.1 C 5.92 g/m*3 3.72 C 11.3 km/h
2482 14-01-2015 10:30:00 6.2 C 5.88 g/m*3 2.66 C 19.3 km/h
2483 14-01-2015 10:35:00 6.3 C 5.92 g/m*3 2.98 C 17.7 km/h
2484 14-01-2015 10:40:00 6.3 C 5.85 g/m*3 4.27 C 9.7 km/h
2485 14-01-2015 10:45:00 6.5 C 5.85 g/m*3 2.69 C 22.5 km/h
2486 14-01-2015 10:50:00 6.6 C 5.89 g/m*3 3.57 C 16.1 km/h
2487 14-01-2015 10:55:00 6.6 C 5.96 g/m*3 4.04 C 12.9 km/h
2488 14-01-2015 11:00:00 6.6 C 5.96 g/m*3 4.04 C 12.9 km/h
2489 14-01-2015 11:05:00 6.7 C 5.93 g/m*3 2.22 C 30.6 km/h
2490 14-01-2015 11:10:00 6.8 C 5.97 g/m*3 3.24 C 20.9 km/h
2491 14-01-2015 11:15:00 6.9 C 6 g/m*3 3.94 C 16.1 km/h
2492 14-01-2015 11:20:00 6.9 C 5.93 g/m*3 3.37 C 20.9 km/h
2493 14-01-2015 11:25:00 6.9 C 5.85 g/m*3 3.04 C 24.1 km/h
2494 14-01-2015 11:30:00 6.8 C 5.97 g/m*3 2.76 C 25.7 km/h
2495 14-01-2015 11:35:00 6.6 C 6.19 g/m*3 2.82 C 22.5 km/h
2496 14-01-2015 11:40:00 6.4 C 6.11 g/m*3 3.55 C 14.5 km/h
2497 14-01-2015 11:45:00 6.4 C 6.18 g/m*3 3.8 C 12.9 km/h
2498 14-01-2015 11:50:00 6.5 C 6.15 g/m*3 3.92 C 12.9 km/h
2499 14-01-2015 11:55:00 6.6 C 6.19 g/m*3 3.79 C 14.5 km/h
2500 14-01-2015 12:00:00 6.8 C 6.12 g/m*3 3.61 C 17.7 km/h
Sensor: Nr:Datum:Temp:Abs-Feuchte:Windchill:Wind:
Aussen-T/F 2501 14-01-2015 12:05:00 6.8 C 6.12 g/m*3 2.91 C 24.1 km/h
2502 14-01-2015 12:10:00 7 C 6.12 g/m*3 2.87 C 27.4 km/h
2503 14-01-2015 12:15:00 7 C 6.12 g/m*3 3.02 C 25.7 km/h
2504 14-01-2015 12:20:00 6.9 C 6 g/m*3 3.54 C 19.3 km/h
2505 14-01-2015 12:25:00 6.8 C 5.97 g/m*3 2.76 C 25.7 km/h
2506 14-01-2015 12:30:00 6.4 C 6.04 g/m*3 2.25 C 25.7 km/h
2507 14-01-2015 12:35:00 6 C 6.02 g/m*3 2.05 C 22.5 km/h
2508 14-01-2015 12:40:00 5.6 C 6.08 g/m*3 3.11 C 11.3 km/h
2509 14-01-2015 12:45:00 5.3 C 6.03 g/m*3 1.74 C 17.7 km/h
2510 14-01-2015 12:50:00 5.2 C 5.99 g/m*3 2.34 C 12.9 km/h
2511 14-01-2015 12:55:00 5.1 C 6.16 g/m*3 1.95 C 14.5 km/h
2512 14-01-2015 13:00:00 5.1 C 6.16 g/m*3 1.95 C 14.5 km/h
2513 14-01-2015 13:05:00 5 C 6.12 g/m*3 1.15 C 19.3 km/h
2514 14-01-2015 13:10:00 4.9 C 6.14 g/m*3 2.27 C 11.3 km/h
2515 14-01-2015 13:15:00 4.8 C 6.1 g/m*3 1.58 C 14.5 km/h
2516 14-01-2015 13:20:00 4.8 C 6.1 g/m*3 1.34 C 16.1 km/h
2517 14-01-2015 13:25:00 4.9 C 6.14 g/m*3 2.27 C 11.3 km/h
2518 14-01-2015 13:30:00 5.1 C 6.16 g/m*3 2.51 C 11.3 km/h
2519 14-01-2015 13:35:00 5.2 C 6.2 g/m*3 2.96 C 9.7 km/h
2520 14-01-2015 13:40:00 5.3 C 6.24 g/m*3 2.46 C 12.9 km/h
2521 14-01-2015 13:45:00 5.3 C 6.17 g/m*3 1.96 C 16.1 km/h
2522 14-01-2015 13:50:00 5.3 C 6.17 g/m*3 2.75 C 11.3 km/h
2523 14-01-2015 13:55:00 5.4 C 6.21 g/m*3 3.2 C 9.7 km/h
2524 14-01-2015 14:00:00 5.5 C 6.25 g/m*3 1.78 C 19.3 km/h
2525 14-01-2015 14:05:00 5.6 C 6.22 g/m*3 2.33 C 16.1 km/h
Sensor: Nr:Datum:Temp:Abs-Feuchte:Windchill:Wind:
Aussen-T/F 2526 14-01-2015 14:10:00 5.7 C 6.19 g/m*3 2.24 C 17.7 km/h
2527 14-01-2015 14:15:00 5.7 C 6.19 g/m*3 2.95 C 12.9 km/h
2528 14-01-2015 14:20:00 5.8 C 6.23 g/m*3 2.36 C 17.7 km/h
2529 14-01-2015 14:25:00 5.8 C 6.23 g/m*3 2.58 C 16.1 km/h
2530 14-01-2015 14:30:00 5.9 C 6.27 g/m*3 3.48 C 11.3 km/h
2531 14-01-2015 14:35:00 6 C 6.31 g/m*3 3.06 C 14.5 km/h
2532 14-01-2015 14:40:00 6 C 6.31 g/m*3 1.73 C 25.7 km/h
2533 14-01-2015 14:45:00 5.9 C 6.27 g/m*3 2.48 C 17.7 km/h
2534 14-01-2015 14:50:00 5.9 C 6.27 g/m*3 2.93 C 14.5 km/h
2535 14-01-2015 14:55:00 5.7 C 6.19 g/m*3 1.67 C 22.5 km/h
2536 14-01-2015 15:00:00 4.7 C 5.8 g/m*3 1.21 C 16.1 km/h
2537 14-01-2015 15:05:00 4.2 C 5.67 g/m*3 0.59 C 16.1 km/h
2538 14-01-2015 15:10:00 4.2 C 5.67 g/m*3 0.36 C 17.7 km/h
2539 14-01-2015 15:15:00 4.2 C 5.67 g/m*3 0.84 C 14.5 km/h
2540 14-01-2015 15:20:00 4.2 C 5.73 g/m*3 0.84 C 14.5 km/h
2541 14-01-2015 15:25:00 4.3 C 5.77 g/m*3 0.72 C 16.1 km/h
2542 14-01-2015 15:30:00 4.3 C 5.71 g/m*3 0.72 C 16.1 km/h
2543 14-01-2015 15:35:00 4.4 C 5.75 g/m*3 1.67 C 11.3 km/h
2544 14-01-2015 15:40:00 4.6 C 5.76 g/m*3 -0.07 C 25.7 km/h
2545 14-01-2015 15:45:00 4.7 C 5.8 g/m*3 1.21 C 16.1 km/h
2546 14-01-2015 15:50:00 4.7 C 5.8 g/m*3 1.73 C 12.9 km/h
2547 14-01-2015 15:55:00 4.7 C 5.8 g/m*3 1.21 C 16.1 km/h
2548 14-01-2015 16:00:00 4.7 C 5.8 g/m*3 2.03 C 11.3 km/h
2549 14-01-2015 16:05:00 4.8 C 5.9 g/m*3 0.71 C 20.9 km/h
2550 14-01-2015 16:10:00 4.8 C 5.9 g/m*3 1.34 C 16.1 km/h
Sensor: Nr:Datum:Temp:Abs-Feuchte:Windchill:Wind:
Aussen-T/F 2551 14-01-2015 16:15:00 4.8 C 5.83 g/m*3 2.15 C 11.3 km/h
2552 14-01-2015 16:20:00 4.8 C 5.83 g/m*3 2.15 C 11.3 km/h
2553 14-01-2015 16:25:00 4.8 C 5.77 g/m*3 2.49 C 9.7 km/h
2554 14-01-2015 16:30:00 4.8 C 5.77 g/m*3 1.85 C 12.9 km/h
2555 14-01-2015 16:35:00 4.8 C 5.63 g/m*3 1.11 C 17.7 km/h
2556 14-01-2015 16:40:00 4.8 C 5.7 g/m*3 2.15 C 11.3 km/h
2557 14-01-2015 16:45:00 4.8 C 5.7 g/m*3 1.85 C 12.9 km/h
2558 14-01-2015 16:50:00 4.7 C 5.66 g/m*3 2.76 C 8.1 km/h
2559 14-01-2015 16:55:00 4.6 C 5.62 g/m*3 2.64 C 8.1 km/h
2560 14-01-2015 17:00:00 4.4 C 5.55 g/m*3 2.9 C 6.4 km/h
2561 14-01-2015 17:05:00 4.2 C 5.61 g/m*3 4.2 C 4.8 km/h
2562 14-01-2015 17:10:00 4.1 C 5.57 g/m*3 4.1 C 3.2 km/h
2563 14-01-2015 17:15:00 4.1 C 5.57 g/m*3 4.1 C 3.2 km/h
2564 14-01-2015 17:35:00 3.9 C 6.32 g/m*3 3.9 C 3.2 km/h
2565 14-01-2015 17:40:00 3.8 C 5.52 g/m*3 3.8 C 4.8 km/h
2566 14-01-2015 17:45:00 3.7 C 5.48 g/m*3 3.7 C 4.8 km/h
2567 14-01-2015 17:50:00 3.7 C 5.48 g/m*3 3.7 C 3.2 km/h
2568 14-01-2015 17:55:00 3.6 C 5.57 g/m*3 3.6 C 3.2 km/h
2569 14-01-2015 18:00:00 3.5 C 5.53 g/m*3 0.94 C 9.7 km/h
2570 14-01-2015 18:05:00 3.6 C 5.45 g/m*3 -0.15 C 16.1 km/h
2571 14-01-2015 18:10:00 3.7 C 5.48 g/m*3 3.7 C 4.8 km/h
2572 14-01-2015 18:15:00 3.7 C 5.48 g/m*3 3.7 C 3.2 km/h
2573 14-01-2015 18:50:00 3.2 C 5.42 g/m*3 1.51 C 6.4 km/h
2574 14-01-2015 18:55:00 3.2 C 5.42 g/m*3 3.2 C 3.2 km/h
2575 14-01-2015 19:00:00 3.5 C 5.41 g/m*3 1.34 C 8.1 km/h
Sensor: Nr:Datum:Temp:Abs-Feuchte:Windchill:Wind:
Aussen-T/F 2576 14-01-2015 19:05:00 3.5 C 5.41 g/m*3 3.5 C 3.2 km/h
2577 14-01-2015 19:10:00 3.5 C 5.41 g/m*3 -0.73 C 19.3 km/h
2578 14-01-2015 19:15:00 3.5 C 5.41 g/m*3 0.94 C 9.7 km/h
2579 14-01-2015 19:20:00 3.8 C 5.52 g/m*3 1.29 C 9.7 km/h
2580 14-01-2015 19:25:00 3.9 C 5.37 g/m*3 1.82 C 8.1 km/h
2581 14-01-2015 19:30:00 3.8 C 5.33 g/m*3 1.29 C 9.7 km/h
2582 14-01-2015 19:35:00 3.8 C 5.33 g/m*3 3.8 C 4.8 km/h
2583 14-01-2015 19:40:00 3.7 C 5.36 g/m*3 0.82 C 11.3 km/h
2584 14-01-2015 19:45:00 3.7 C 5.36 g/m*3 2.09 C 6.4 km/h
2585 14-01-2015 22:30:00 2.3 C 5.33 g/m*3 2.3 C 1.6 km/h
2586 14-01-2015 22:35:00 2.4 C 5.37 g/m*3 2.4 C 3.2 km/h
2587 14-01-2015 22:40:00 2.4 C 5.37 g/m*3 2.4 C 0 km/h
2588 14-01-2015 23:05:00 2.2 C 5.63 g/m*3 2.2 C 1.6 km/h
2589 14-01-2015 23:10:00 2.2 C 5.63 g/m*3 2.2 C 1.6 km/h
2590 14-01-2015 23:15:00 2.2 C 5.63 g/m*3 2.2 C 1.6 km/h
2591 14-01-2015 23:20:00 2.2 C 5.63 g/m*3 2.2 C 4.8 km/h
2592 15-01-2015 08:10:00 7.8 C 7.02 g/m*3 5.77 C 11.3 km/h
2593 15-01-2015 08:15:00 7.8 C 7.02 g/m*3 4.86 C 17.7 km/h
2594 15-01-2015 08:20:00 7.8 C 7.02 g/m*3 4.86 C 17.7 km/h
2595 15-01-2015 08:25:00 7.9 C 7.06 g/m*3 5.89 C 11.3 km/h
2596 15-01-2015 08:30:00 7.8 C 7.02 g/m*3 6.06 C 9.7 km/h
2597 15-01-2015 08:35:00 7.9 C 7.06 g/m*3 6.18 C 9.7 km/h
2598 15-01-2015 08:40:00 7.9 C 7.06 g/m*3 6.52 C 8.1 km/h
2599 15-01-2015 08:45:00 7.9 C 7.06 g/m*3 5.89 C 11.3 km/h
2600 15-01-2015 08:50:00 8 C 7.11 g/m*3 5.75 C 12.9 km/h
Sensor: Nr:Datum:Temp:Abs-Feuchte:Windchill:Wind:
Aussen-T/F 2601 15-01-2015 08:55:00 8.1 C 7.07 g/m*3 5.87 C 12.9 km/h
2602 15-01-2015 09:00:00 8.2 C 7.12 g/m*3 5.76 C 14.5 km/h
2603 15-01-2015 09:05:00 8.3 C 7.16 g/m*3 5.31 C 19.3 km/h
2604 15-01-2015 09:10:00 8.3 C 7.08 g/m*3 6.37 C 11.3 km/h
2605 15-01-2015 09:15:00 8.3 C 7.08 g/m*3 5.68 C 16.1 km/h
2606 15-01-2015 09:20:00 8.4 C 7.04 g/m*3 5.27 C 20.9 km/h
2607 15-01-2015 09:25:00 8.5 C 7.09 g/m*3 6.36 C 12.9 km/h
2608 15-01-2015 09:30:00 8.6 C 7.13 g/m*3 6.73 C 11.3 km/h
2609 15-01-2015 09:35:00 8.6 C 7.13 g/m*3 6.05 C 16.1 km/h
2610 15-01-2015 09:40:00 8.7 C 7.18 g/m*3 7.46 C 8.1 km/h
2611 15-01-2015 09:45:00 8.8 C 7.05 g/m*3 7.25 C 9.7 km/h
2612 15-01-2015 09:50:00 8.8 C 7.05 g/m*3 7.98 C 6.4 km/h
2613 15-01-2015 09:55:00 8.8 C 7.05 g/m*3 7.25 C 9.7 km/h
2614 15-01-2015 10:00:00 8.9 C 7.01 g/m*3 6.85 C 12.9 km/h
2615 15-01-2015 10:05:00 8.9 C 7.01 g/m*3 8.1 C 6.4 km/h
2616 15-01-2015 10:10:00 8.9 C 7.01 g/m*3 8.1 C 6.4 km/h
2617 15-01-2015 10:15:00 8.9 C 7.01 g/m*3 8.9 C 4.8 km/h
2618 15-01-2015 10:20:00 8.9 C 7.01 g/m*3 8.9 C 4.8 km/h
2619 15-01-2015 17:05:00 11.5 C 10.33 g/m*3 11.5 C 11.3 km/h
2620 15-01-2015 17:10:00 11.4 C 6.77 g/m*3 11.4 C 17.7 km/h
2621 15-01-2015 17:15:00 11.5 C 6.92 g/m*3 11.5 C 12.9 km/h
2622 15-01-2015 17:20:00 11.5 C 6.92 g/m*3 11.5 C 20.9 km/h
2623 15-01-2015 17:25:00 11.5 C 6.92 g/m*3 11.5 C 16.1 km/h
2624 15-01-2015 17:30:00 11.4 C 6.77 g/m*3 11.4 C 35.4 km/h
2625 15-01-2015 17:35:00 11.4 C 6.77 g/m*3 11.4 C 35.4 km/h
Sensor: Nr:Datum:Temp:Abs-Feuchte:Windchill:Wind:
Aussen-T/F 2626 15-01-2015 17:40:00 11.4 C 6.77 g/m*3 11.4 C 17.7 km/h
2627 15-01-2015 17:45:00 11.4 C 6.77 g/m*3 11.4 C 12.9 km/h
2628 15-01-2015 17:50:00 11.4 C 6.77 g/m*3 11.4 C 33.8 km/h
2629 15-01-2015 17:55:00 11.4 C 6.77 g/m*3 11.4 C 19.3 km/h
2630 15-01-2015 18:10:00 11.4 C 6.77 g/m*3 11.4 C 12.9 km/h
2631 15-01-2015 18:15:00 11.3 C 6.73 g/m*3 11.3 C 12.9 km/h
2632 15-01-2015 18:20:00 11.3 C 6.83 g/m*3 11.3 C 9.7 km/h
2633 15-01-2015 18:25:00 11.2 C 6.69 g/m*3 11.2 C 9.7 km/h
2634 15-01-2015 18:30:00 11.3 C 6.73 g/m*3 11.3 C 8.1 km/h
2635 15-01-2015 18:35:00 11.3 C 6.73 g/m*3 11.3 C 17.7 km/h
2636 15-01-2015 18:40:00 11.3 C 6.73 g/m*3 11.3 C 22.5 km/h
2637 15-01-2015 18:45:00 11.4 C 6.77 g/m*3 11.4 C 24.1 km/h
2638 15-01-2015 18:50:00 11.4 C 6.88 g/m*3 11.4 C 32.2 km/h
2639 15-01-2015 18:55:00 11.3 C 6.83 g/m*3 11.3 C 22.5 km/h
2640 15-01-2015 19:00:00 11.3 C 6.83 g/m*3 11.3 C 17.7 km/h
2641 15-01-2015 19:05:00 11.2 C 6.89 g/m*3 11.2 C 14.5 km/h
2642 15-01-2015 19:10:00 11.2 C 6.89 g/m*3 11.2 C 19.3 km/h
2643 15-01-2015 19:15:00 11.2 C 6.89 g/m*3 11.2 C 22.5 km/h
2644 15-01-2015 19:20:00 11.2 C 6.89 g/m*3 11.2 C 19.3 km/h
2645 15-01-2015 19:25:00 11.2 C 6.99 g/m*3 11.2 C 19.3 km/h
2646 15-01-2015 19:30:00 11.2 C 6.99 g/m*3 11.2 C 24.1 km/h
2647 15-01-2015 19:35:00 11.1 C 7.05 g/m*3 11.1 C 41.8 km/h
2648 15-01-2015 19:40:00 11.1 C 7.15 g/m*3 11.1 C 19.3 km/h
2649 15-01-2015 19:45:00 10.9 C 7.06 g/m*3 8.05 C 25.7 km/h
2650 15-01-2015 19:50:00 10.9 C 7.06 g/m*3 8.3 C 22.5 km/h
Sensor: Nr:Datum:Temp:Abs-Feuchte:Windchill:Wind:
Aussen-T/F 2651 15-01-2015 19:55:00 10.9 C 7.06 g/m*3 7.71 C 30.6 km/h
2652 15-01-2015 20:00:00 10.9 C 7.16 g/m*3 8.58 C 19.3 km/h
2653 15-01-2015 20:05:00 10.9 C 7.16 g/m*3 8.43 C 20.9 km/h
2654 15-01-2015 20:10:00 10.9 C 7.16 g/m*3 8.9 C 16.1 km/h
2655 15-01-2015 20:15:00 10.9 C 7.16 g/m*3 8.9 C 16.1 km/h
2656 15-01-2015 20:20:00 10.9 C 7.16 g/m*3 7.81 C 29 km/h
2657 15-01-2015 20:25:00 11 C 7.21 g/m*3 6.85 C 49.9 km/h
2658 15-01-2015 20:30:00 10.9 C 7.26 g/m*3 8.43 C 20.9 km/h
2659 15-01-2015 20:35:00 10.9 C 7.26 g/m*3 8.17 C 24.1 km/h
2660 15-01-2015 20:40:00 10.9 C 7.26 g/m*3 8.17 C 24.1 km/h
2661 15-01-2015 20:45:00 10.8 C 7.22 g/m*3 8.04 C 24.1 km/h
2662 15-01-2015 20:50:00 10.8 C 7.31 g/m*3 7.92 C 25.7 km/h
2663 15-01-2015 20:55:00 10.7 C 7.27 g/m*3 8.18 C 20.9 km/h
2664 15-01-2015 21:00:00 10.7 C 7.37 g/m*3 7.91 C 24.1 km/h
2665 15-01-2015 21:05:00 10.6 C 7.32 g/m*3 7.91 C 22.5 km/h
2666 15-01-2015 21:10:00 10.6 C 7.32 g/m*3 8.36 C 17.7 km/h
2667 15-01-2015 21:15:00 10.5 C 7.27 g/m*3 8.4 C 16.1 km/h
2668 15-01-2015 21:20:00 10.4 C 7.32 g/m*3 9.16 C 9.7 km/h
2669 15-01-2015 21:25:00 10.3 C 7.28 g/m*3 8.78 C 11.3 km/h
2670 15-01-2015 21:30:00 10.2 C 7.33 g/m*3 8.66 C 11.3 km/h
2671 15-01-2015 21:35:00 10.2 C 7.23 g/m*3 9.22 C 8.1 km/h
2672 15-01-2015 21:40:00 10.3 C 7.28 g/m*3 7.4 C 24.1 km/h
2673 15-01-2015 21:45:00 10.4 C 7.32 g/m*3 7.4 C 25.7 km/h
2674 15-01-2015 21:50:00 10.4 C 7.32 g/m*3 8.11 C 17.7 km/h
2675 15-01-2015 21:55:00 10.4 C 7.42 g/m*3 7.53 C 24.1 km/h
Sensor: Nr:Datum:Temp:Abs-Feuchte:Windchill:Wind:
Aussen-T/F 2676 15-01-2015 22:00:00 10.4 C 7.42 g/m*3 7.4 C 25.7 km/h
2677 15-01-2015 22:05:00 10.3 C 7.37 g/m*3 7.67 C 20.9 km/h
2678 15-01-2015 22:10:00 10.3 C 7.47 g/m*3 7.67 C 20.9 km/h
2679 15-01-2015 22:15:00 10.3 C 7.47 g/m*3 7.82 C 19.3 km/h
2680 15-01-2015 22:20:00 10.3 C 7.47 g/m*3 7.98 C 17.7 km/h
2681 15-01-2015 22:25:00 10.3 C 7.47 g/m*3 8.55 C 12.9 km/h
2682 15-01-2015 22:30:00 10.3 C 7.47 g/m*3 7.82 C 19.3 km/h
2683 15-01-2015 22:35:00 10.3 C 7.57 g/m*3 7.98 C 17.7 km/h
2684 15-01-2015 22:40:00 10.3 C 7.57 g/m*3 8.34 C 14.5 km/h
2685 15-01-2015 22:45:00 10.3 C 7.57 g/m*3 8.55 C 12.9 km/h
2686 15-01-2015 22:50:00 10.3 C 7.57 g/m*3 8.34 C 14.5 km/h
2687 15-01-2015 22:55:00 10.3 C 7.57 g/m*3 7.67 C 20.9 km/h
2688 15-01-2015 23:00:00 10.3 C 7.57 g/m*3 7.67 C 20.9 km/h
2689 15-01-2015 23:05:00 10.3 C 7.66 g/m*3 7.98 C 17.7 km/h
2690 15-01-2015 23:10:00 10.2 C 7.61 g/m*3 7.86 C 17.7 km/h
2691 15-01-2015 23:15:00 10.2 C 7.61 g/m*3 7.54 C 20.9 km/h
2692 15-01-2015 23:20:00 10.1 C 7.66 g/m*3 7.42 C 20.9 km/h
2693 15-01-2015 23:25:00 10 C 7.8 g/m*3 7.98 C 14.5 km/h
2694 15-01-2015 23:30:00 9.8 C 7.79 g/m*3 7.94 C 12.9 km/h
2695 15-01-2015 23:35:00 9.6 C 7.69 g/m*3 7.29 C 16.1 km/h
2696 15-01-2015 23:40:00 9.5 C 7.74 g/m*3 7.36 C 14.5 km/h
2697 15-01-2015 23:45:00 9.4 C 7.69 g/m*3 7.24 C 14.5 km/h
2698 15-01-2015 23:50:00 9.4 C 7.69 g/m*3 7.46 C 12.9 km/h
2699 15-01-2015 23:55:00 9.4 C 7.78 g/m*3 7.46 C 12.9 km/h
2700 16-01-2015 00:00:00 9.3 C 7.73 g/m*3 7.58 C 11.3 km/h
Sensor: Nr:Datum:Temp:Abs-Feuchte:Windchill:Wind:
Aussen-T/F 2701 16-01-2015 00:05:00 9.3 C 7.64 g/m*3 7.33 C 12.9 km/h
2702 16-01-2015 00:10:00 9.3 C 7.64 g/m*3 8.16 C 8.1 km/h
2703 16-01-2015 00:15:00 9.3 C 7.64 g/m*3 7.33 C 12.9 km/h
2704 16-01-2015 00:20:00 9.3 C 7.64 g/m*3 8.16 C 8.1 km/h
2705 16-01-2015 00:25:00 9.3 C 7.73 g/m*3 7.85 C 9.7 km/h
2706 16-01-2015 00:30:00 9.3 C 7.73 g/m*3 7.85 C 9.7 km/h
2707 16-01-2015 00:35:00 9.3 C 7.64 g/m*3 7.33 C 12.9 km/h
2708 16-01-2015 00:40:00 9.3 C 7.64 g/m*3 6.92 C 16.1 km/h
2709 16-01-2015 00:45:00 9.3 C 7.55 g/m*3 7.85 C 9.7 km/h
2710 16-01-2015 00:50:00 9.3 C 7.46 g/m*3 7.85 C 9.7 km/h
2711 16-01-2015 00:55:00 9.3 C 7.37 g/m*3 7.58 C 11.3 km/h
2712 16-01-2015 01:00:00 9.3 C 7.37 g/m*3 7.12 C 14.5 km/h
2713 16-01-2015 01:05:00 9.3 C 7.37 g/m*3 7.85 C 9.7 km/h
2714 16-01-2015 01:10:00 9.2 C 7.41 g/m*3 9.2 C 3.2 km/h
2715 16-01-2015 01:15:00 9.1 C 7.45 g/m*3 7.93 C 8.1 km/h
2716 16-01-2015 01:20:00 9.1 C 7.36 g/m*3 7.33 C 11.3 km/h
2717 16-01-2015 01:25:00 9.1 C 7.36 g/m*3 7.61 C 9.7 km/h
2718 16-01-2015 01:30:00 9.1 C 7.36 g/m*3 7.93 C 8.1 km/h
2719 16-01-2015 01:35:00 9.1 C 7.36 g/m*3 7.33 C 11.3 km/h
2720 16-01-2015 01:40:00 9 C 7.41 g/m*3 7.81 C 8.1 km/h
2721 16-01-2015 01:45:00 8.9 C 7.45 g/m*3 8.9 C 3.2 km/h
2722 16-01-2015 01:50:00 8.8 C 7.4 g/m*3 7.98 C 6.4 km/h
2723 16-01-2015 01:55:00 8.7 C 7.52 g/m*3 7.46 C 8.1 km/h
2724 16-01-2015 02:00:00 8.6 C 7.56 g/m*3 7.34 C 8.1 km/h
2725 16-01-2015 02:05:00 8.4 C 7.55 g/m*3 8.4 C 4.8 km/h
Sensor: Nr:Datum:Temp:Abs-Feuchte:Windchill:Wind:
Aussen-T/F 2726 16-01-2015 02:10:00 8.3 C 7.42 g/m*3 6.37 C 11.3 km/h
2727 16-01-2015 02:15:00 8.3 C 7.42 g/m*3 6.99 C 8.1 km/h
2728 16-01-2015 02:20:00 8.3 C 7.42 g/m*3 8.3 C 3.2 km/h
2729 16-01-2015 02:25:00 8.2 C 7.37 g/m*3 7.29 C 6.4 km/h
2730 16-01-2015 02:30:00 8.2 C 7.37 g/m*3 8.2 C 4.8 km/h
2731 16-01-2015 02:35:00 8.2 C 7.37 g/m*3 8.2 C 1.6 km/h
2732 16-01-2015 02:40:00 8.1 C 7.32 g/m*3 7.17 C 6.4 km/h
2733 16-01-2015 02:45:00 8.1 C 7.32 g/m*3 8.1 C 3.2 km/h
2734 16-01-2015 02:50:00 7.9 C 7.06 g/m*3 6.94 C 6.4 km/h
2735 16-01-2015 02:55:00 8.1 C 7.16 g/m*3 7.17 C 6.4 km/h
2736 16-01-2015 03:00:00 8.1 C 7.16 g/m*3 6.13 C 11.3 km/h
2737 16-01-2015 03:05:00 8.1 C 7.16 g/m*3 8.1 C 4.8 km/h
2738 16-01-2015 03:10:00 8.1 C 7.16 g/m*3 7.17 C 6.4 km/h
2739 16-01-2015 03:15:00 8.1 C 7.16 g/m*3 7.17 C 6.4 km/h
2740 16-01-2015 03:20:00 8.1 C 7.16 g/m*3 5.87 C 12.9 km/h
2741 16-01-2015 03:25:00 8.1 C 7.24 g/m*3 7.17 C 6.4 km/h
2742 16-01-2015 03:30:00 8 C 7.19 g/m*3 8 C 3.2 km/h
2743 16-01-2015 03:35:00 7.9 C 7.15 g/m*3 7.9 C 1.6 km/h
2744 16-01-2015 03:40:00 7.8 C 7.18 g/m*3 7.8 C 1.6 km/h
2745 16-01-2015 03:45:00 7.6 C 7.09 g/m*3 6.6 C 6.4 km/h
2746 16-01-2015 03:50:00 7.6 C 7.09 g/m*3 7.6 C 3.2 km/h
2747 16-01-2015 03:55:00 7.6 C 7.17 g/m*3 7.6 C 0 km/h
2748 16-01-2015 04:00:00 7.4 C 7 g/m*3 7.4 C 3.2 km/h
2749 16-01-2015 04:05:00 7.4 C 7.08 g/m*3 6.37 C 6.4 km/h
2750 16-01-2015 04:10:00 7.6 C 7.01 g/m*3 7.6 C 4.8 km/h
Sensor: Nr:Datum:Temp:Abs-Feuchte:Windchill:Wind:
Aussen-T/F 2751 16-01-2015 04:15:00 7.6 C 7.01 g/m*3 7.6 C 3.2 km/h
2752 16-01-2015 04:20:00 7.7 C 6.97 g/m*3 6.71 C 6.4 km/h
2753 16-01-2015 04:25:00 7.7 C 7.05 g/m*3 7.7 C 0 km/h
2754 16-01-2015 04:30:00 7.5 C 7.04 g/m*3 7.5 C 0 km/h
2755 16-01-2015 04:35:00 7.3 C 6.95 g/m*3 7.3 C 0 km/h
2756 16-01-2015 04:40:00 7.2 C 6.91 g/m*3 7.2 C 3.2 km/h
2757 16-01-2015 04:45:00 7.2 C 6.99 g/m*3 7.2 C 0 km/h
2758 16-01-2015 04:50:00 7 C 6.9 g/m*3 7 C 0 km/h
2759 16-01-2015 04:55:00 6.9 C 6.85 g/m*3 6.9 C 3.2 km/h
2760 16-01-2015 05:00:00 6.8 C 6.81 g/m*3 6.8 C 1.6 km/h
2761 16-01-2015 05:05:00 6.8 C 6.88 g/m*3 6.8 C 4.8 km/h
2762 16-01-2015 05:10:00 6.9 C 6.85 g/m*3 6.9 C 4.8 km/h
2763 16-01-2015 05:15:00 7.1 C 6.86 g/m*3 7.1 C 0 km/h
2764 16-01-2015 05:20:00 7.1 C 6.86 g/m*3 7.1 C 4.8 km/h
2765 16-01-2015 05:25:00 7.1 C 6.86 g/m*3 7.1 C 3.2 km/h
2766 16-01-2015 05:30:00 7.1 C 6.86 g/m*3 7.1 C 3.2 km/h
2767 16-01-2015 05:35:00 7 C 6.82 g/m*3 7 C 4.8 km/h
2768 16-01-2015 05:40:00 6.9 C 6.85 g/m*3 6.9 C 1.6 km/h
2769 16-01-2015 05:45:00 6.9 C 6.85 g/m*3 6.9 C 1.6 km/h
2770 16-01-2015 05:50:00 6.8 C 6.81 g/m*3 6.8 C 3.2 km/h
2771 16-01-2015 05:55:00 6.8 C 6.73 g/m*3 5.67 C 6.4 km/h
2772 16-01-2015 06:00:00 6.8 C 6.73 g/m*3 6.8 C 1.6 km/h
2773 16-01-2015 06:05:00 6.9 C 6.77 g/m*3 6.9 C 1.6 km/h
2774 16-01-2015 06:10:00 6.9 C 6.77 g/m*3 6.9 C 1.6 km/h
2775 16-01-2015 06:15:00 6.9 C 6.77 g/m*3 6.9 C 3.2 km/h
Sensor: Nr:Datum:Temp:Abs-Feuchte:Windchill:Wind:
Aussen-T/F 2776 16-01-2015 06:20:00 6.9 C 6.77 g/m*3 6.9 C 1.6 km/h
2777 16-01-2015 06:25:00 6.8 C 6.73 g/m*3 6.8 C 1.6 km/h
2778 16-01-2015 06:30:00 6.7 C 6.76 g/m*3 6.7 C 1.6 km/h
2779 16-01-2015 06:35:00 6.7 C 6.76 g/m*3 6.7 C 3.2 km/h
2780 16-01-2015 06:40:00 6.9 C 6.77 g/m*3 6.9 C 4.8 km/h
2781 16-01-2015 06:45:00 7 C 6.74 g/m*3 7 C 4.8 km/h
2782 16-01-2015 06:50:00 7 C 6.82 g/m*3 7 C 4.8 km/h
2783 16-01-2015 06:55:00 6.9 C 6.77 g/m*3 6.9 C 3.2 km/h
2784 16-01-2015 07:00:00 6.9 C 6.77 g/m*3 6.9 C 1.6 km/h
2785 16-01-2015 07:05:00 6.8 C 6.73 g/m*3 6.8 C 1.6 km/h
2786 16-01-2015 07:10:00 6.7 C 6.76 g/m*3 6.7 C 3.2 km/h
2787 16-01-2015 07:15:00 6.7 C 6.76 g/m*3 6.7 C 1.6 km/h
2788 16-01-2015 07:20:00 6.6 C 6.72 g/m*3 6.6 C 1.6 km/h
2789 16-01-2015 07:25:00 6.5 C 6.67 g/m*3 6.5 C 1.6 km/h
2790 16-01-2015 07:30:00 6.4 C 6.71 g/m*3 6.4 C 0 km/h
2791 16-01-2015 07:35:00 6.4 C 6.71 g/m*3 6.4 C 3.2 km/h
2792 16-01-2015 07:40:00 6.4 C 6.71 g/m*3 6.4 C 1.6 km/h
2793 16-01-2015 07:45:00 6.4 C 6.71 g/m*3 6.4 C 1.6 km/h
2794 16-01-2015 07:50:00 6.4 C 6.71 g/m*3 6.4 C 3.2 km/h
2795 16-01-2015 07:55:00 6.4 C 6.63 g/m*3 6.4 C 3.2 km/h
2796 16-01-2015 08:00:00 6.5 C 6.67 g/m*3 6.5 C 3.2 km/h
2797 16-01-2015 08:05:00 6.7 C 6.69 g/m*3 6.7 C 1.6 km/h
2798 16-01-2015 08:10:00 6.8 C 6.65 g/m*3 6.8 C 4.8 km/h
2799 16-01-2015 08:15:00 6.9 C 6.7 g/m*3 5.79 C 6.4 km/h
2800 16-01-2015 08:20:00 6.9 C 6.7 g/m*3 6.9 C 4.8 km/h
Sensor: Nr:Datum:Temp:Abs-Feuchte:Windchill:Wind:
Aussen-T/F 2801 16-01-2015 08:25:00 6.8 C 6.73 g/m*3 6.8 C 3.2 km/h
2802 16-01-2015 08:30:00 6.8 C 6.65 g/m*3 6.8 C 3.2 km/h
2803 16-01-2015 08:35:00 6.8 C 6.65 g/m*3 5.67 C 6.4 km/h
2804 16-01-2015 08:40:00 6.8 C 6.65 g/m*3 6.8 C 4.8 km/h
2805 16-01-2015 08:45:00 6.9 C 6.62 g/m*3 6.9 C 4.8 km/h
2806 16-01-2015 08:50:00 6.9 C 6.62 g/m*3 6.9 C 0 km/h
2807 16-01-2015 08:55:00 6.9 C 6.7 g/m*3 6.9 C 1.6 km/h
2808 16-01-2015 09:00:00 6.8 C 6.65 g/m*3 6.8 C 1.6 km/h
2809 16-01-2015 09:05:00 6.8 C 6.65 g/m*3 6.8 C 1.6 km/h
2810 16-01-2015 09:10:00 6.7 C 6.69 g/m*3 6.7 C 3.2 km/h
2811 16-01-2015 09:15:00 6.7 C 6.69 g/m*3 6.7 C 3.2 km/h
2812 16-01-2015 09:20:00 6.7 C 6.69 g/m*3 6.7 C 1.6 km/h
2813 16-01-2015 09:25:00 6.6 C 6.72 g/m*3 6.6 C 0 km/h
2814 16-01-2015 09:30:00 6.6 C 6.72 g/m*3 6.6 C 0 km/h
2815 16-01-2015 09:35:00 6.6 C 6.79 g/m*3 6.6 C 0 km/h
2816 16-01-2015 09:40:00 6.6 C 6.79 g/m*3 6.6 C 0 km/h
2817 16-01-2015 09:45:00 6.6 C 6.72 g/m*3 6.6 C 0 km/h
2818 16-01-2015 09:50:00 6.6 C 6.79 g/m*3 6.6 C 3.2 km/h
2819 16-01-2015 09:55:00 6.6 C 6.72 g/m*3 6.6 C 3.2 km/h
2820 16-01-2015 10:00:00 6.7 C 6.69 g/m*3 6.7 C 1.6 km/h
2821 16-01-2015 10:05:00 6.7 C 6.69 g/m*3 6.7 C 0 km/h
2822 16-01-2015 10:10:00 6.8 C 6.73 g/m*3 6.8 C 3.2 km/h
2823 16-01-2015 10:15:00 6.9 C 6.62 g/m*3 6.9 C 3.2 km/h
2824 16-01-2015 10:20:00 6.9 C 6.62 g/m*3 6.9 C 4.8 km/h
2825 16-01-2015 10:25:00 7.1 C 6.63 g/m*3 6.02 C 6.4 km/h
Sensor: Nr:Datum:Temp:Abs-Feuchte:Windchill:Wind:
Aussen-T/F 2826 16-01-2015 10:30:00 7.2 C 6.67 g/m*3 6.13 C 6.4 km/h
2827 16-01-2015 10:35:00 7.2 C 6.59 g/m*3 6.13 C 6.4 km/h
2828 16-01-2015 10:40:00 7.3 C 6.56 g/m*3 5.47 C 9.7 km/h
2829 16-01-2015 10:45:00 7.3 C 6.56 g/m*3 6.25 C 6.4 km/h
2830 16-01-2015 10:50:00 7.3 C 6.56 g/m*3 7.3 C 3.2 km/h
2831 16-01-2015 10:55:00 7.3 C 6.56 g/m*3 7.3 C 0 km/h
2832 16-01-2015 11:00:00 7.3 C 6.56 g/m*3 7.3 C 0 km/h
2833 16-01-2015 11:05:00 7.3 C 6.64 g/m*3 7.3 C 0 km/h
2834 16-01-2015 11:10:00 7.3 C 6.79 g/m*3 7.3 C 0 km/h
2835 16-01-2015 11:15:00 7.3 C 6.79 g/m*3 7.3 C 0 km/h
2836 16-01-2015 11:20:00 7.3 C 6.79 g/m*3 7.3 C 0 km/h
2837 16-01-2015 11:25:00 7.3 C 6.79 g/m*3 7.3 C 3.2 km/h
2838 16-01-2015 11:30:00 7.3 C 6.79 g/m*3 7.3 C 1.6 km/h
2839 16-01-2015 11:35:00 7.3 C 6.79 g/m*3 7.3 C 3.2 km/h
2840 16-01-2015 11:40:00 7.4 C 6.84 g/m*3 7.4 C 3.2 km/h
2841 16-01-2015 11:45:00 7.4 C 6.76 g/m*3 7.4 C 3.2 km/h
2842 16-01-2015 11:50:00 7.4 C 6.84 g/m*3 7.4 C 3.2 km/h
2843 16-01-2015 11:55:00 7.4 C 6.84 g/m*3 7.4 C 3.2 km/h
2844 16-01-2015 12:00:00 7.4 C 6.76 g/m*3 7.4 C 1.6 km/h
2845 16-01-2015 12:05:00 7.5 C 6.8 g/m*3 7.5 C 4.8 km/h
2846 16-01-2015 12:10:00 7.5 C 6.8 g/m*3 7.5 C 3.2 km/h
2847 16-01-2015 12:15:00 7.4 C 6.76 g/m*3 5.93 C 8.1 km/h
2848 16-01-2015 12:20:00 7.4 C 6.68 g/m*3 7.4 C 1.6 km/h
2849 16-01-2015 12:25:00 7.4 C 6.68 g/m*3 7.4 C 0 km/h
2850 16-01-2015 12:30:00 7.4 C 6.6 g/m*3 7.4 C 0 km/h
Sensor: Nr:Datum:Temp:Abs-Feuchte:Windchill:Wind:
Aussen-T/F 2851 16-01-2015 12:35:00 7.4 C 6.68 g/m*3 7.4 C 0 km/h
2852 16-01-2015 12:40:00 7.5 C 6.72 g/m*3 7.5 C 1.6 km/h
2853 16-01-2015 12:45:00 7.4 C 6.36 g/m*3 7.4 C 1.6 km/h
2854 16-01-2015 12:50:00 7.5 C 6.56 g/m*3 7.5 C 0 km/h
2855 16-01-2015 12:55:00 7.5 C 6.64 g/m*3 7.5 C 3.2 km/h
2856 16-01-2015 13:00:00 7.4 C 6.36 g/m*3 7.4 C 3.2 km/h
2857 16-01-2015 13:05:00 7.4 C 6.28 g/m*3 5.93 C 8.1 km/h
2858 16-01-2015 13:10:00 7.4 C 6.36 g/m*3 7.4 C 3.2 km/h
2859 16-01-2015 13:15:00 7.4 C 6.36 g/m*3 7.4 C 1.6 km/h
2860 16-01-2015 13:20:00 7.3 C 6.32 g/m*3 7.3 C 4.8 km/h
2861 16-01-2015 13:25:00 7.3 C 6.4 g/m*3 7.3 C 3.2 km/h
2862 16-01-2015 13:30:00 7.3 C 6.4 g/m*3 7.3 C 3.2 km/h
2863 16-01-2015 13:35:00 7.2 C 6.28 g/m*3 7.2 C 4.8 km/h
2864 16-01-2015 13:40:00 7.2 C 6.36 g/m*3 7.2 C 3.2 km/h
2865 16-01-2015 13:45:00 7.2 C 6.36 g/m*3 7.2 C 1.6 km/h
2866 16-01-2015 13:50:00 7.1 C 6.32 g/m*3 7.1 C 4.8 km/h
2867 16-01-2015 13:55:00 7 C 6.28 g/m*3 7 C 3.2 km/h
2868 16-01-2015 14:00:00 6.9 C 6.31 g/m*3 6.9 C 4.8 km/h
2869 16-01-2015 14:05:00 6.9 C 6.31 g/m*3 6.9 C 3.2 km/h
2870 16-01-2015 14:10:00 6.9 C 6.31 g/m*3 6.9 C 3.2 km/h
2871 16-01-2015 14:15:00 6.9 C 6.31 g/m*3 6.9 C 3.2 km/h
2872 16-01-2015 14:20:00 6.9 C 6.31 g/m*3 6.9 C 1.6 km/h
2873 16-01-2015 14:25:00 6.9 C 6.24 g/m*3 6.9 C 3.2 km/h
2874 16-01-2015 14:30:00 6.9 C 6.31 g/m*3 6.9 C 3.2 km/h
2875 16-01-2015 14:35:00 6.9 C 6.31 g/m*3 5.79 C 6.4 km/h
Sensor: Nr:Datum:Temp:Abs-Feuchte:Windchill:Wind:
Aussen-T/F 2876 16-01-2015 14:40:00 6.9 C 6.31 g/m*3 6.9 C 4.8 km/h
2877 16-01-2015 14:45:00 6.9 C 6.39 g/m*3 6.9 C 4.8 km/h
2878 16-01-2015 14:50:00 6.9 C 6.39 g/m*3 5.34 C 8.1 km/h
2879 16-01-2015 14:55:00 6.8 C 6.27 g/m*3 4.87 C 9.7 km/h
2880 16-01-2015 15:00:00 6.8 C 6.27 g/m*3 5.67 C 6.4 km/h
2881 16-01-2015 15:05:00 6.7 C 6.23 g/m*3 6.7 C 3.2 km/h
2882 16-01-2015 15:10:00 6.7 C 6.31 g/m*3 6.7 C 3.2 km/h
2883 16-01-2015 15:15:00 6.7 C 6.31 g/m*3 6.7 C 1.6 km/h
2884 16-01-2015 15:20:00 6.7 C 6.31 g/m*3 6.7 C 1.6 km/h
2885 16-01-2015 15:25:00 6.7 C 6.38 g/m*3 6.7 C 0 km/h
2886 16-01-2015 15:30:00 6.7 C 6.38 g/m*3 6.7 C 0 km/h
2887 16-01-2015 15:35:00 6.6 C 6.42 g/m*3 6.6 C 0 km/h
2888 16-01-2015 15:40:00 6.6 C 6.49 g/m*3 6.6 C 0 km/h
2889 16-01-2015 15:45:00 6.5 C 6.52 g/m*3 6.5 C 0 km/h
2890 16-01-2015 15:50:00 6.4 C 6.56 g/m*3 6.4 C 0 km/h
2891 16-01-2015 15:55:00 6.4 C 6.56 g/m*3 6.4 C 0 km/h
2892 16-01-2015 16:00:00 6.3 C 6.59 g/m*3 6.3 C 0 km/h
2893 16-01-2015 16:05:00 6.2 C 6.62 g/m*3 6.2 C 0 km/h
2894 16-01-2015 16:10:00 6.2 C 6.69 g/m*3 6.2 C 0 km/h
2895 16-01-2015 16:15:00 6.1 C 6.65 g/m*3 6.1 C 0 km/h
2896 16-01-2015 16:20:00 6.1 C 6.65 g/m*3 6.1 C 1.6 km/h
2897 16-01-2015 16:25:00 5.9 C 6.63 g/m*3 5.9 C 0 km/h
2898 16-01-2015 16:30:00 5.8 C 6.59 g/m*3 5.8 C 0 km/h
2899 16-01-2015 16:35:00 5.8 C 6.59 g/m*3 5.8 C 0 km/h
2900 16-01-2015 16:40:00 5.7 C 6.62 g/m*3 5.7 C 0 km/h
Sensor: Nr:Datum:Temp:Abs-Feuchte:Windchill:Wind:
Aussen-T/F 2901 16-01-2015 16:45:00 5.7 C 6.62 g/m*3 5.7 C 1.6 km/h
2902 16-01-2015 16:50:00 5.7 C 6.62 g/m*3 5.7 C 1.6 km/h
2903 16-01-2015 16:55:00 5.6 C 6.57 g/m*3 5.6 C 3.2 km/h
2904 16-01-2015 17:00:00 5.6 C 6.57 g/m*3 5.6 C 1.6 km/h
2905 16-01-2015 17:05:00 5.5 C 6.53 g/m*3 5.5 C 1.6 km/h
2906 16-01-2015 17:10:00 5.5 C 6.53 g/m*3 5.5 C 0 km/h
2907 16-01-2015 17:15:00 5.4 C 6.56 g/m*3 5.4 C 1.6 km/h
2908 16-01-2015 17:20:00 5.4 C 6.56 g/m*3 5.4 C 1.6 km/h
2909 16-01-2015 17:25:00 5.4 C 6.56 g/m*3 5.4 C 1.6 km/h
2910 16-01-2015 17:30:00 5.4 C 6.56 g/m*3 5.4 C 0 km/h
2911 16-01-2015 17:35:00 5.3 C 6.52 g/m*3 5.3 C 0 km/h
2912 16-01-2015 17:40:00 5.3 C 6.52 g/m*3 5.3 C 0 km/h
2913 16-01-2015 17:45:00 5.3 C 6.52 g/m*3 5.3 C 0 km/h
2914 16-01-2015 17:50:00 5.3 C 6.52 g/m*3 5.3 C 0 km/h
2915 16-01-2015 17:55:00 5.3 C 6.52 g/m*3 5.3 C 0 km/h
2916 16-01-2015 18:00:00 5.2 C 6.47 g/m*3 5.2 C 0 km/h
2917 16-01-2015 18:05:00 5.2 C 6.47 g/m*3 5.2 C 0 km/h
2918 16-01-2015 18:10:00 5.2 C 6.47 g/m*3 5.2 C 0 km/h
2919 16-01-2015 18:15:00 5.2 C 6.47 g/m*3 5.2 C 0 km/h
2920 16-01-2015 18:20:00 5.2 C 6.47 g/m*3 5.2 C 1.6 km/h
2921 16-01-2015 18:25:00 5.1 C 6.43 g/m*3 5.1 C 0 km/h
2922 16-01-2015 18:30:00 5.1 C 6.43 g/m*3 5.1 C 0 km/h
2923 16-01-2015 18:35:00 5.1 C 6.43 g/m*3 5.1 C 0 km/h
2924 16-01-2015 18:40:00 5.1 C 6.43 g/m*3 5.1 C 0 km/h
2925 16-01-2015 18:45:00 5.1 C 6.43 g/m*3 5.1 C 0 km/h
Sensor: Nr:Datum:Temp:Abs-Feuchte:Windchill:Wind:
Aussen-T/F 2926 16-01-2015 18:50:00 5.1 C 6.43 g/m*3 5.1 C 0 km/h
2927 16-01-2015 18:55:00 5.1 C 6.43 g/m*3 5.1 C 0 km/h
2928 16-01-2015 19:00:00 5.1 C 6.43 g/m*3 5.1 C 0 km/h
2929 16-01-2015 19:05:00 5.1 C 6.43 g/m*3 5.1 C 0 km/h
2930 16-01-2015 19:10:00 5.1 C 6.43 g/m*3 5.1 C 0 km/h
2931 16-01-2015 19:15:00 5.1 C 6.43 g/m*3 5.1 C 0 km/h
2932 16-01-2015 19:20:00 5.1 C 6.43 g/m*3 5.1 C 0 km/h
2933 16-01-2015 19:25:00 5.1 C 6.43 g/m*3 5.1 C 1.6 km/h
2934 16-01-2015 19:30:00 5.1 C 6.43 g/m*3 5.1 C 0 km/h
2935 16-01-2015 19:35:00 5.1 C 6.43 g/m*3 5.1 C 0 km/h
2936 16-01-2015 19:40:00 5.1 C 6.43 g/m*3 5.1 C 0 km/h
2937 16-01-2015 19:45:00 5.1 C 6.43 g/m*3 5.1 C 0 km/h
2938 16-01-2015 19:50:00 5.2 C 6.47 g/m*3 5.2 C 0 km/h
2939 16-01-2015 19:55:00 5.2 C 6.47 g/m*3 5.2 C 0 km/h
2940 16-01-2015 20:00:00 5.2 C 6.47 g/m*3 5.2 C 0 km/h
2941 16-01-2015 20:05:00 5.2 C 6.47 g/m*3 5.2 C 0 km/h
2942 16-01-2015 20:10:00 5.2 C 6.47 g/m*3 5.2 C 0 km/h
2943 16-01-2015 20:15:00 5.1 C 6.36 g/m*3 5.1 C 1.6 km/h
2944 16-01-2015 20:20:00 5.2 C 6.4 g/m*3 5.2 C 0 km/h
2945 16-01-2015 20:25:00 5.2 C 6.4 g/m*3 5.2 C 0 km/h
2946 16-01-2015 20:30:00 5.2 C 6.4 g/m*3 5.2 C 0 km/h
2947 16-01-2015 20:35:00 5.1 C 6.36 g/m*3 5.1 C 1.6 km/h
2948 16-01-2015 20:40:00 5.1 C 6.36 g/m*3 5.1 C 0 km/h
2949 16-01-2015 20:45:00 5.1 C 6.36 g/m*3 5.1 C 0 km/h
2950 16-01-2015 20:50:00 5 C 6.39 g/m*3 5 C 0 km/h
Sensor: Nr:Datum:Temp:Abs-Feuchte:Windchill:Wind:
Aussen-T/F 2951 16-01-2015 20:55:00 4.9 C 6.35 g/m*3 4.9 C 0 km/h
2952 16-01-2015 21:00:00 4.9 C 6.35 g/m*3 4.9 C 0 km/h
2953 16-01-2015 21:05:00 4.9 C 6.35 g/m*3 4.9 C 0 km/h
2954 16-01-2015 21:10:00 4.9 C 6.35 g/m*3 4.9 C 0 km/h
2955 16-01-2015 21:15:00 4.9 C 6.35 g/m*3 4.9 C 0 km/h
2956 16-01-2015 21:20:00 4.9 C 6.35 g/m*3 4.9 C 0 km/h
2957 16-01-2015 21:25:00 4.9 C 6.35 g/m*3 4.9 C 0 km/h
2958 16-01-2015 21:30:00 4.9 C 6.35 g/m*3 4.9 C 0 km/h
2959 16-01-2015 21:35:00 4.9 C 6.35 g/m*3 4.9 C 0 km/h
2960 16-01-2015 21:40:00 4.9 C 6.35 g/m*3 4.9 C 0 km/h
2961 16-01-2015 21:45:00 4.9 C 6.35 g/m*3 4.9 C 0 km/h
2962 16-01-2015 21:50:00 4.9 C 6.35 g/m*3 4.9 C 1.6 km/h
2963 16-01-2015 21:55:00 4.9 C 6.35 g/m*3 4.9 C 1.6 km/h
2964 16-01-2015 22:00:00 4.9 C 6.35 g/m*3 4.9 C 4.8 km/h
2965 16-01-2015 22:05:00 5 C 6.39 g/m*3 5 C 3.2 km/h
2966 16-01-2015 22:10:00 5.1 C 6.43 g/m*3 3.23 C 8.1 km/h
2967 16-01-2015 22:15:00 5.1 C 6.43 g/m*3 5.1 C 4.8 km/h
2968 16-01-2015 22:20:00 5.1 C 6.36 g/m*3 5.1 C 1.6 km/h
2969 16-01-2015 22:25:00 5.1 C 6.36 g/m*3 5.1 C 1.6 km/h
2970 16-01-2015 22:30:00 5.1 C 6.36 g/m*3 5.1 C 0 km/h
2971 16-01-2015 22:35:00 5 C 6.39 g/m*3 5 C 1.6 km/h
2972 16-01-2015 22:40:00 5.1 C 6.43 g/m*3 5.1 C 4.8 km/h
2973 16-01-2015 22:45:00 5.2 C 6.4 g/m*3 5.2 C 4.8 km/h
2974 16-01-2015 22:50:00 5.2 C 6.4 g/m*3 5.2 C 3.2 km/h
2975 16-01-2015 22:55:00 5.2 C 6.4 g/m*3 5.2 C 3.2 km/h
Sensor: Nr:Datum:Temp:Abs-Feuchte:Windchill:Wind:
Aussen-T/F 2976 16-01-2015 23:00:00 5.2 C 6.4 g/m*3 5.2 C 1.6 km/h
2977 16-01-2015 23:05:00 5.1 C 6.36 g/m*3 5.1 C 1.6 km/h
2978 16-01-2015 23:10:00 5.1 C 6.36 g/m*3 5.1 C 1.6 km/h
2979 16-01-2015 23:15:00 4.9 C 6.28 g/m*3 4.9 C 0 km/h
2980 16-01-2015 23:20:00 4.9 C 6.28 g/m*3 4.9 C 0 km/h
2981 16-01-2015 23:25:00 4.8 C 6.24 g/m*3 4.8 C 0 km/h
2982 16-01-2015 23:30:00 4.8 C 6.3 g/m*3 4.8 C 0 km/h
2983 16-01-2015 23:35:00 4.8 C 6.3 g/m*3 4.8 C 0 km/h
2984 16-01-2015 23:40:00 4.8 C 6.3 g/m*3 4.8 C 1.6 km/h
2985 16-01-2015 23:45:00 4.9 C 6.35 g/m*3 4.9 C 0 km/h
2986 16-01-2015 23:50:00 4.9 C 6.35 g/m*3 4.9 C 3.2 km/h
2987 16-01-2015 23:55:00 4.9 C 6.35 g/m*3 4.9 C 1.6 km/h
2988 17-01-2015 00:00:00 4.9 C 6.35 g/m*3 4.9 C 1.6 km/h
2989 17-01-2015 00:05:00 4.9 C 6.35 g/m*3 4.9 C 4.8 km/h
2990 17-01-2015 00:10:00 4.9 C 6.35 g/m*3 4.9 C 0 km/h
2991 17-01-2015 00:15:00 5 C 6.32 g/m*3 5 C 1.6 km/h
2992 17-01-2015 00:20:00 5 C 6.32 g/m*3 5 C 3.2 km/h
2993 17-01-2015 00:25:00 5.1 C 6.36 g/m*3 5.1 C 1.6 km/h
2994 17-01-2015 00:30:00 5.1 C 6.36 g/m*3 5.1 C 1.6 km/h
2995 17-01-2015 00:35:00 5.1 C 6.36 g/m*3 5.1 C 4.8 km/h
2996 17-01-2015 00:40:00 5 C 6.25 g/m*3 5 C 3.2 km/h
2997 17-01-2015 00:45:00 4.9 C 6.21 g/m*3 4.9 C 3.2 km/h
2998 17-01-2015 00:50:00 4.8 C 6.17 g/m*3 4.8 C 3.2 km/h
2999 17-01-2015 00:55:00 4.8 C 6.17 g/m*3 4.8 C 1.6 km/h
3000 17-01-2015 01:00:00 4.8 C 6.24 g/m*3 4.8 C 0 km/h
Sensor: Nr:Datum:Temp:Abs-Feuchte:Windchill:Wind:
Aussen-T/F 3001 17-01-2015 01:05:00 4.8 C 6.24 g/m*3 4.8 C 1.6 km/h
3002 17-01-2015 01:10:00 4.7 C 6.19 g/m*3 4.7 C 0 km/h
3003 17-01-2015 01:15:00 4.7 C 6.19 g/m*3 4.7 C 3.2 km/h
3004 17-01-2015 01:20:00 4.7 C 6.19 g/m*3 4.7 C 0 km/h
3005 17-01-2015 01:25:00 4.6 C 6.15 g/m*3 4.6 C 0 km/h
3006 17-01-2015 01:30:00 4.6 C 6.15 g/m*3 4.6 C 3.2 km/h
3007 17-01-2015 01:35:00 4.6 C 6.15 g/m*3 4.6 C 4.8 km/h
3008 17-01-2015 01:40:00 4.6 C 6.09 g/m*3 4.6 C 0 km/h
3009 17-01-2015 01:45:00 4.6 C 6.09 g/m*3 4.6 C 0 km/h
3010 17-01-2015 01:50:00 4.6 C 6.09 g/m*3 4.6 C 1.6 km/h
3011 17-01-2015 01:55:00 4.6 C 6.09 g/m*3 4.6 C 3.2 km/h
3012 17-01-2015 02:00:00 4.6 C 6.02 g/m*3 4.6 C 1.6 km/h
3013 17-01-2015 02:05:00 4.6 C 6.09 g/m*3 4.6 C 0 km/h
3014 17-01-2015 02:10:00 4.5 C 6.05 g/m*3 4.5 C 4.8 km/h
3015 17-01-2015 02:15:00 4.5 C 6.05 g/m*3 4.5 C 1.6 km/h
3016 17-01-2015 02:20:00 4.6 C 6.02 g/m*3 3.13 C 6.4 km/h
3017 17-01-2015 02:25:00 4.7 C 6.06 g/m*3 4.7 C 3.2 km/h
3018 17-01-2015 02:30:00 4.7 C 6.06 g/m*3 4.7 C 4.8 km/h
3019 17-01-2015 02:35:00 4.9 C 6.14 g/m*3 4.9 C 4.8 km/h
3020 17-01-2015 02:40:00 4.9 C 6.08 g/m*3 4.9 C 4.8 km/h
3021 17-01-2015 02:45:00 5 C 6.12 g/m*3 3.59 C 6.4 km/h
3022 17-01-2015 02:50:00 5.1 C 6.16 g/m*3 3.71 C 6.4 km/h
3023 17-01-2015 02:55:00 5.1 C 6.16 g/m*3 5.1 C 4.8 km/h
3024 17-01-2015 03:00:00 5.1 C 6.16 g/m*3 5.1 C 4.8 km/h
3025 17-01-2015 03:05:00 5.1 C 6.16 g/m*3 5.1 C 4.8 km/h
Sensor: Nr:Datum:Temp:Abs-Feuchte:Windchill:Wind:
Aussen-T/F 3026 17-01-2015 03:10:00 5 C 6.12 g/m*3 3.11 C 8.1 km/h
3027 17-01-2015 03:15:00 5 C 6.12 g/m*3 3.11 C 8.1 km/h
3028 17-01-2015 03:20:00 5 C 6.12 g/m*3 3.59 C 6.4 km/h
3029 17-01-2015 03:25:00 5 C 6.18 g/m*3 3.59 C 6.4 km/h
3030 17-01-2015 03:30:00 5 C 6.18 g/m*3 2.72 C 9.7 km/h
3031 17-01-2015 03:35:00 5 C 6.12 g/m*3 3.11 C 8.1 km/h
3032 17-01-2015 03:40:00 5 C 6.12 g/m*3 3.59 C 6.4 km/h
3033 17-01-2015 03:45:00 5 C 6.12 g/m*3 2.72 C 9.7 km/h
3034 17-01-2015 03:50:00 5 C 6.12 g/m*3 5 C 4.8 km/h
3035 17-01-2015 03:55:00 5 C 6.12 g/m*3 3.11 C 8.1 km/h
3036 17-01-2015 04:00:00 5 C 6.18 g/m*3 5 C 4.8 km/h
3037 17-01-2015 04:05:00 5 C 6.18 g/m*3 5 C 4.8 km/h
3038 17-01-2015 04:10:00 4.9 C 6.14 g/m*3 4.9 C 4.8 km/h
3039 17-01-2015 04:15:00 4.9 C 6.14 g/m*3 4.9 C 4.8 km/h
3040 17-01-2015 04:20:00 4.9 C 6.14 g/m*3 4.9 C 3.2 km/h
3041 17-01-2015 04:25:00 4.9 C 6.14 g/m*3 4.9 C 3.2 km/h
3042 17-01-2015 04:30:00 4.9 C 6.14 g/m*3 4.9 C 3.2 km/h
3043 17-01-2015 04:35:00 4.9 C 6.14 g/m*3 4.9 C 4.8 km/h
3044 17-01-2015 04:40:00 4.9 C 6.14 g/m*3 4.9 C 1.6 km/h
3045 17-01-2015 04:45:00 4.8 C 6.1 g/m*3 4.8 C 3.2 km/h
3046 17-01-2015 04:50:00 4.9 C 6.14 g/m*3 4.9 C 1.6 km/h
3047 17-01-2015 04:55:00 4.9 C 6.08 g/m*3 4.9 C 0 km/h
3048 17-01-2015 05:00:00 4.9 C 6.14 g/m*3 4.9 C 1.6 km/h
3049 17-01-2015 05:05:00 4.9 C 6.14 g/m*3 4.9 C 0 km/h
3050 17-01-2015 05:10:00 4.9 C 6.14 g/m*3 4.9 C 0 km/h
Sensor: Nr:Datum:Temp:Abs-Feuchte:Windchill:Wind:
Aussen-T/F 3051 17-01-2015 05:15:00 4.8 C 6.1 g/m*3 4.8 C 0 km/h
3052 17-01-2015 05:20:00 4.8 C 6.17 g/m*3 4.8 C 1.6 km/h
3053 17-01-2015 05:25:00 4.7 C 6.13 g/m*3 3.25 C 6.4 km/h
3054 17-01-2015 05:30:00 4.6 C 6.09 g/m*3 4.6 C 1.6 km/h
3055 17-01-2015 05:35:00 4.6 C 6.09 g/m*3 4.6 C 1.6 km/h
3056 17-01-2015 05:40:00 4.5 C 6.11 g/m*3 4.5 C 3.2 km/h
3057 17-01-2015 05:45:00 4.4 C 6.07 g/m*3 4.4 C 3.2 km/h
3058 17-01-2015 05:50:00 4.4 C 6.07 g/m*3 4.4 C 4.8 km/h
3059 17-01-2015 05:55:00 4.3 C 6.1 g/m*3 4.3 C 4.8 km/h
3060 17-01-2015 06:00:00 4.3 C 6.1 g/m*3 4.3 C 4.8 km/h
3061 17-01-2015 06:05:00 4.3 C 6.1 g/m*3 4.3 C 1.6 km/h
3062 17-01-2015 06:10:00 4.3 C 6.1 g/m*3 4.3 C 1.6 km/h
3063 17-01-2015 06:15:00 4.2 C 6.06 g/m*3 4.2 C 1.6 km/h
3064 17-01-2015 06:20:00 4.1 C 6.02 g/m*3 4.1 C 1.6 km/h
3065 17-01-2015 06:25:00 4 C 5.98 g/m*3 4 C 1.6 km/h
3066 17-01-2015 06:30:00 3.9 C 6 g/m*3 3.9 C 1.6 km/h
3067 17-01-2015 06:35:00 3.9 C 6 g/m*3 3.9 C 3.2 km/h
3068 17-01-2015 06:40:00 3.9 C 6 g/m*3 3.9 C 3.2 km/h
3069 17-01-2015 06:45:00 3.9 C 6 g/m*3 3.9 C 3.2 km/h
3070 17-01-2015 06:50:00 3.9 C 6 g/m*3 3.9 C 3.2 km/h
3071 17-01-2015 06:55:00 3.8 C 5.96 g/m*3 3.8 C 4.8 km/h
3072 17-01-2015 07:00:00 3.7 C 5.92 g/m*3 3.7 C 3.2 km/h
3073 17-01-2015 07:05:00 3.6 C 5.88 g/m*3 3.6 C 1.6 km/h
3074 17-01-2015 07:10:00 3.5 C 5.84 g/m*3 3.5 C 0 km/h
3075 17-01-2015 07:15:00 3.4 C 5.8 g/m*3 3.4 C 0 km/h
Sensor: Nr:Datum:Temp:Abs-Feuchte:Windchill:Wind:
Aussen-T/F 3076 17-01-2015 07:20:00 3.3 C 5.76 g/m*3 3.3 C 4.8 km/h
3077 17-01-2015 07:25:00 3.3 C 5.76 g/m*3 3.3 C 3.2 km/h
3078 17-01-2015 07:30:00 3.2 C 5.79 g/m*3 3.2 C 4.8 km/h
3079 17-01-2015 07:35:00 3.2 C 5.79 g/m*3 3.2 C 4.8 km/h
3080 17-01-2015 07:40:00 3.1 C 5.75 g/m*3 3.1 C 1.6 km/h
3081 17-01-2015 07:45:00 2.9 C 5.61 g/m*3 2.9 C 3.2 km/h
3082 17-01-2015 07:50:00 2.8 C 5.57 g/m*3 2.8 C 3.2 km/h
3083 17-01-2015 07:55:00 2.7 C 5.54 g/m*3 2.7 C 4.8 km/h
3084 17-01-2015 08:00:00 2.7 C 5.59 g/m*3 2.7 C 4.8 km/h
3085 17-01-2015 08:05:00 2.6 C 5.56 g/m*3 0.82 C 6.4 km/h
3086 17-01-2015 08:10:00 2.6 C 5.56 g/m*3 2.6 C 4.8 km/h
3087 17-01-2015 08:15:00 2.5 C 5.52 g/m*3 2.5 C 4.8 km/h
3088 17-01-2015 08:20:00 2.5 C 5.52 g/m*3 2.5 C 4.8 km/h
3089 17-01-2015 08:25:00 2.5 C 5.52 g/m*3 2.5 C 3.2 km/h
3090 17-01-2015 08:30:00 2.4 C 5.48 g/m*3 2.4 C 3.2 km/h
3091 17-01-2015 08:35:00 2.4 C 5.48 g/m*3 2.4 C 0 km/h
3092 17-01-2015 08:40:00 2.3 C 5.44 g/m*3 2.3 C 4.8 km/h
3093 17-01-2015 08:45:00 2.3 C 5.44 g/m*3 0.47 C 6.4 km/h
3094 17-01-2015 08:50:00 2.4 C 5.48 g/m*3 2.4 C 4.8 km/h
3095 17-01-2015 08:55:00 2.4 C 5.48 g/m*3 2.4 C 3.2 km/h
3096 17-01-2015 09:00:00 2.3 C 5.44 g/m*3 2.3 C 0 km/h
3097 17-01-2015 09:05:00 2.3 C 5.44 g/m*3 2.3 C 0 km/h
3098 17-01-2015 09:10:00 2.3 C 5.44 g/m*3 2.3 C 0 km/h
3099 17-01-2015 09:15:00 2.3 C 5.44 g/m*3 2.3 C 3.2 km/h
3100 17-01-2015 09:20:00 2.3 C 5.44 g/m*3 2.3 C 3.2 km/h
Sensor: Nr:Datum:Temp:Abs-Feuchte:Windchill:Wind:
Aussen-T/F 3101 17-01-2015 09:25:00 2.3 C 5.44 g/m*3 2.3 C 0 km/h
3102 17-01-2015 09:30:00 2.3 C 5.44 g/m*3 2.3 C 0 km/h
3103 17-01-2015 09:35:00 2.3 C 5.44 g/m*3 2.3 C 0 km/h
3104 17-01-2015 09:40:00 2.3 C 5.44 g/m*3 2.3 C 0 km/h
3105 17-01-2015 09:45:00 2.3 C 5.5 g/m*3 2.3 C 0 km/h
3106 17-01-2015 09:50:00 2.3 C 5.44 g/m*3 2.3 C 0 km/h
3107 17-01-2015 09:55:00 2.4 C 5.54 g/m*3 2.4 C 0 km/h
3108 17-01-2015 10:00:00 2.4 C 5.54 g/m*3 2.4 C 0 km/h
3109 17-01-2015 10:05:00 2.5 C 5.58 g/m*3 2.5 C 0 km/h
3110 17-01-2015 10:10:00 2.6 C 5.61 g/m*3 2.6 C 0 km/h
3111 17-01-2015 10:15:00 2.7 C 5.65 g/m*3 2.7 C 4.8 km/h
3112 17-01-2015 10:20:00 2.8 C 5.69 g/m*3 2.8 C 4.8 km/h
3113 17-01-2015 10:25:00 2.8 C 5.69 g/m*3 2.8 C 3.2 km/h
3114 17-01-2015 10:30:00 2.8 C 5.69 g/m*3 2.8 C 1.6 km/h
3115 17-01-2015 10:35:00 2.8 C 5.69 g/m*3 2.8 C 3.2 km/h
3116 17-01-2015 10:40:00 2.9 C 5.73 g/m*3 1.17 C 6.4 km/h
3117 17-01-2015 10:45:00 2.9 C 5.73 g/m*3 2.9 C 1.6 km/h
3118 17-01-2015 10:50:00 2.9 C 5.67 g/m*3 2.9 C 4.8 km/h
3119 17-01-2015 10:55:00 2.9 C 5.67 g/m*3 2.9 C 4.8 km/h
3120 17-01-2015 11:00:00 2.9 C 5.67 g/m*3 2.9 C 1.6 km/h
3121 17-01-2015 11:05:00 2.9 C 5.67 g/m*3 2.9 C 3.2 km/h
3122 17-01-2015 11:10:00 3 C 5.71 g/m*3 3 C 4.8 km/h
3123 17-01-2015 11:15:00 3 C 5.71 g/m*3 3 C 3.2 km/h
3124 17-01-2015 11:20:00 3.1 C 5.75 g/m*3 3.1 C 1.6 km/h
3125 17-01-2015 11:25:00 3.2 C 5.85 g/m*3 3.2 C 0 km/h
Sensor: Nr:Datum:Temp:Abs-Feuchte:Windchill:Wind:
Aussen-T/F 3126 17-01-2015 11:30:00 3.3 C 5.82 g/m*3 3.3 C 0 km/h
3127 17-01-2015 11:35:00 3.3 C 5.82 g/m*3 3.3 C 1.6 km/h
3128 17-01-2015 11:40:00 3.4 C 5.86 g/m*3 1.75 C 6.4 km/h
3129 17-01-2015 11:45:00 3.5 C 5.9 g/m*3 1.86 C 6.4 km/h
3130 17-01-2015 11:50:00 3.6 C 5.94 g/m*3 3.6 C 4.8 km/h
3131 17-01-2015 11:55:00 3.6 C 5.88 g/m*3 3.6 C 3.2 km/h
3132 17-01-2015 12:00:00 3.7 C 5.92 g/m*3 3.7 C 3.2 km/h
3133 17-01-2015 12:05:00 3.7 C 5.86 g/m*3 3.7 C 4.8 km/h
3134 17-01-2015 12:10:00 3.8 C 5.83 g/m*3 3.8 C 3.2 km/h
3135 17-01-2015 12:15:00 3.8 C 5.83 g/m*3 3.8 C 4.8 km/h
3136 17-01-2015 12:20:00 3.9 C 5.81 g/m*3 3.9 C 1.6 km/h
3137 17-01-2015 12:25:00 4 C 5.85 g/m*3 4 C 4.8 km/h
3138 17-01-2015 12:30:00 4.1 C 5.82 g/m*3 4.1 C 1.6 km/h
3139 17-01-2015 12:35:00 4.2 C 5.86 g/m*3 4.2 C 3.2 km/h
3140 17-01-2015 12:40:00 4.2 C 5.8 g/m*3 4.2 C 1.6 km/h
3141 17-01-2015 12:45:00 4.2 C 5.73 g/m*3 4.2 C 4.8 km/h
3142 17-01-2015 12:50:00 4.3 C 5.77 g/m*3 4.3 C 1.6 km/h
3143 17-01-2015 12:55:00 4.3 C 5.71 g/m*3 4.3 C 1.6 km/h
3144 17-01-2015 13:00:00 4.4 C 5.81 g/m*3 4.4 C 1.6 km/h
3145 17-01-2015 13:05:00 4.4 C 5.75 g/m*3 4.4 C 1.6 km/h
3146 17-01-2015 13:10:00 4.4 C 5.75 g/m*3 4.4 C 3.2 km/h
3147 17-01-2015 13:15:00 4.5 C 5.78 g/m*3 4.5 C 1.6 km/h
3148 17-01-2015 13:20:00 4.6 C 5.76 g/m*3 4.6 C 3.2 km/h
3149 17-01-2015 13:25:00 4.8 C 5.7 g/m*3 4.8 C 4.8 km/h
3150 17-01-2015 13:30:00 4.9 C 5.67 g/m*3 4.9 C 1.6 km/h
Sensor: Nr:Datum:Temp:Abs-Feuchte:Windchill:Wind:
Aussen-T/F 3151 17-01-2015 13:35:00 5.1 C 5.68 g/m*3 3.71 C 6.4 km/h
3152 17-01-2015 13:40:00 5.2 C 5.58 g/m*3 5.2 C 4.8 km/h
3153 17-01-2015 13:45:00 5.3 C 5.68 g/m*3 3.94 C 6.4 km/h
3154 17-01-2015 13:50:00 5.3 C 5.61 g/m*3 5.3 C 1.6 km/h
3155 17-01-2015 13:55:00 5.3 C 5.61 g/m*3 5.3 C 4.8 km/h
3156 17-01-2015 14:00:00 5.3 C 5.54 g/m*3 2.75 C 11.3 km/h
3157 17-01-2015 14:05:00 5.4 C 5.51 g/m*3 5.4 C 4.8 km/h
3158 17-01-2015 14:10:00 5.4 C 5.51 g/m*3 4.06 C 6.4 km/h
3159 17-01-2015 14:15:00 5.5 C 5.55 g/m*3 3.7 C 8.1 km/h
3160 17-01-2015 14:20:00 5.6 C 5.66 g/m*3 5.6 C 3.2 km/h
3161 17-01-2015 14:25:00 5.6 C 5.66 g/m*3 3.81 C 8.1 km/h
3162 17-01-2015 14:30:00 5.6 C 5.73 g/m*3 5.6 C 1.6 km/h
3163 17-01-2015 14:35:00 5.6 C 5.66 g/m*3 5.6 C 4.8 km/h
3164 17-01-2015 14:40:00 5.6 C 5.73 g/m*3 4.29 C 6.4 km/h
3165 17-01-2015 14:45:00 5.5 C 5.62 g/m*3 3.7 C 8.1 km/h
3166 17-01-2015 14:50:00 5.5 C 5.48 g/m*3 5.5 C 3.2 km/h
3167 17-01-2015 14:55:00 5.6 C 5.59 g/m*3 5.6 C 4.8 km/h
3168 17-01-2015 15:00:00 5.6 C 5.66 g/m*3 5.6 C 4.8 km/h
3169 17-01-2015 15:05:00 5.6 C 5.59 g/m*3 5.6 C 4.8 km/h
3170 17-01-2015 15:10:00 5.6 C 5.59 g/m*3 4.29 C 6.4 km/h
3171 17-01-2015 15:15:00 5.6 C 5.66 g/m*3 4.29 C 6.4 km/h
3172 17-01-2015 15:20:00 5.6 C 5.73 g/m*3 5.6 C 4.8 km/h
3173 17-01-2015 15:25:00 5.6 C 5.8 g/m*3 5.6 C 1.6 km/h
3174 17-01-2015 15:30:00 5.5 C 5.62 g/m*3 4.17 C 6.4 km/h
3175 17-01-2015 15:35:00 5.4 C 5.65 g/m*3 5.4 C 0 km/h
Sensor: Nr:Datum:Temp:Abs-Feuchte:Windchill:Wind:
Aussen-T/F 3176 17-01-2015 15:40:00 5.4 C 5.58 g/m*3 5.4 C 3.2 km/h
3177 17-01-2015 15:45:00 5.4 C 5.58 g/m*3 5.4 C 1.6 km/h
3178 17-01-2015 15:50:00 5.4 C 5.72 g/m*3 5.4 C 0 km/h
3179 17-01-2015 15:55:00 5.3 C 5.75 g/m*3 5.3 C 0 km/h
3180 17-01-2015 16:00:00 5.2 C 5.78 g/m*3 5.2 C 0 km/h
3181 17-01-2015 16:05:00 5.2 C 5.85 g/m*3 5.2 C 0 km/h
3182 17-01-2015 16:10:00 5.1 C 5.75 g/m*3 5.1 C 1.6 km/h
3183 17-01-2015 16:15:00 5 C 5.64 g/m*3 5 C 0 km/h
3184 17-01-2015 16:20:00 5 C 5.71 g/m*3 5 C 0 km/h
3185 17-01-2015 16:25:00 4.9 C 5.67 g/m*3 4.9 C 3.2 km/h
3186 17-01-2015 16:30:00 4.8 C 5.77 g/m*3 4.8 C 3.2 km/h
3187 17-01-2015 16:35:00 4.8 C 5.83 g/m*3 4.8 C 1.6 km/h
3188 17-01-2015 16:40:00 4.7 C 5.8 g/m*3 4.7 C 3.2 km/h
3189 17-01-2015 16:45:00 4.4 C 5.75 g/m*3 4.4 C 3.2 km/h
3190 17-01-2015 16:50:00 4.2 C 5.73 g/m*3 4.2 C 3.2 km/h
3191 17-01-2015 16:55:00 3.9 C 5.62 g/m*3 3.9 C 3.2 km/h
3192 17-01-2015 17:00:00 3.6 C 5.57 g/m*3 3.6 C 3.2 km/h
3193 17-01-2015 17:05:00 3.3 C 5.46 g/m*3 3.3 C 3.2 km/h
3194 17-01-2015 17:10:00 3.2 C 5.48 g/m*3 3.2 C 3.2 km/h
3195 17-01-2015 17:15:00 2.9 C 5.37 g/m*3 2.9 C 3.2 km/h
3196 17-01-2015 17:20:00 2.8 C 5.34 g/m*3 2.8 C 4.8 km/h
3197 17-01-2015 17:25:00 2.7 C 5.36 g/m*3 2.7 C 3.2 km/h
3198 17-01-2015 17:30:00 2.6 C 5.32 g/m*3 2.6 C 4.8 km/h
3199 17-01-2015 17:35:00 2.5 C 5.29 g/m*3 2.5 C 3.2 km/h
3200 17-01-2015 17:40:00 2.4 C 5.25 g/m*3 0.59 C 6.4 km/h
Sensor: Nr:Datum:Temp:Abs-Feuchte:Windchill:Wind:
Aussen-T/F 3201 17-01-2015 17:45:00 2.3 C 5.27 g/m*3 2.3 C 3.2 km/h
3202 17-01-2015 17:50:00 2.2 C 5.24 g/m*3 2.2 C 3.2 km/h
3203 17-01-2015 17:55:00 2.2 C 5.24 g/m*3 2.2 C 3.2 km/h
3204 17-01-2015 18:00:00 2.1 C 5.2 g/m*3 2.1 C 1.6 km/h
3205 17-01-2015 18:05:00 1.9 C 5.13 g/m*3 1.9 C 3.2 km/h
3206 17-01-2015 18:10:00 1.9 C 5.13 g/m*3 1.9 C 1.6 km/h
3207 17-01-2015 18:15:00 1.9 C 5.19 g/m*3 1.9 C 1.6 km/h
3208 17-01-2015 18:20:00 1.8 C 5.15 g/m*3 1.8 C 1.6 km/h
3209 17-01-2015 18:25:00 1.8 C 5.15 g/m*3 1.8 C 3.2 km/h
3210 17-01-2015 18:30:00 1.7 C 5.12 g/m*3 1.7 C 3.2 km/h
3211 17-01-2015 18:35:00 1.7 C 5.12 g/m*3 1.7 C 1.6 km/h
3212 17-01-2015 18:40:00 1.7 C 5.12 g/m*3 1.7 C 1.6 km/h
3213 17-01-2015 18:45:00 1.6 C 5.08 g/m*3 1.6 C 0 km/h
3214 17-01-2015 18:50:00 1.4 C 5.01 g/m*3 1.4 C 1.6 km/h
3215 17-01-2015 18:55:00 1.3 C 4.98 g/m*3 1.3 C 0 km/h
3216 17-01-2015 19:00:00 1.3 C 4.98 g/m*3 1.3 C 0 km/h
3217 17-01-2015 19:05:00 1.2 C 4.95 g/m*3 1.2 C 0 km/h
3218 17-01-2015 19:10:00 1.1